<?xml version="1.0" encoding="UTF-8" standalone="no" ?>
<gpx xmlns="http://www.topografix.com/GPX/1/1" xmlns:xsi="http://www.w3.org/2001/XMLSchema-instance" xsi:schemaLocation="http://www.topografix.com/GPX/1/1 http://www.topografix.com/GPX/1/1/gpx.xsd" version="1.1" creator="VisuGPX - https://www.visugpx.com">
  <metadata>
    <name>Rocher des demoiselles </name>
    <desc><![CDATA[
Boucle au départ du parking du vert galant avec quelques passage dans les rochers.]]></desc>
  </metadata>
  <trk>
    <name><![CDATA[Rocher des demoiselles27/02/20]]></name>
    <trkseg>
      <trkpt lat="48.37733" lon="2.67956">
        <ele>103.80000305176</ele>
        <time>2020-02-07T08:51:41Z</time>
      </trkpt>
      <trkpt lat="48.37732" lon="2.67957">
        <ele>104.19999694824</ele>
        <time>2020-02-07T08:51:46Z</time>
      </trkpt>
      <trkpt lat="48.37732" lon="2.67957">
        <ele>104</ele>
        <time>2020-02-07T08:51:51Z</time>
      </trkpt>
      <trkpt lat="48.37732" lon="2.67958">
        <ele>104</ele>
        <time>2020-02-07T08:51:56Z</time>
      </trkpt>
      <trkpt lat="48.37732" lon="2.67958">
        <ele>104</ele>
        <time>2020-02-07T08:52:01Z</time>
      </trkpt>
      <trkpt lat="48.37732" lon="2.67958">
        <ele>104</ele>
        <time>2020-02-07T08:52:06Z</time>
      </trkpt>
      <trkpt lat="48.37732" lon="2.67958">
        <ele>104.19999694824</ele>
        <time>2020-02-07T08:52:11Z</time>
      </trkpt>
      <trkpt lat="48.37732" lon="2.67959">
        <ele>104.19999694824</ele>
        <time>2020-02-07T08:52:16Z</time>
      </trkpt>
      <trkpt lat="48.37732" lon="2.67958">
        <ele>104.19999694824</ele>
        <time>2020-02-07T08:52:21Z</time>
      </trkpt>
      <trkpt lat="48.37731" lon="2.67957">
        <ele>104.19999694824</ele>
        <time>2020-02-07T08:52:26Z</time>
      </trkpt>
      <trkpt lat="48.3773" lon="2.67956">
        <ele>104.19999694824</ele>
        <time>2020-02-07T08:52:31Z</time>
      </trkpt>
      <trkpt lat="48.3773" lon="2.67955">
        <ele>104.19999694824</ele>
        <time>2020-02-07T08:52:36Z</time>
      </trkpt>
      <trkpt lat="48.3773" lon="2.67954">
        <ele>104.19999694824</ele>
        <time>2020-02-07T08:52:41Z</time>
      </trkpt>
      <trkpt lat="48.37729" lon="2.67953">
        <ele>104.40000152588</ele>
        <time>2020-02-07T08:52:46Z</time>
      </trkpt>
      <trkpt lat="48.37729" lon="2.67952">
        <ele>104.40000152588</ele>
        <time>2020-02-07T08:52:51Z</time>
      </trkpt>
      <trkpt lat="48.37725" lon="2.67948">
        <ele>104.40000152588</ele>
        <time>2020-02-07T08:52:56Z</time>
      </trkpt>
      <trkpt lat="48.37719" lon="2.67944">
        <ele>104.40000152588</ele>
        <time>2020-02-07T08:53:01Z</time>
      </trkpt>
      <trkpt lat="48.37715" lon="2.67936">
        <ele>104.59999847412</ele>
        <time>2020-02-07T08:53:06Z</time>
      </trkpt>
      <trkpt lat="48.37715" lon="2.67927">
        <ele>105</ele>
        <time>2020-02-07T08:53:11Z</time>
      </trkpt>
      <trkpt lat="48.37713" lon="2.67916">
        <ele>105.19999694824</ele>
        <time>2020-02-07T08:53:16Z</time>
      </trkpt>
      <trkpt lat="48.37713" lon="2.67906">
        <ele>105.40000152588</ele>
        <time>2020-02-07T08:53:21Z</time>
      </trkpt>
      <trkpt lat="48.37713" lon="2.67894">
        <ele>105.80000305176</ele>
        <time>2020-02-07T08:53:26Z</time>
      </trkpt>
      <trkpt lat="48.37712" lon="2.67881">
        <ele>106.59999847412</ele>
        <time>2020-02-07T08:53:31Z</time>
      </trkpt>
      <trkpt lat="48.37711" lon="2.67869">
        <ele>107</ele>
        <time>2020-02-07T08:53:36Z</time>
      </trkpt>
      <trkpt lat="48.37711" lon="2.67858">
        <ele>107.40000152588</ele>
        <time>2020-02-07T08:53:41Z</time>
      </trkpt>
      <trkpt lat="48.37712" lon="2.67847">
        <ele>107.59999847412</ele>
        <time>2020-02-07T08:53:46Z</time>
      </trkpt>
      <trkpt lat="48.37711" lon="2.67837">
        <ele>108</ele>
        <time>2020-02-07T08:53:51Z</time>
      </trkpt>
      <trkpt lat="48.3771" lon="2.67827">
        <ele>108.40000152588</ele>
        <time>2020-02-07T08:53:56Z</time>
      </trkpt>
      <trkpt lat="48.3771" lon="2.67821">
        <ele>108.59999847412</ele>
        <time>2020-02-07T08:54:01Z</time>
      </trkpt>
      <trkpt lat="48.37709" lon="2.6782">
        <ele>109</ele>
        <time>2020-02-07T08:54:06Z</time>
      </trkpt>
      <trkpt lat="48.37709" lon="2.6782">
        <ele>109</ele>
        <time>2020-02-07T08:54:11Z</time>
      </trkpt>
      <trkpt lat="48.37711" lon="2.67813">
        <ele>109</ele>
        <time>2020-02-07T08:54:16Z</time>
      </trkpt>
      <trkpt lat="48.37714" lon="2.67803">
        <ele>109</ele>
        <time>2020-02-07T08:54:21Z</time>
      </trkpt>
      <trkpt lat="48.37718" lon="2.67796">
        <ele>109.19999694824</ele>
        <time>2020-02-07T08:54:26Z</time>
      </trkpt>
      <trkpt lat="48.37723" lon="2.67788">
        <ele>109.80000305176</ele>
        <time>2020-02-07T08:54:31Z</time>
      </trkpt>
      <trkpt lat="48.37729" lon="2.67782">
        <ele>110.80000305176</ele>
        <time>2020-02-07T08:54:36Z</time>
      </trkpt>
      <trkpt lat="48.37733" lon="2.67776">
        <ele>111.59999847412</ele>
        <time>2020-02-07T08:54:41Z</time>
      </trkpt>
      <trkpt lat="48.37738" lon="2.67768">
        <ele>112.40000152588</ele>
        <time>2020-02-07T08:54:46Z</time>
      </trkpt>
      <trkpt lat="48.37745" lon="2.67763">
        <ele>113.19999694824</ele>
        <time>2020-02-07T08:54:51Z</time>
      </trkpt>
      <trkpt lat="48.3775" lon="2.67757">
        <ele>114</ele>
        <time>2020-02-07T08:54:56Z</time>
      </trkpt>
      <trkpt lat="48.37753" lon="2.67751">
        <ele>114.80000305176</ele>
        <time>2020-02-07T08:55:01Z</time>
      </trkpt>
      <trkpt lat="48.37757" lon="2.67745">
        <ele>115.80000305176</ele>
        <time>2020-02-07T08:55:06Z</time>
      </trkpt>
      <trkpt lat="48.37761" lon="2.6774">
        <ele>117</ele>
        <time>2020-02-07T08:55:11Z</time>
      </trkpt>
      <trkpt lat="48.37765" lon="2.67735">
        <ele>118.19999694824</ele>
        <time>2020-02-07T08:55:16Z</time>
      </trkpt>
      <trkpt lat="48.37768" lon="2.6773">
        <ele>119</ele>
        <time>2020-02-07T08:55:21Z</time>
      </trkpt>
      <trkpt lat="48.37775" lon="2.67724">
        <ele>120</ele>
        <time>2020-02-07T08:55:26Z</time>
      </trkpt>
      <trkpt lat="48.37781" lon="2.67722">
        <ele>120.59999847412</ele>
        <time>2020-02-07T08:55:31Z</time>
      </trkpt>
      <trkpt lat="48.37785" lon="2.67719">
        <ele>121.80000305176</ele>
        <time>2020-02-07T08:55:36Z</time>
      </trkpt>
      <trkpt lat="48.3779" lon="2.67716">
        <ele>122.80000305176</ele>
        <time>2020-02-07T08:55:41Z</time>
      </trkpt>
      <trkpt lat="48.37795" lon="2.67716">
        <ele>124.19999694824</ele>
        <time>2020-02-07T08:55:46Z</time>
      </trkpt>
      <trkpt lat="48.378" lon="2.67713">
        <ele>125.40000152588</ele>
        <time>2020-02-07T08:55:51Z</time>
      </trkpt>
      <trkpt lat="48.37805" lon="2.67709">
        <ele>126.40000152588</ele>
        <time>2020-02-07T08:55:56Z</time>
      </trkpt>
      <trkpt lat="48.37809" lon="2.67705">
        <ele>127.59999847412</ele>
        <time>2020-02-07T08:56:01Z</time>
      </trkpt>
      <trkpt lat="48.37814" lon="2.67699">
        <ele>128.60000610352</ele>
        <time>2020-02-07T08:56:06Z</time>
      </trkpt>
      <trkpt lat="48.37819" lon="2.67693">
        <ele>129.60000610352</ele>
        <time>2020-02-07T08:56:11Z</time>
      </trkpt>
      <trkpt lat="48.37826" lon="2.67691">
        <ele>130.60000610352</ele>
        <time>2020-02-07T08:56:16Z</time>
      </trkpt>
      <trkpt lat="48.37831" lon="2.67691">
        <ele>131.39999389648</ele>
        <time>2020-02-07T08:56:21Z</time>
      </trkpt>
      <trkpt lat="48.37833" lon="2.6769">
        <ele>132.19999694824</ele>
        <time>2020-02-07T08:56:26Z</time>
      </trkpt>
      <trkpt lat="48.37833" lon="2.6769">
        <ele>132.80000305176</ele>
        <time>2020-02-07T08:56:31Z</time>
      </trkpt>
      <trkpt lat="48.37833" lon="2.6769">
        <ele>132.80000305176</ele>
        <time>2020-02-07T08:56:36Z</time>
      </trkpt>
      <trkpt lat="48.37833" lon="2.6769">
        <ele>132.80000305176</ele>
        <time>2020-02-07T08:56:41Z</time>
      </trkpt>
      <trkpt lat="48.37833" lon="2.6769">
        <ele>132.80000305176</ele>
        <time>2020-02-07T08:56:46Z</time>
      </trkpt>
      <trkpt lat="48.37835" lon="2.6769">
        <ele>132.80000305176</ele>
        <time>2020-02-07T08:56:51Z</time>
      </trkpt>
      <trkpt lat="48.37835" lon="2.67686">
        <ele>132.19999694824</ele>
        <time>2020-02-07T08:56:56Z</time>
      </trkpt>
      <trkpt lat="48.37834" lon="2.67678">
        <ele>132</ele>
        <time>2020-02-07T08:57:01Z</time>
      </trkpt>
      <trkpt lat="48.37831" lon="2.6767">
        <ele>132</ele>
        <time>2020-02-07T08:57:06Z</time>
      </trkpt>
      <trkpt lat="48.37829" lon="2.6766">
        <ele>132</ele>
        <time>2020-02-07T08:57:11Z</time>
      </trkpt>
      <trkpt lat="48.37828" lon="2.6765">
        <ele>132.39999389648</ele>
        <time>2020-02-07T08:57:16Z</time>
      </trkpt>
      <trkpt lat="48.37827" lon="2.6764">
        <ele>132.80000305176</ele>
        <time>2020-02-07T08:57:21Z</time>
      </trkpt>
      <trkpt lat="48.37825" lon="2.6763">
        <ele>132.80000305176</ele>
        <time>2020-02-07T08:57:26Z</time>
      </trkpt>
      <trkpt lat="48.37824" lon="2.67619">
        <ele>132.80000305176</ele>
        <time>2020-02-07T08:57:31Z</time>
      </trkpt>
      <trkpt lat="48.37823" lon="2.67607">
        <ele>132.60000610352</ele>
        <time>2020-02-07T08:57:36Z</time>
      </trkpt>
      <trkpt lat="48.37822" lon="2.67597">
        <ele>132.80000305176</ele>
        <time>2020-02-07T08:57:41Z</time>
      </trkpt>
      <trkpt lat="48.37819" lon="2.67591">
        <ele>132.80000305176</ele>
        <time>2020-02-07T08:57:46Z</time>
      </trkpt>
      <trkpt lat="48.37819" lon="2.67584">
        <ele>132.80000305176</ele>
        <time>2020-02-07T08:57:51Z</time>
      </trkpt>
      <trkpt lat="48.37816" lon="2.67574">
        <ele>132.60000610352</ele>
        <time>2020-02-07T08:57:56Z</time>
      </trkpt>
      <trkpt lat="48.37812" lon="2.67564">
        <ele>132.19999694824</ele>
        <time>2020-02-07T08:58:01Z</time>
      </trkpt>
      <trkpt lat="48.3781" lon="2.67555">
        <ele>131.80000305176</ele>
        <time>2020-02-07T08:58:06Z</time>
      </trkpt>
      <trkpt lat="48.37805" lon="2.67553">
        <ele>131.39999389648</ele>
        <time>2020-02-07T08:58:11Z</time>
      </trkpt>
      <trkpt lat="48.37804" lon="2.67545">
        <ele>131.60000610352</ele>
        <time>2020-02-07T08:58:16Z</time>
      </trkpt>
      <trkpt lat="48.37805" lon="2.67543">
        <ele>132.60000610352</ele>
        <time>2020-02-07T08:58:21Z</time>
      </trkpt>
      <trkpt lat="48.37805" lon="2.6754">
        <ele>132.80000305176</ele>
        <time>2020-02-07T08:58:26Z</time>
      </trkpt>
      <trkpt lat="48.37805" lon="2.67539">
        <ele>133</ele>
        <time>2020-02-07T08:58:31Z</time>
      </trkpt>
      <trkpt lat="48.37805" lon="2.67539">
        <ele>133</ele>
        <time>2020-02-07T08:58:36Z</time>
      </trkpt>
      <trkpt lat="48.37804" lon="2.6754">
        <ele>133.19999694824</ele>
        <time>2020-02-07T08:58:41Z</time>
      </trkpt>
      <trkpt lat="48.37804" lon="2.6754">
        <ele>133</ele>
        <time>2020-02-07T08:58:46Z</time>
      </trkpt>
      <trkpt lat="48.37804" lon="2.6754">
        <ele>132.80000305176</ele>
        <time>2020-02-07T08:58:51Z</time>
      </trkpt>
      <trkpt lat="48.37805" lon="2.6754">
        <ele>132.80000305176</ele>
        <time>2020-02-07T08:58:56Z</time>
      </trkpt>
      <trkpt lat="48.37805" lon="2.6754">
        <ele>132.80000305176</ele>
        <time>2020-02-07T08:59:01Z</time>
      </trkpt>
      <trkpt lat="48.37806" lon="2.6754">
        <ele>132.80000305176</ele>
        <time>2020-02-07T08:59:06Z</time>
      </trkpt>
      <trkpt lat="48.37807" lon="2.67541">
        <ele>133</ele>
        <time>2020-02-07T08:59:11Z</time>
      </trkpt>
      <trkpt lat="48.37808" lon="2.67541">
        <ele>133</ele>
        <time>2020-02-07T08:59:16Z</time>
      </trkpt>
      <trkpt lat="48.37809" lon="2.67537">
        <ele>132.60000610352</ele>
        <time>2020-02-07T09:00:46Z</time>
      </trkpt>
      <trkpt lat="48.37813" lon="2.67532">
        <ele>132.60000610352</ele>
        <time>2020-02-07T09:00:51Z</time>
      </trkpt>
      <trkpt lat="48.37816" lon="2.67532">
        <ele>132.60000610352</ele>
        <time>2020-02-07T09:00:56Z</time>
      </trkpt>
      <trkpt lat="48.37817" lon="2.67533">
        <ele>132.60000610352</ele>
        <time>2020-02-07T09:01:01Z</time>
      </trkpt>
      <trkpt lat="48.37821" lon="2.6754">
        <ele>132.60000610352</ele>
        <time>2020-02-07T09:01:06Z</time>
      </trkpt>
      <trkpt lat="48.37823" lon="2.67544">
        <ele>132.60000610352</ele>
        <time>2020-02-07T09:01:11Z</time>
      </trkpt>
      <trkpt lat="48.37825" lon="2.67552">
        <ele>132.60000610352</ele>
        <time>2020-02-07T09:01:16Z</time>
      </trkpt>
      <trkpt lat="48.3783" lon="2.67559">
        <ele>133.19999694824</ele>
        <time>2020-02-07T09:01:21Z</time>
      </trkpt>
      <trkpt lat="48.37836" lon="2.67564">
        <ele>133</ele>
        <time>2020-02-07T09:01:26Z</time>
      </trkpt>
      <trkpt lat="48.37842" lon="2.6757">
        <ele>133.39999389648</ele>
        <time>2020-02-07T09:01:31Z</time>
      </trkpt>
      <trkpt lat="48.37849" lon="2.67574">
        <ele>133.19999694824</ele>
        <time>2020-02-07T09:01:36Z</time>
      </trkpt>
      <trkpt lat="48.37855" lon="2.67578">
        <ele>133</ele>
        <time>2020-02-07T09:01:41Z</time>
      </trkpt>
      <trkpt lat="48.37861" lon="2.67583">
        <ele>132.80000305176</ele>
        <time>2020-02-07T09:01:46Z</time>
      </trkpt>
      <trkpt lat="48.3787" lon="2.67586">
        <ele>132.60000610352</ele>
        <time>2020-02-07T09:01:51Z</time>
      </trkpt>
      <trkpt lat="48.37875" lon="2.6759">
        <ele>132.60000610352</ele>
        <time>2020-02-07T09:01:56Z</time>
      </trkpt>
      <trkpt lat="48.3788" lon="2.67593">
        <ele>132.39999389648</ele>
        <time>2020-02-07T09:02:01Z</time>
      </trkpt>
      <trkpt lat="48.37883" lon="2.6759">
        <ele>131.60000610352</ele>
        <time>2020-02-07T09:02:06Z</time>
      </trkpt>
      <trkpt lat="48.37888" lon="2.6759">
        <ele>130.39999389648</ele>
        <time>2020-02-07T09:02:11Z</time>
      </trkpt>
      <trkpt lat="48.37891" lon="2.67584">
        <ele>129.19999694824</ele>
        <time>2020-02-07T09:02:16Z</time>
      </trkpt>
      <trkpt lat="48.37896" lon="2.67584">
        <ele>128.39999389648</ele>
        <time>2020-02-07T09:02:21Z</time>
      </trkpt>
      <trkpt lat="48.37899" lon="2.6759">
        <ele>127.19999694824</ele>
        <time>2020-02-07T09:02:26Z</time>
      </trkpt>
      <trkpt lat="48.37902" lon="2.67597">
        <ele>125.80000305176</ele>
        <time>2020-02-07T09:02:31Z</time>
      </trkpt>
      <trkpt lat="48.37902" lon="2.67604">
        <ele>125</ele>
        <time>2020-02-07T09:02:36Z</time>
      </trkpt>
      <trkpt lat="48.37904" lon="2.67609">
        <ele>124.80000305176</ele>
        <time>2020-02-07T09:02:41Z</time>
      </trkpt>
      <trkpt lat="48.37906" lon="2.6761">
        <ele>125.40000152588</ele>
        <time>2020-02-07T09:02:46Z</time>
      </trkpt>
      <trkpt lat="48.37908" lon="2.6761">
        <ele>125.59999847412</ele>
        <time>2020-02-07T09:02:51Z</time>
      </trkpt>
      <trkpt lat="48.37912" lon="2.67607">
        <ele>125.80000305176</ele>
        <time>2020-02-07T09:02:56Z</time>
      </trkpt>
      <trkpt lat="48.37913" lon="2.67603">
        <ele>127.80000305176</ele>
        <time>2020-02-07T09:03:01Z</time>
      </trkpt>
      <trkpt lat="48.37914" lon="2.67601">
        <ele>129</ele>
        <time>2020-02-07T09:03:06Z</time>
      </trkpt>
      <trkpt lat="48.37916" lon="2.67597">
        <ele>130</ele>
        <time>2020-02-07T09:03:11Z</time>
      </trkpt>
      <trkpt lat="48.37918" lon="2.67595">
        <ele>130.19999694824</ele>
        <time>2020-02-07T09:03:16Z</time>
      </trkpt>
      <trkpt lat="48.37922" lon="2.6759">
        <ele>129.80000305176</ele>
        <time>2020-02-07T09:03:21Z</time>
      </trkpt>
      <trkpt lat="48.37923" lon="2.67588">
        <ele>130.19999694824</ele>
        <time>2020-02-07T09:03:26Z</time>
      </trkpt>
      <trkpt lat="48.37925" lon="2.67583">
        <ele>130.19999694824</ele>
        <time>2020-02-07T09:03:31Z</time>
      </trkpt>
      <trkpt lat="48.37928" lon="2.67577">
        <ele>129.60000610352</ele>
        <time>2020-02-07T09:03:36Z</time>
      </trkpt>
      <trkpt lat="48.37931" lon="2.67573">
        <ele>128.80000305176</ele>
        <time>2020-02-07T09:03:41Z</time>
      </trkpt>
      <trkpt lat="48.37934" lon="2.67565">
        <ele>128.39999389648</ele>
        <time>2020-02-07T09:03:46Z</time>
      </trkpt>
      <trkpt lat="48.37938" lon="2.67557">
        <ele>128.19999694824</ele>
        <time>2020-02-07T09:03:51Z</time>
      </trkpt>
      <trkpt lat="48.37942" lon="2.67552">
        <ele>128.80000305176</ele>
        <time>2020-02-07T09:03:56Z</time>
      </trkpt>
      <trkpt lat="48.37948" lon="2.67548">
        <ele>128.80000305176</ele>
        <time>2020-02-07T09:04:01Z</time>
      </trkpt>
      <trkpt lat="48.37948" lon="2.67545">
        <ele>129</ele>
        <time>2020-02-07T09:04:06Z</time>
      </trkpt>
      <trkpt lat="48.3795" lon="2.67539">
        <ele>130.19999694824</ele>
        <time>2020-02-07T09:04:11Z</time>
      </trkpt>
      <trkpt lat="48.37951" lon="2.67531">
        <ele>131.19999694824</ele>
        <time>2020-02-07T09:04:16Z</time>
      </trkpt>
      <trkpt lat="48.37955" lon="2.67523">
        <ele>131.60000610352</ele>
        <time>2020-02-07T09:04:21Z</time>
      </trkpt>
      <trkpt lat="48.37957" lon="2.67516">
        <ele>131.80000305176</ele>
        <time>2020-02-07T09:04:26Z</time>
      </trkpt>
      <trkpt lat="48.37961" lon="2.67509">
        <ele>131</ele>
        <time>2020-02-07T09:04:31Z</time>
      </trkpt>
      <trkpt lat="48.37962" lon="2.67501">
        <ele>129.80000305176</ele>
        <time>2020-02-07T09:04:36Z</time>
      </trkpt>
      <trkpt lat="48.37963" lon="2.6749">
        <ele>129.19999694824</ele>
        <time>2020-02-07T09:04:41Z</time>
      </trkpt>
      <trkpt lat="48.37965" lon="2.6748">
        <ele>129.19999694824</ele>
        <time>2020-02-07T09:04:46Z</time>
      </trkpt>
      <trkpt lat="48.37966" lon="2.67474">
        <ele>129.39999389648</ele>
        <time>2020-02-07T09:04:51Z</time>
      </trkpt>
      <trkpt lat="48.37965" lon="2.67468">
        <ele>130.80000305176</ele>
        <time>2020-02-07T09:04:56Z</time>
      </trkpt>
      <trkpt lat="48.37966" lon="2.6746">
        <ele>131</ele>
        <time>2020-02-07T09:05:01Z</time>
      </trkpt>
      <trkpt lat="48.37965" lon="2.67451">
        <ele>130.19999694824</ele>
        <time>2020-02-07T09:05:06Z</time>
      </trkpt>
      <trkpt lat="48.37967" lon="2.67443">
        <ele>130.39999389648</ele>
        <time>2020-02-07T09:05:11Z</time>
      </trkpt>
      <trkpt lat="48.3797" lon="2.67434">
        <ele>129.60000610352</ele>
        <time>2020-02-07T09:05:16Z</time>
      </trkpt>
      <trkpt lat="48.37974" lon="2.67427">
        <ele>129.60000610352</ele>
        <time>2020-02-07T09:05:21Z</time>
      </trkpt>
      <trkpt lat="48.37974" lon="2.67419">
        <ele>130.60000610352</ele>
        <time>2020-02-07T09:05:26Z</time>
      </trkpt>
      <trkpt lat="48.37973" lon="2.6741">
        <ele>131.60000610352</ele>
        <time>2020-02-07T09:05:31Z</time>
      </trkpt>
      <trkpt lat="48.37971" lon="2.674">
        <ele>132.39999389648</ele>
        <time>2020-02-07T09:05:36Z</time>
      </trkpt>
      <trkpt lat="48.37971" lon="2.67392">
        <ele>133</ele>
        <time>2020-02-07T09:05:41Z</time>
      </trkpt>
      <trkpt lat="48.3797" lon="2.67385">
        <ele>131.39999389648</ele>
        <time>2020-02-07T09:05:46Z</time>
      </trkpt>
      <trkpt lat="48.37966" lon="2.67378">
        <ele>130.19999694824</ele>
        <time>2020-02-07T09:05:51Z</time>
      </trkpt>
      <trkpt lat="48.3796" lon="2.67378">
        <ele>130.39999389648</ele>
        <time>2020-02-07T09:05:56Z</time>
      </trkpt>
      <trkpt lat="48.37953" lon="2.6738">
        <ele>130.80000305176</ele>
        <time>2020-02-07T09:06:01Z</time>
      </trkpt>
      <trkpt lat="48.37948" lon="2.67378">
        <ele>130.80000305176</ele>
        <time>2020-02-07T09:06:06Z</time>
      </trkpt>
      <trkpt lat="48.3794" lon="2.67376">
        <ele>131.39999389648</ele>
        <time>2020-02-07T09:06:11Z</time>
      </trkpt>
      <trkpt lat="48.37932" lon="2.67371">
        <ele>131.60000610352</ele>
        <time>2020-02-07T09:06:16Z</time>
      </trkpt>
      <trkpt lat="48.37925" lon="2.67371">
        <ele>132</ele>
        <time>2020-02-07T09:06:21Z</time>
      </trkpt>
      <trkpt lat="48.37919" lon="2.67373">
        <ele>132.39999389648</ele>
        <time>2020-02-07T09:06:26Z</time>
      </trkpt>
      <trkpt lat="48.37913" lon="2.67373">
        <ele>132.80000305176</ele>
        <time>2020-02-07T09:06:31Z</time>
      </trkpt>
      <trkpt lat="48.37907" lon="2.67368">
        <ele>133.19999694824</ele>
        <time>2020-02-07T09:06:36Z</time>
      </trkpt>
      <trkpt lat="48.37904" lon="2.67363">
        <ele>133.39999389648</ele>
        <time>2020-02-07T09:06:41Z</time>
      </trkpt>
      <trkpt lat="48.37901" lon="2.67356">
        <ele>133.39999389648</ele>
        <time>2020-02-07T09:06:46Z</time>
      </trkpt>
      <trkpt lat="48.37901" lon="2.67347">
        <ele>132.39999389648</ele>
        <time>2020-02-07T09:06:51Z</time>
      </trkpt>
      <trkpt lat="48.37902" lon="2.67341">
        <ele>132.39999389648</ele>
        <time>2020-02-07T09:06:56Z</time>
      </trkpt>
      <trkpt lat="48.37905" lon="2.67335">
        <ele>132.80000305176</ele>
        <time>2020-02-07T09:07:01Z</time>
      </trkpt>
      <trkpt lat="48.37909" lon="2.67328">
        <ele>133</ele>
        <time>2020-02-07T09:07:06Z</time>
      </trkpt>
      <trkpt lat="48.37913" lon="2.67321">
        <ele>132.19999694824</ele>
        <time>2020-02-07T09:07:11Z</time>
      </trkpt>
      <trkpt lat="48.37916" lon="2.67311">
        <ele>131.39999389648</ele>
        <time>2020-02-07T09:07:16Z</time>
      </trkpt>
      <trkpt lat="48.37922" lon="2.67307">
        <ele>130.39999389648</ele>
        <time>2020-02-07T09:07:21Z</time>
      </trkpt>
      <trkpt lat="48.37925" lon="2.67302">
        <ele>130.39999389648</ele>
        <time>2020-02-07T09:07:26Z</time>
      </trkpt>
      <trkpt lat="48.37928" lon="2.67299">
        <ele>130.39999389648</ele>
        <time>2020-02-07T09:07:31Z</time>
      </trkpt>
      <trkpt lat="48.37933" lon="2.67293">
        <ele>130.80000305176</ele>
        <time>2020-02-07T09:07:36Z</time>
      </trkpt>
      <trkpt lat="48.37933" lon="2.67293">
        <ele>130.39999389648</ele>
        <time>2020-02-07T09:07:41Z</time>
      </trkpt>
      <trkpt lat="48.37934" lon="2.67293">
        <ele>130.39999389648</ele>
        <time>2020-02-07T09:07:46Z</time>
      </trkpt>
      <trkpt lat="48.37934" lon="2.67293">
        <ele>130.39999389648</ele>
        <time>2020-02-07T09:07:51Z</time>
      </trkpt>
      <trkpt lat="48.37933" lon="2.67293">
        <ele>130.39999389648</ele>
        <time>2020-02-07T09:07:56Z</time>
      </trkpt>
      <trkpt lat="48.37933" lon="2.67292">
        <ele>130.39999389648</ele>
        <time>2020-02-07T09:08:01Z</time>
      </trkpt>
      <trkpt lat="48.37933" lon="2.67291">
        <ele>130.39999389648</ele>
        <time>2020-02-07T09:08:06Z</time>
      </trkpt>
      <trkpt lat="48.37933" lon="2.6729">
        <ele>130.39999389648</ele>
        <time>2020-02-07T09:08:11Z</time>
      </trkpt>
      <trkpt lat="48.37933" lon="2.6729">
        <ele>130.39999389648</ele>
        <time>2020-02-07T09:08:16Z</time>
      </trkpt>
      <trkpt lat="48.37933" lon="2.6729">
        <ele>130.39999389648</ele>
        <time>2020-02-07T09:08:21Z</time>
      </trkpt>
      <trkpt lat="48.37933" lon="2.67288">
        <ele>130.39999389648</ele>
        <time>2020-02-07T09:08:26Z</time>
      </trkpt>
      <trkpt lat="48.37933" lon="2.67287">
        <ele>130.39999389648</ele>
        <time>2020-02-07T09:08:31Z</time>
      </trkpt>
      <trkpt lat="48.37933" lon="2.67286">
        <ele>130.39999389648</ele>
        <time>2020-02-07T09:08:36Z</time>
      </trkpt>
      <trkpt lat="48.37933" lon="2.67286">
        <ele>130.39999389648</ele>
        <time>2020-02-07T09:08:41Z</time>
      </trkpt>
      <trkpt lat="48.37933" lon="2.67286">
        <ele>130.39999389648</ele>
        <time>2020-02-07T09:08:46Z</time>
      </trkpt>
      <trkpt lat="48.37932" lon="2.67284">
        <ele>130.39999389648</ele>
        <time>2020-02-07T09:08:51Z</time>
      </trkpt>
      <trkpt lat="48.37934" lon="2.67279">
        <ele>130.39999389648</ele>
        <time>2020-02-07T09:08:56Z</time>
      </trkpt>
      <trkpt lat="48.37939" lon="2.67277">
        <ele>130.60000610352</ele>
        <time>2020-02-07T09:09:01Z</time>
      </trkpt>
      <trkpt lat="48.37942" lon="2.67273">
        <ele>131</ele>
        <time>2020-02-07T09:09:06Z</time>
      </trkpt>
      <trkpt lat="48.37944" lon="2.67268">
        <ele>131</ele>
        <time>2020-02-07T09:09:11Z</time>
      </trkpt>
      <trkpt lat="48.37946" lon="2.67263">
        <ele>131.19999694824</ele>
        <time>2020-02-07T09:09:16Z</time>
      </trkpt>
      <trkpt lat="48.37947" lon="2.67255">
        <ele>130.39999389648</ele>
        <time>2020-02-07T09:09:21Z</time>
      </trkpt>
      <trkpt lat="48.3795" lon="2.67247">
        <ele>129.80000305176</ele>
        <time>2020-02-07T09:09:26Z</time>
      </trkpt>
      <trkpt lat="48.37951" lon="2.67236">
        <ele>129.80000305176</ele>
        <time>2020-02-07T09:09:31Z</time>
      </trkpt>
      <trkpt lat="48.37956" lon="2.67228">
        <ele>130</ele>
        <time>2020-02-07T09:09:36Z</time>
      </trkpt>
      <trkpt lat="48.37963" lon="2.67222">
        <ele>131.19999694824</ele>
        <time>2020-02-07T09:09:41Z</time>
      </trkpt>
      <trkpt lat="48.37967" lon="2.67223">
        <ele>132</ele>
        <time>2020-02-07T09:09:46Z</time>
      </trkpt>
      <trkpt lat="48.37972" lon="2.67225">
        <ele>131.60000610352</ele>
        <time>2020-02-07T09:09:51Z</time>
      </trkpt>
      <trkpt lat="48.37978" lon="2.6722">
        <ele>130.19999694824</ele>
        <time>2020-02-07T09:09:56Z</time>
      </trkpt>
      <trkpt lat="48.37982" lon="2.67213">
        <ele>128.80000305176</ele>
        <time>2020-02-07T09:10:01Z</time>
      </trkpt>
      <trkpt lat="48.37983" lon="2.67209">
        <ele>127.59999847412</ele>
        <time>2020-02-07T09:10:06Z</time>
      </trkpt>
      <trkpt lat="48.37986" lon="2.67207">
        <ele>127.19999694824</ele>
        <time>2020-02-07T09:10:11Z</time>
      </trkpt>
      <trkpt lat="48.37986" lon="2.67201">
        <ele>127</ele>
        <time>2020-02-07T09:10:16Z</time>
      </trkpt>
      <trkpt lat="48.37985" lon="2.67195">
        <ele>126.19999694824</ele>
        <time>2020-02-07T09:10:21Z</time>
      </trkpt>
      <trkpt lat="48.37986" lon="2.67187">
        <ele>125.59999847412</ele>
        <time>2020-02-07T09:10:26Z</time>
      </trkpt>
      <trkpt lat="48.37986" lon="2.67184">
        <ele>123.80000305176</ele>
        <time>2020-02-07T09:14:16Z</time>
      </trkpt>
      <trkpt lat="48.37986" lon="2.67183">
        <ele>124.19999694824</ele>
        <time>2020-02-07T09:14:21Z</time>
      </trkpt>
      <trkpt lat="48.37986" lon="2.67183">
        <ele>124.19999694824</ele>
        <time>2020-02-07T09:14:26Z</time>
      </trkpt>
      <trkpt lat="48.37981" lon="2.67182">
        <ele>124.19999694824</ele>
        <time>2020-02-07T09:14:31Z</time>
      </trkpt>
      <trkpt lat="48.37976" lon="2.6718">
        <ele>123.19999694824</ele>
        <time>2020-02-07T09:14:36Z</time>
      </trkpt>
      <trkpt lat="48.37977" lon="2.67175">
        <ele>121.40000152588</ele>
        <time>2020-02-07T09:14:41Z</time>
      </trkpt>
      <trkpt lat="48.3798" lon="2.6717">
        <ele>120.59999847412</ele>
        <time>2020-02-07T09:14:46Z</time>
      </trkpt>
      <trkpt lat="48.37983" lon="2.67166">
        <ele>120.80000305176</ele>
        <time>2020-02-07T09:14:51Z</time>
      </trkpt>
      <trkpt lat="48.37983" lon="2.67165">
        <ele>120.80000305176</ele>
        <time>2020-02-07T09:14:56Z</time>
      </trkpt>
      <trkpt lat="48.37982" lon="2.67164">
        <ele>120.80000305176</ele>
        <time>2020-02-07T09:15:01Z</time>
      </trkpt>
      <trkpt lat="48.37982" lon="2.67163">
        <ele>120.80000305176</ele>
        <time>2020-02-07T09:15:06Z</time>
      </trkpt>
      <trkpt lat="48.37982" lon="2.67163">
        <ele>120.80000305176</ele>
        <time>2020-02-07T09:15:11Z</time>
      </trkpt>
      <trkpt lat="48.37982" lon="2.67162">
        <ele>120.80000305176</ele>
        <time>2020-02-07T09:15:16Z</time>
      </trkpt>
      <trkpt lat="48.37984" lon="2.67156">
        <ele>120.59999847412</ele>
        <time>2020-02-07T09:15:21Z</time>
      </trkpt>
      <trkpt lat="48.37983" lon="2.67152">
        <ele>120.19999694824</ele>
        <time>2020-02-07T09:15:26Z</time>
      </trkpt>
      <trkpt lat="48.37981" lon="2.67148">
        <ele>119.19999694824</ele>
        <time>2020-02-07T09:15:31Z</time>
      </trkpt>
      <trkpt lat="48.3798" lon="2.67146">
        <ele>118</ele>
        <time>2020-02-07T09:15:36Z</time>
      </trkpt>
      <trkpt lat="48.37979" lon="2.67148">
        <ele>117</ele>
        <time>2020-02-07T09:15:41Z</time>
      </trkpt>
      <trkpt lat="48.37977" lon="2.67148">
        <ele>115.59999847412</ele>
        <time>2020-02-07T09:15:46Z</time>
      </trkpt>
      <trkpt lat="48.37976" lon="2.67144">
        <ele>114.40000152588</ele>
        <time>2020-02-07T09:15:51Z</time>
      </trkpt>
      <trkpt lat="48.37973" lon="2.67139">
        <ele>112.80000305176</ele>
        <time>2020-02-07T09:15:56Z</time>
      </trkpt>
      <trkpt lat="48.3797" lon="2.67131">
        <ele>111</ele>
        <time>2020-02-07T09:16:01Z</time>
      </trkpt>
      <trkpt lat="48.37971" lon="2.67126">
        <ele>110.40000152588</ele>
        <time>2020-02-07T09:16:06Z</time>
      </trkpt>
      <trkpt lat="48.37972" lon="2.67121">
        <ele>110.19999694824</ele>
        <time>2020-02-07T09:16:11Z</time>
      </trkpt>
      <trkpt lat="48.37973" lon="2.67117">
        <ele>109.80000305176</ele>
        <time>2020-02-07T09:16:16Z</time>
      </trkpt>
      <trkpt lat="48.37973" lon="2.67117">
        <ele>109.40000152588</ele>
        <time>2020-02-07T09:16:21Z</time>
      </trkpt>
      <trkpt lat="48.37973" lon="2.67116">
        <ele>109.40000152588</ele>
        <time>2020-02-07T09:16:26Z</time>
      </trkpt>
      <trkpt lat="48.37973" lon="2.67114">
        <ele>109.40000152588</ele>
        <time>2020-02-07T09:16:31Z</time>
      </trkpt>
      <trkpt lat="48.37971" lon="2.67113">
        <ele>109.19999694824</ele>
        <time>2020-02-07T09:16:36Z</time>
      </trkpt>
      <trkpt lat="48.37973" lon="2.67113">
        <ele>110.40000152588</ele>
        <time>2020-02-07T09:17:16Z</time>
      </trkpt>
      <trkpt lat="48.37971" lon="2.67104">
        <ele>112.40000152588</ele>
        <time>2020-02-07T09:18:36Z</time>
      </trkpt>
      <trkpt lat="48.37973" lon="2.671">
        <ele>113.59999847412</ele>
        <time>2020-02-07T09:18:41Z</time>
      </trkpt>
      <trkpt lat="48.37973" lon="2.67097">
        <ele>114.59999847412</ele>
        <time>2020-02-07T09:18:46Z</time>
      </trkpt>
      <trkpt lat="48.37976" lon="2.67095">
        <ele>116</ele>
        <time>2020-02-07T09:18:51Z</time>
      </trkpt>
      <trkpt lat="48.37977" lon="2.67092">
        <ele>117.19999694824</ele>
        <time>2020-02-07T09:18:56Z</time>
      </trkpt>
      <trkpt lat="48.3798" lon="2.67091">
        <ele>118.59999847412</ele>
        <time>2020-02-07T09:19:01Z</time>
      </trkpt>
      <trkpt lat="48.37984" lon="2.67084">
        <ele>119</ele>
        <time>2020-02-07T09:19:06Z</time>
      </trkpt>
      <trkpt lat="48.37985" lon="2.67076">
        <ele>119.19999694824</ele>
        <time>2020-02-07T09:19:11Z</time>
      </trkpt>
      <trkpt lat="48.37983" lon="2.67072">
        <ele>120.59999847412</ele>
        <time>2020-02-07T09:19:16Z</time>
      </trkpt>
      <trkpt lat="48.3798" lon="2.67071">
        <ele>121.80000305176</ele>
        <time>2020-02-07T09:19:21Z</time>
      </trkpt>
      <trkpt lat="48.37978" lon="2.67068">
        <ele>122.40000152588</ele>
        <time>2020-02-07T09:19:26Z</time>
      </trkpt>
      <trkpt lat="48.37973" lon="2.67066">
        <ele>122.80000305176</ele>
        <time>2020-02-07T09:19:31Z</time>
      </trkpt>
      <trkpt lat="48.37969" lon="2.67063">
        <ele>124</ele>
        <time>2020-02-07T09:19:36Z</time>
      </trkpt>
      <trkpt lat="48.37967" lon="2.6706">
        <ele>125.80000305176</ele>
        <time>2020-02-07T09:19:41Z</time>
      </trkpt>
      <trkpt lat="48.37962" lon="2.67058">
        <ele>126.80000305176</ele>
        <time>2020-02-07T09:19:46Z</time>
      </trkpt>
      <trkpt lat="48.37957" lon="2.67054">
        <ele>127.19999694824</ele>
        <time>2020-02-07T09:19:51Z</time>
      </trkpt>
      <trkpt lat="48.37955" lon="2.67053">
        <ele>127.59999847412</ele>
        <time>2020-02-07T09:19:56Z</time>
      </trkpt>
      <trkpt lat="48.37952" lon="2.67046">
        <ele>127.40000152588</ele>
        <time>2020-02-07T09:20:01Z</time>
      </trkpt>
      <trkpt lat="48.37951" lon="2.67041">
        <ele>129</ele>
        <time>2020-02-07T09:20:06Z</time>
      </trkpt>
      <trkpt lat="48.37949" lon="2.67036">
        <ele>130.60000610352</ele>
        <time>2020-02-07T09:20:11Z</time>
      </trkpt>
      <trkpt lat="48.37949" lon="2.67034">
        <ele>131.60000610352</ele>
        <time>2020-02-07T09:20:16Z</time>
      </trkpt>
      <trkpt lat="48.37954" lon="2.67035">
        <ele>132.19999694824</ele>
        <time>2020-02-07T09:20:21Z</time>
      </trkpt>
      <trkpt lat="48.3796" lon="2.67036">
        <ele>132</ele>
        <time>2020-02-07T09:20:26Z</time>
      </trkpt>
      <trkpt lat="48.3796" lon="2.67034">
        <ele>132</ele>
        <time>2020-02-07T09:20:31Z</time>
      </trkpt>
      <trkpt lat="48.3796" lon="2.67026">
        <ele>132.19999694824</ele>
        <time>2020-02-07T09:20:36Z</time>
      </trkpt>
      <trkpt lat="48.37961" lon="2.67018">
        <ele>131.80000305176</ele>
        <time>2020-02-07T09:20:41Z</time>
      </trkpt>
      <trkpt lat="48.37958" lon="2.67013">
        <ele>131.39999389648</ele>
        <time>2020-02-07T09:20:46Z</time>
      </trkpt>
      <trkpt lat="48.37955" lon="2.67009">
        <ele>132</ele>
        <time>2020-02-07T09:20:51Z</time>
      </trkpt>
      <trkpt lat="48.37951" lon="2.67007">
        <ele>132</ele>
        <time>2020-02-07T09:20:56Z</time>
      </trkpt>
      <trkpt lat="48.37946" lon="2.6701">
        <ele>131.39999389648</ele>
        <time>2020-02-07T09:21:01Z</time>
      </trkpt>
      <trkpt lat="48.37939" lon="2.67011">
        <ele>130.19999694824</ele>
        <time>2020-02-07T09:21:06Z</time>
      </trkpt>
      <trkpt lat="48.37935" lon="2.67006">
        <ele>130.39999389648</ele>
        <time>2020-02-07T09:21:11Z</time>
      </trkpt>
      <trkpt lat="48.37933" lon="2.67004">
        <ele>131.60000610352</ele>
        <time>2020-02-07T09:21:16Z</time>
      </trkpt>
      <trkpt lat="48.37931" lon="2.67001">
        <ele>132.60000610352</ele>
        <time>2020-02-07T09:21:21Z</time>
      </trkpt>
      <trkpt lat="48.37928" lon="2.67">
        <ele>132.80000305176</ele>
        <time>2020-02-07T09:21:26Z</time>
      </trkpt>
      <trkpt lat="48.37923" lon="2.67003">
        <ele>133.19999694824</ele>
        <time>2020-02-07T09:21:31Z</time>
      </trkpt>
      <trkpt lat="48.37918" lon="2.67006">
        <ele>133.80000305176</ele>
        <time>2020-02-07T09:21:36Z</time>
      </trkpt>
      <trkpt lat="48.37913" lon="2.6701">
        <ele>133</ele>
        <time>2020-02-07T09:21:41Z</time>
      </trkpt>
      <trkpt lat="48.37909" lon="2.67008">
        <ele>132.60000610352</ele>
        <time>2020-02-07T09:21:46Z</time>
      </trkpt>
      <trkpt lat="48.37909" lon="2.67006">
        <ele>133.19999694824</ele>
        <time>2020-02-07T09:21:51Z</time>
      </trkpt>
      <trkpt lat="48.37908" lon="2.67004">
        <ele>133.39999389648</ele>
        <time>2020-02-07T09:21:56Z</time>
      </trkpt>
      <trkpt lat="48.37903" lon="2.67005">
        <ele>132.80000305176</ele>
        <time>2020-02-07T09:22:01Z</time>
      </trkpt>
      <trkpt lat="48.37899" lon="2.67004">
        <ele>132.60000610352</ele>
        <time>2020-02-07T09:22:06Z</time>
      </trkpt>
      <trkpt lat="48.37897" lon="2.67003">
        <ele>133</ele>
        <time>2020-02-07T09:22:11Z</time>
      </trkpt>
      <trkpt lat="48.37893" lon="2.67001">
        <ele>133.19999694824</ele>
        <time>2020-02-07T09:22:16Z</time>
      </trkpt>
      <trkpt lat="48.37892" lon="2.66997">
        <ele>134.19999694824</ele>
        <time>2020-02-07T09:22:21Z</time>
      </trkpt>
      <trkpt lat="48.37889" lon="2.66991">
        <ele>135.19999694824</ele>
        <time>2020-02-07T09:22:26Z</time>
      </trkpt>
      <trkpt lat="48.37886" lon="2.66986">
        <ele>135.39999389648</ele>
        <time>2020-02-07T09:22:31Z</time>
      </trkpt>
      <trkpt lat="48.37886" lon="2.66984">
        <ele>134.80000305176</ele>
        <time>2020-02-07T09:22:36Z</time>
      </trkpt>
      <trkpt lat="48.37886" lon="2.66982">
        <ele>134</ele>
        <time>2020-02-07T09:22:41Z</time>
      </trkpt>
      <trkpt lat="48.37885" lon="2.66978">
        <ele>133.19999694824</ele>
        <time>2020-02-07T09:22:46Z</time>
      </trkpt>
      <trkpt lat="48.37882" lon="2.66978">
        <ele>132.60000610352</ele>
        <time>2020-02-07T09:22:51Z</time>
      </trkpt>
      <trkpt lat="48.37878" lon="2.66978">
        <ele>132</ele>
        <time>2020-02-07T09:22:56Z</time>
      </trkpt>
      <trkpt lat="48.37874" lon="2.66979">
        <ele>131.19999694824</ele>
        <time>2020-02-07T09:23:01Z</time>
      </trkpt>
      <trkpt lat="48.37871" lon="2.66979">
        <ele>130.39999389648</ele>
        <time>2020-02-07T09:23:06Z</time>
      </trkpt>
      <trkpt lat="48.37871" lon="2.66975">
        <ele>129.80000305176</ele>
        <time>2020-02-07T09:23:11Z</time>
      </trkpt>
      <trkpt lat="48.37871" lon="2.66971">
        <ele>129.19999694824</ele>
        <time>2020-02-07T09:23:16Z</time>
      </trkpt>
      <trkpt lat="48.37871" lon="2.66968">
        <ele>128.60000610352</ele>
        <time>2020-02-07T09:23:21Z</time>
      </trkpt>
      <trkpt lat="48.37869" lon="2.66964">
        <ele>127.80000305176</ele>
        <time>2020-02-07T09:23:26Z</time>
      </trkpt>
      <trkpt lat="48.37868" lon="2.6696">
        <ele>127</ele>
        <time>2020-02-07T09:23:31Z</time>
      </trkpt>
      <trkpt lat="48.37867" lon="2.6696">
        <ele>125.59999847412</ele>
        <time>2020-02-07T09:23:36Z</time>
      </trkpt>
      <trkpt lat="48.37866" lon="2.66956">
        <ele>124.19999694824</ele>
        <time>2020-02-07T09:23:41Z</time>
      </trkpt>
      <trkpt lat="48.37868" lon="2.66948">
        <ele>122.80000305176</ele>
        <time>2020-02-07T09:23:46Z</time>
      </trkpt>
      <trkpt lat="48.3787" lon="2.66943">
        <ele>122.19999694824</ele>
        <time>2020-02-07T09:23:51Z</time>
      </trkpt>
      <trkpt lat="48.37872" lon="2.66937">
        <ele>121</ele>
        <time>2020-02-07T09:23:56Z</time>
      </trkpt>
      <trkpt lat="48.37872" lon="2.66932">
        <ele>119.59999847412</ele>
        <time>2020-02-07T09:24:01Z</time>
      </trkpt>
      <trkpt lat="48.37866" lon="2.66929">
        <ele>118.19999694824</ele>
        <time>2020-02-07T09:24:06Z</time>
      </trkpt>
      <trkpt lat="48.37863" lon="2.66927">
        <ele>117.19999694824</ele>
        <time>2020-02-07T09:24:11Z</time>
      </trkpt>
      <trkpt lat="48.37862" lon="2.66922">
        <ele>115.59999847412</ele>
        <time>2020-02-07T09:24:16Z</time>
      </trkpt>
      <trkpt lat="48.37863" lon="2.66913">
        <ele>114.40000152588</ele>
        <time>2020-02-07T09:24:21Z</time>
      </trkpt>
      <trkpt lat="48.37866" lon="2.66907">
        <ele>113.59999847412</ele>
        <time>2020-02-07T09:24:26Z</time>
      </trkpt>
      <trkpt lat="48.37867" lon="2.66899">
        <ele>112.59999847412</ele>
        <time>2020-02-07T09:24:31Z</time>
      </trkpt>
      <trkpt lat="48.37867" lon="2.66891">
        <ele>111.40000152588</ele>
        <time>2020-02-07T09:24:36Z</time>
      </trkpt>
      <trkpt lat="48.37869" lon="2.66883">
        <ele>110</ele>
        <time>2020-02-07T09:24:41Z</time>
      </trkpt>
      <trkpt lat="48.37871" lon="2.66875">
        <ele>109.19999694824</ele>
        <time>2020-02-07T09:24:46Z</time>
      </trkpt>
      <trkpt lat="48.37873" lon="2.66869">
        <ele>108.59999847412</ele>
        <time>2020-02-07T09:24:51Z</time>
      </trkpt>
      <trkpt lat="48.37874" lon="2.66865">
        <ele>107.80000305176</ele>
        <time>2020-02-07T09:24:56Z</time>
      </trkpt>
      <trkpt lat="48.37871" lon="2.66863">
        <ele>106.19999694824</ele>
        <time>2020-02-07T09:25:01Z</time>
      </trkpt>
      <trkpt lat="48.37871" lon="2.66857">
        <ele>105</ele>
        <time>2020-02-07T09:25:06Z</time>
      </trkpt>
      <trkpt lat="48.37871" lon="2.6685">
        <ele>103.40000152588</ele>
        <time>2020-02-07T09:25:11Z</time>
      </trkpt>
      <trkpt lat="48.37867" lon="2.6684">
        <ele>102.80000305176</ele>
        <time>2020-02-07T09:25:16Z</time>
      </trkpt>
      <trkpt lat="48.37864" lon="2.66833">
        <ele>102.59999847412</ele>
        <time>2020-02-07T09:25:21Z</time>
      </trkpt>
      <trkpt lat="48.37862" lon="2.66824">
        <ele>102.59999847412</ele>
        <time>2020-02-07T09:25:26Z</time>
      </trkpt>
      <trkpt lat="48.3786" lon="2.66815">
        <ele>102.19999694824</ele>
        <time>2020-02-07T09:25:31Z</time>
      </trkpt>
      <trkpt lat="48.3786" lon="2.66803">
        <ele>102.19999694824</ele>
        <time>2020-02-07T09:25:36Z</time>
      </trkpt>
      <trkpt lat="48.37859" lon="2.66793">
        <ele>102.19999694824</ele>
        <time>2020-02-07T09:25:41Z</time>
      </trkpt>
      <trkpt lat="48.3786" lon="2.66784">
        <ele>101.80000305176</ele>
        <time>2020-02-07T09:25:46Z</time>
      </trkpt>
      <trkpt lat="48.37862" lon="2.66775">
        <ele>101.80000305176</ele>
        <time>2020-02-07T09:25:51Z</time>
      </trkpt>
      <trkpt lat="48.37859" lon="2.66767">
        <ele>102</ele>
        <time>2020-02-07T09:25:56Z</time>
      </trkpt>
      <trkpt lat="48.37859" lon="2.66757">
        <ele>102</ele>
        <time>2020-02-07T09:26:01Z</time>
      </trkpt>
      <trkpt lat="48.37856" lon="2.66751">
        <ele>101.80000305176</ele>
        <time>2020-02-07T09:26:06Z</time>
      </trkpt>
      <trkpt lat="48.37852" lon="2.66741">
        <ele>101.40000152588</ele>
        <time>2020-02-07T09:26:11Z</time>
      </trkpt>
      <trkpt lat="48.37848" lon="2.66731">
        <ele>101</ele>
        <time>2020-02-07T09:26:16Z</time>
      </trkpt>
      <trkpt lat="48.37847" lon="2.66718">
        <ele>100.80000305176</ele>
        <time>2020-02-07T09:26:21Z</time>
      </trkpt>
      <trkpt lat="48.37845" lon="2.66706">
        <ele>101</ele>
        <time>2020-02-07T09:26:26Z</time>
      </trkpt>
      <trkpt lat="48.37842" lon="2.66696">
        <ele>101.19999694824</ele>
        <time>2020-02-07T09:26:31Z</time>
      </trkpt>
      <trkpt lat="48.3784" lon="2.66685">
        <ele>101.19999694824</ele>
        <time>2020-02-07T09:26:36Z</time>
      </trkpt>
      <trkpt lat="48.37838" lon="2.66674">
        <ele>101.40000152588</ele>
        <time>2020-02-07T09:26:41Z</time>
      </trkpt>
      <trkpt lat="48.37834" lon="2.66666">
        <ele>101.40000152588</ele>
        <time>2020-02-07T09:26:46Z</time>
      </trkpt>
      <trkpt lat="48.37832" lon="2.66658">
        <ele>101.59999847412</ele>
        <time>2020-02-07T09:26:51Z</time>
      </trkpt>
      <trkpt lat="48.37833" lon="2.66655">
        <ele>101.80000305176</ele>
        <time>2020-02-07T09:26:56Z</time>
      </trkpt>
      <trkpt lat="48.37831" lon="2.66652">
        <ele>101.80000305176</ele>
        <time>2020-02-07T09:27:01Z</time>
      </trkpt>
      <trkpt lat="48.37831" lon="2.66651">
        <ele>102</ele>
        <time>2020-02-07T09:27:06Z</time>
      </trkpt>
      <trkpt lat="48.37831" lon="2.66649">
        <ele>102</ele>
        <time>2020-02-07T09:27:11Z</time>
      </trkpt>
      <trkpt lat="48.3783" lon="2.66647">
        <ele>102</ele>
        <time>2020-02-07T09:27:16Z</time>
      </trkpt>
      <trkpt lat="48.37829" lon="2.66644">
        <ele>101.80000305176</ele>
        <time>2020-02-07T09:27:21Z</time>
      </trkpt>
      <trkpt lat="48.37828" lon="2.66642">
        <ele>102</ele>
        <time>2020-02-07T09:27:26Z</time>
      </trkpt>
      <trkpt lat="48.37828" lon="2.66641">
        <ele>101.80000305176</ele>
        <time>2020-02-07T09:27:31Z</time>
      </trkpt>
      <trkpt lat="48.37828" lon="2.6664">
        <ele>101.80000305176</ele>
        <time>2020-02-07T09:27:36Z</time>
      </trkpt>
      <trkpt lat="48.37827" lon="2.66639">
        <ele>102</ele>
        <time>2020-02-07T09:27:41Z</time>
      </trkpt>
      <trkpt lat="48.37827" lon="2.66638">
        <ele>102</ele>
        <time>2020-02-07T09:27:45Z</time>
      </trkpt>
      <trkpt lat="48.37827" lon="2.66637">
        <ele>102</ele>
        <time>2020-02-07T09:27:51Z</time>
      </trkpt>
      <trkpt lat="48.37827" lon="2.66637">
        <ele>102</ele>
        <time>2020-02-07T09:27:56Z</time>
      </trkpt>
      <trkpt lat="48.37827" lon="2.66637">
        <ele>102</ele>
        <time>2020-02-07T09:28:01Z</time>
      </trkpt>
      <trkpt lat="48.37827" lon="2.66637">
        <ele>102</ele>
        <time>2020-02-07T09:28:06Z</time>
      </trkpt>
      <trkpt lat="48.37826" lon="2.66637">
        <ele>102</ele>
        <time>2020-02-07T09:28:11Z</time>
      </trkpt>
      <trkpt lat="48.37826" lon="2.66638">
        <ele>102</ele>
        <time>2020-02-07T09:28:16Z</time>
      </trkpt>
      <trkpt lat="48.37826" lon="2.66638">
        <ele>102</ele>
        <time>2020-02-07T09:28:21Z</time>
      </trkpt>
      <trkpt lat="48.37826" lon="2.66638">
        <ele>102</ele>
        <time>2020-02-07T09:28:26Z</time>
      </trkpt>
      <trkpt lat="48.37827" lon="2.6664">
        <ele>102</ele>
        <time>2020-02-07T09:28:31Z</time>
      </trkpt>
      <trkpt lat="48.37828" lon="2.66641">
        <ele>102</ele>
        <time>2020-02-07T09:28:36Z</time>
      </trkpt>
      <trkpt lat="48.37828" lon="2.66638">
        <ele>102</ele>
        <time>2020-02-07T09:28:41Z</time>
      </trkpt>
      <trkpt lat="48.37826" lon="2.66633">
        <ele>101.80000305176</ele>
        <time>2020-02-07T09:28:46Z</time>
      </trkpt>
      <trkpt lat="48.37825" lon="2.6663">
        <ele>101.80000305176</ele>
        <time>2020-02-07T09:28:51Z</time>
      </trkpt>
      <trkpt lat="48.37824" lon="2.66629">
        <ele>101.80000305176</ele>
        <time>2020-02-07T09:28:56Z</time>
      </trkpt>
      <trkpt lat="48.37821" lon="2.66627">
        <ele>101.80000305176</ele>
        <time>2020-02-07T09:29:01Z</time>
      </trkpt>
      <trkpt lat="48.3783" lon="2.66635">
        <ele>101.80000305176</ele>
        <time>2020-02-07T09:31:41Z</time>
      </trkpt>
      <trkpt lat="48.37805" lon="2.66613">
        <ele>102</ele>
        <time>2020-02-07T09:31:46Z</time>
      </trkpt>
      <trkpt lat="48.37778" lon="2.66587">
        <ele>102.40000152588</ele>
        <time>2020-02-07T09:31:51Z</time>
      </trkpt>
      <trkpt lat="48.37749" lon="2.66561">
        <ele>102.59999847412</ele>
        <time>2020-02-07T09:31:56Z</time>
      </trkpt>
      <trkpt lat="48.37715" lon="2.66525">
        <ele>103.40000152588</ele>
        <time>2020-02-07T09:32:01Z</time>
      </trkpt>
      <trkpt lat="48.37692" lon="2.66483">
        <ele>104</ele>
        <time>2020-02-07T09:32:06Z</time>
      </trkpt>
      <trkpt lat="48.37656" lon="2.66429">
        <ele>104.40000152588</ele>
        <time>2020-02-07T09:32:11Z</time>
      </trkpt>
      <trkpt lat="48.37625" lon="2.66385">
        <ele>104.80000305176</ele>
        <time>2020-02-07T09:32:16Z</time>
      </trkpt>
      <trkpt lat="48.3757" lon="2.66304">
        <ele>105.40000152588</ele>
        <time>2020-02-07T09:32:21Z</time>
      </trkpt>
      <trkpt lat="48.37528" lon="2.66265">
        <ele>105.80000305176</ele>
        <time>2020-02-07T09:32:26Z</time>
      </trkpt>
      <trkpt lat="48.37476" lon="2.66229">
        <ele>106.40000152588</ele>
        <time>2020-02-07T09:32:31Z</time>
      </trkpt>
      <trkpt lat="48.37424" lon="2.662">
        <ele>107.19999694824</ele>
        <time>2020-02-07T09:32:36Z</time>
      </trkpt>
      <trkpt lat="48.37406" lon="2.66242">
        <ele>108.19999694824</ele>
        <time>2020-02-07T09:32:41Z</time>
      </trkpt>
      <trkpt lat="48.37388" lon="2.66257">
        <ele>109</ele>
        <time>2020-02-07T09:32:46Z</time>
      </trkpt>
      <trkpt lat="48.37374" lon="2.66275">
        <ele>110.40000152588</ele>
        <time>2020-02-07T09:32:51Z</time>
      </trkpt>
      <trkpt lat="48.37368" lon="2.66307">
        <ele>111.59999847412</ele>
        <time>2020-02-07T09:32:56Z</time>
      </trkpt>
      <trkpt lat="48.37368" lon="2.6634">
        <ele>112.80000305176</ele>
        <time>2020-02-07T09:33:01Z</time>
      </trkpt>
      <trkpt lat="48.37365" lon="2.66374">
        <ele>113.80000305176</ele>
        <time>2020-02-07T09:33:06Z</time>
      </trkpt>
      <trkpt lat="48.37343" lon="2.664">
        <ele>114.80000305176</ele>
        <time>2020-02-07T09:33:11Z</time>
      </trkpt>
      <trkpt lat="48.37316" lon="2.66424">
        <ele>116</ele>
        <time>2020-02-07T09:33:16Z</time>
      </trkpt>
      <trkpt lat="48.37295" lon="2.66447">
        <ele>117.40000152588</ele>
        <time>2020-02-07T09:33:21Z</time>
      </trkpt>
      <trkpt lat="48.37286" lon="2.66468">
        <ele>118.80000305176</ele>
        <time>2020-02-07T09:33:26Z</time>
      </trkpt>
      <trkpt lat="48.37264" lon="2.66473">
        <ele>120.19999694824</ele>
        <time>2020-02-07T09:33:31Z</time>
      </trkpt>
      <trkpt lat="48.37235" lon="2.66488">
        <ele>121.19999694824</ele>
        <time>2020-02-07T09:33:36Z</time>
      </trkpt>
      <trkpt lat="48.37219" lon="2.66507">
        <ele>122.40000152588</ele>
        <time>2020-02-07T09:33:41Z</time>
      </trkpt>
      <trkpt lat="48.37199" lon="2.66509">
        <ele>134.19999694824</ele>
        <time>2020-02-07T09:39:56Z</time>
      </trkpt>
      <trkpt lat="48.37193" lon="2.66501">
        <ele>134.19999694824</ele>
        <time>2020-02-07T09:40:01Z</time>
      </trkpt>
      <trkpt lat="48.37187" lon="2.66492">
        <ele>134.19999694824</ele>
        <time>2020-02-07T09:40:06Z</time>
      </trkpt>
      <trkpt lat="48.37182" lon="2.66484">
        <ele>134.39999389648</ele>
        <time>2020-02-07T09:40:11Z</time>
      </trkpt>
      <trkpt lat="48.37177" lon="2.66477">
        <ele>134.60000610352</ele>
        <time>2020-02-07T09:40:16Z</time>
      </trkpt>
      <trkpt lat="48.37171" lon="2.66468">
        <ele>134.39999389648</ele>
        <time>2020-02-07T09:40:21Z</time>
      </trkpt>
      <trkpt lat="48.37165" lon="2.66457">
        <ele>134.19999694824</ele>
        <time>2020-02-07T09:40:26Z</time>
      </trkpt>
      <trkpt lat="48.37159" lon="2.66449">
        <ele>134</ele>
        <time>2020-02-07T09:40:31Z</time>
      </trkpt>
      <trkpt lat="48.37155" lon="2.66442">
        <ele>134</ele>
        <time>2020-02-07T09:40:36Z</time>
      </trkpt>
      <trkpt lat="48.37149" lon="2.66435">
        <ele>134.19999694824</ele>
        <time>2020-02-07T09:40:41Z</time>
      </trkpt>
      <trkpt lat="48.37143" lon="2.66426">
        <ele>134</ele>
        <time>2020-02-07T09:40:46Z</time>
      </trkpt>
      <trkpt lat="48.37138" lon="2.66417">
        <ele>133.80000305176</ele>
        <time>2020-02-07T09:40:51Z</time>
      </trkpt>
      <trkpt lat="48.37132" lon="2.66408">
        <ele>133.60000610352</ele>
        <time>2020-02-07T09:40:56Z</time>
      </trkpt>
      <trkpt lat="48.37126" lon="2.66398">
        <ele>133.60000610352</ele>
        <time>2020-02-07T09:41:01Z</time>
      </trkpt>
      <trkpt lat="48.37122" lon="2.6639">
        <ele>133.60000610352</ele>
        <time>2020-02-07T09:41:06Z</time>
      </trkpt>
      <trkpt lat="48.37116" lon="2.66382">
        <ele>133.60000610352</ele>
        <time>2020-02-07T09:41:11Z</time>
      </trkpt>
      <trkpt lat="48.37111" lon="2.66374">
        <ele>133.80000305176</ele>
        <time>2020-02-07T09:41:16Z</time>
      </trkpt>
      <trkpt lat="48.37105" lon="2.66366">
        <ele>133.80000305176</ele>
        <time>2020-02-07T09:41:21Z</time>
      </trkpt>
      <trkpt lat="48.371" lon="2.66358">
        <ele>134</ele>
        <time>2020-02-07T09:41:26Z</time>
      </trkpt>
      <trkpt lat="48.37095" lon="2.6635">
        <ele>134.39999389648</ele>
        <time>2020-02-07T09:41:31Z</time>
      </trkpt>
      <trkpt lat="48.37089" lon="2.66341">
        <ele>134.39999389648</ele>
        <time>2020-02-07T09:41:36Z</time>
      </trkpt>
      <trkpt lat="48.37084" lon="2.66333">
        <ele>134.39999389648</ele>
        <time>2020-02-07T09:41:41Z</time>
      </trkpt>
      <trkpt lat="48.37079" lon="2.66326">
        <ele>134.39999389648</ele>
        <time>2020-02-07T09:41:46Z</time>
      </trkpt>
      <trkpt lat="48.37075" lon="2.66319">
        <ele>134.60000610352</ele>
        <time>2020-02-07T09:41:51Z</time>
      </trkpt>
      <trkpt lat="48.37068" lon="2.66309">
        <ele>134.60000610352</ele>
        <time>2020-02-07T09:41:56Z</time>
      </trkpt>
      <trkpt lat="48.37063" lon="2.663">
        <ele>134.60000610352</ele>
        <time>2020-02-07T09:42:01Z</time>
      </trkpt>
      <trkpt lat="48.37056" lon="2.66289">
        <ele>134.39999389648</ele>
        <time>2020-02-07T09:42:06Z</time>
      </trkpt>
      <trkpt lat="48.3705" lon="2.66281">
        <ele>134.39999389648</ele>
        <time>2020-02-07T09:42:11Z</time>
      </trkpt>
      <trkpt lat="48.37045" lon="2.66273">
        <ele>134.19999694824</ele>
        <time>2020-02-07T09:42:16Z</time>
      </trkpt>
      <trkpt lat="48.37039" lon="2.66264">
        <ele>134</ele>
        <time>2020-02-07T09:42:21Z</time>
      </trkpt>
      <trkpt lat="48.37034" lon="2.66256">
        <ele>134</ele>
        <time>2020-02-07T09:42:26Z</time>
      </trkpt>
      <trkpt lat="48.37028" lon="2.66248">
        <ele>134</ele>
        <time>2020-02-07T09:42:31Z</time>
      </trkpt>
      <trkpt lat="48.37022" lon="2.66239">
        <ele>133.80000305176</ele>
        <time>2020-02-07T09:42:36Z</time>
      </trkpt>
      <trkpt lat="48.37017" lon="2.6623">
        <ele>133.39999389648</ele>
        <time>2020-02-07T09:42:41Z</time>
      </trkpt>
      <trkpt lat="48.37011" lon="2.66222">
        <ele>133.19999694824</ele>
        <time>2020-02-07T09:42:46Z</time>
      </trkpt>
      <trkpt lat="48.37005" lon="2.66213">
        <ele>133</ele>
        <time>2020-02-07T09:42:51Z</time>
      </trkpt>
      <trkpt lat="48.36999" lon="2.66204">
        <ele>132.80000305176</ele>
        <time>2020-02-07T09:42:56Z</time>
      </trkpt>
      <trkpt lat="48.36994" lon="2.66197">
        <ele>132.60000610352</ele>
        <time>2020-02-07T09:43:01Z</time>
      </trkpt>
      <trkpt lat="48.36988" lon="2.66185">
        <ele>132.39999389648</ele>
        <time>2020-02-07T09:43:06Z</time>
      </trkpt>
      <trkpt lat="48.36982" lon="2.66176">
        <ele>132.19999694824</ele>
        <time>2020-02-07T09:43:11Z</time>
      </trkpt>
      <trkpt lat="48.36976" lon="2.66166">
        <ele>132</ele>
        <time>2020-02-07T09:43:16Z</time>
      </trkpt>
      <trkpt lat="48.36971" lon="2.66156">
        <ele>131.80000305176</ele>
        <time>2020-02-07T09:43:21Z</time>
      </trkpt>
      <trkpt lat="48.36965" lon="2.66147">
        <ele>131.80000305176</ele>
        <time>2020-02-07T09:43:26Z</time>
      </trkpt>
      <trkpt lat="48.3696" lon="2.66138">
        <ele>131.80000305176</ele>
        <time>2020-02-07T09:43:31Z</time>
      </trkpt>
      <trkpt lat="48.36954" lon="2.66129">
        <ele>131.80000305176</ele>
        <time>2020-02-07T09:43:36Z</time>
      </trkpt>
      <trkpt lat="48.36948" lon="2.66119">
        <ele>131.80000305176</ele>
        <time>2020-02-07T09:43:41Z</time>
      </trkpt>
      <trkpt lat="48.36942" lon="2.66109">
        <ele>132</ele>
        <time>2020-02-07T09:43:46Z</time>
      </trkpt>
      <trkpt lat="48.36936" lon="2.66101">
        <ele>132.19999694824</ele>
        <time>2020-02-07T09:43:51Z</time>
      </trkpt>
      <trkpt lat="48.36931" lon="2.66092">
        <ele>132.39999389648</ele>
        <time>2020-02-07T09:43:56Z</time>
      </trkpt>
      <trkpt lat="48.36925" lon="2.66082">
        <ele>132.39999389648</ele>
        <time>2020-02-07T09:44:01Z</time>
      </trkpt>
      <trkpt lat="48.3692" lon="2.66073">
        <ele>132.39999389648</ele>
        <time>2020-02-07T09:44:06Z</time>
      </trkpt>
      <trkpt lat="48.36915" lon="2.66065">
        <ele>132.60000610352</ele>
        <time>2020-02-07T09:44:11Z</time>
      </trkpt>
      <trkpt lat="48.3691" lon="2.66057">
        <ele>132.60000610352</ele>
        <time>2020-02-07T09:44:16Z</time>
      </trkpt>
      <trkpt lat="48.36904" lon="2.66049">
        <ele>132.60000610352</ele>
        <time>2020-02-07T09:44:21Z</time>
      </trkpt>
      <trkpt lat="48.36899" lon="2.6604">
        <ele>132.80000305176</ele>
        <time>2020-02-07T09:44:26Z</time>
      </trkpt>
      <trkpt lat="48.36892" lon="2.6603">
        <ele>132.80000305176</ele>
        <time>2020-02-07T09:44:31Z</time>
      </trkpt>
      <trkpt lat="48.36887" lon="2.66023">
        <ele>132.80000305176</ele>
        <time>2020-02-07T09:44:36Z</time>
      </trkpt>
      <trkpt lat="48.36881" lon="2.66013">
        <ele>132.60000610352</ele>
        <time>2020-02-07T09:44:41Z</time>
      </trkpt>
      <trkpt lat="48.36875" lon="2.66005">
        <ele>132.39999389648</ele>
        <time>2020-02-07T09:44:46Z</time>
      </trkpt>
      <trkpt lat="48.36873" lon="2.65999">
        <ele>132.39999389648</ele>
        <time>2020-02-07T09:44:51Z</time>
      </trkpt>
      <trkpt lat="48.36873" lon="2.6599">
        <ele>132.19999694824</ele>
        <time>2020-02-07T09:44:56Z</time>
      </trkpt>
      <trkpt lat="48.36874" lon="2.65986">
        <ele>132.39999389648</ele>
        <time>2020-02-07T09:45:01Z</time>
      </trkpt>
      <trkpt lat="48.36873" lon="2.65984">
        <ele>132.39999389648</ele>
        <time>2020-02-07T09:45:06Z</time>
      </trkpt>
      <trkpt lat="48.36876" lon="2.65968">
        <ele>132.39999389648</ele>
        <time>2020-02-07T09:45:11Z</time>
      </trkpt>
      <trkpt lat="48.3689" lon="2.65949">
        <ele>132.60000610352</ele>
        <time>2020-02-07T09:46:06Z</time>
      </trkpt>
      <trkpt lat="48.36907" lon="2.65923">
        <ele>132.60000610352</ele>
        <time>2020-02-07T09:46:11Z</time>
      </trkpt>
      <trkpt lat="48.36927" lon="2.65896">
        <ele>132.60000610352</ele>
        <time>2020-02-07T09:46:21Z</time>
      </trkpt>
      <trkpt lat="48.37012" lon="2.65779">
        <ele>132.60000610352</ele>
        <time>2020-02-07T09:46:26Z</time>
      </trkpt>
      <trkpt lat="48.37073" lon="2.6569">
        <ele>132.60000610352</ele>
        <time>2020-02-07T09:46:31Z</time>
      </trkpt>
      <trkpt lat="48.3709" lon="2.65666">
        <ele>130.80000305176</ele>
        <time>2020-02-07T09:46:56Z</time>
      </trkpt>
      <trkpt lat="48.3713" lon="2.65608">
        <ele>130.39999389648</ele>
        <time>2020-02-07T09:47:01Z</time>
      </trkpt>
      <trkpt lat="48.37163" lon="2.65562">
        <ele>130.19999694824</ele>
        <time>2020-02-07T09:47:06Z</time>
      </trkpt>
      <trkpt lat="48.37181" lon="2.65546">
        <ele>130</ele>
        <time>2020-02-07T09:47:11Z</time>
      </trkpt>
      <trkpt lat="48.37185" lon="2.65542">
        <ele>125.59999847412</ele>
        <time>2020-02-07T10:00:01Z</time>
      </trkpt>
      <trkpt lat="48.37193" lon="2.65545">
        <ele>124.59999847412</ele>
        <time>2020-02-07T10:00:06Z</time>
      </trkpt>
      <trkpt lat="48.372" lon="2.65547">
        <ele>124.19999694824</ele>
        <time>2020-02-07T10:00:11Z</time>
      </trkpt>
      <trkpt lat="48.37204" lon="2.65547">
        <ele>124.19999694824</ele>
        <time>2020-02-07T10:00:16Z</time>
      </trkpt>
      <trkpt lat="48.37204" lon="2.65546">
        <ele>124.59999847412</ele>
        <time>2020-02-07T10:00:21Z</time>
      </trkpt>
      <trkpt lat="48.37205" lon="2.65546">
        <ele>124.59999847412</ele>
        <time>2020-02-07T10:00:26Z</time>
      </trkpt>
      <trkpt lat="48.37206" lon="2.65546">
        <ele>124.59999847412</ele>
        <time>2020-02-07T10:00:31Z</time>
      </trkpt>
      <trkpt lat="48.37213" lon="2.65547">
        <ele>124.19999694824</ele>
        <time>2020-02-07T10:00:36Z</time>
      </trkpt>
      <trkpt lat="48.3722" lon="2.65547">
        <ele>124</ele>
        <time>2020-02-07T10:00:41Z</time>
      </trkpt>
      <trkpt lat="48.37225" lon="2.65545">
        <ele>124.19999694824</ele>
        <time>2020-02-07T10:00:46Z</time>
      </trkpt>
      <trkpt lat="48.37233" lon="2.65542">
        <ele>124.59999847412</ele>
        <time>2020-02-07T10:00:51Z</time>
      </trkpt>
      <trkpt lat="48.3724" lon="2.65539">
        <ele>125.19999694824</ele>
        <time>2020-02-07T10:00:56Z</time>
      </trkpt>
      <trkpt lat="48.37248" lon="2.65535">
        <ele>125.40000152588</ele>
        <time>2020-02-07T10:01:01Z</time>
      </trkpt>
      <trkpt lat="48.37254" lon="2.65532">
        <ele>125.80000305176</ele>
        <time>2020-02-07T10:01:06Z</time>
      </trkpt>
      <trkpt lat="48.37262" lon="2.65531">
        <ele>125.80000305176</ele>
        <time>2020-02-07T10:01:11Z</time>
      </trkpt>
      <trkpt lat="48.37268" lon="2.65529">
        <ele>125.80000305176</ele>
        <time>2020-02-07T10:01:16Z</time>
      </trkpt>
      <trkpt lat="48.37275" lon="2.65528">
        <ele>125.80000305176</ele>
        <time>2020-02-07T10:01:21Z</time>
      </trkpt>
      <trkpt lat="48.3728" lon="2.65533">
        <ele>125.59999847412</ele>
        <time>2020-02-07T10:01:26Z</time>
      </trkpt>
      <trkpt lat="48.37283" lon="2.65529">
        <ele>125.19999694824</ele>
        <time>2020-02-07T10:01:31Z</time>
      </trkpt>
      <trkpt lat="48.37286" lon="2.65522">
        <ele>125.59999847412</ele>
        <time>2020-02-07T10:01:36Z</time>
      </trkpt>
      <trkpt lat="48.37287" lon="2.65521">
        <ele>125.59999847412</ele>
        <time>2020-02-07T10:01:41Z</time>
      </trkpt>
      <trkpt lat="48.37287" lon="2.6552">
        <ele>125.59999847412</ele>
        <time>2020-02-07T10:01:46Z</time>
      </trkpt>
      <trkpt lat="48.37293" lon="2.6552">
        <ele>125.59999847412</ele>
        <time>2020-02-07T10:01:51Z</time>
      </trkpt>
      <trkpt lat="48.37299" lon="2.6552">
        <ele>125.19999694824</ele>
        <time>2020-02-07T10:01:56Z</time>
      </trkpt>
      <trkpt lat="48.37308" lon="2.6552">
        <ele>124.80000305176</ele>
        <time>2020-02-07T10:02:01Z</time>
      </trkpt>
      <trkpt lat="48.37314" lon="2.65521">
        <ele>124.19999694824</ele>
        <time>2020-02-07T10:02:06Z</time>
      </trkpt>
      <trkpt lat="48.37324" lon="2.65521">
        <ele>123.80000305176</ele>
        <time>2020-02-07T10:02:11Z</time>
      </trkpt>
      <trkpt lat="48.3733" lon="2.65522">
        <ele>123.40000152588</ele>
        <time>2020-02-07T10:02:16Z</time>
      </trkpt>
      <trkpt lat="48.3734" lon="2.65522">
        <ele>123</ele>
        <time>2020-02-07T10:02:21Z</time>
      </trkpt>
      <trkpt lat="48.37348" lon="2.65523">
        <ele>122.59999847412</ele>
        <time>2020-02-07T10:02:26Z</time>
      </trkpt>
      <trkpt lat="48.37354" lon="2.65525">
        <ele>122.19999694824</ele>
        <time>2020-02-07T10:02:31Z</time>
      </trkpt>
      <trkpt lat="48.37363" lon="2.65526">
        <ele>121.80000305176</ele>
        <time>2020-02-07T10:02:36Z</time>
      </trkpt>
      <trkpt lat="48.3737" lon="2.65528">
        <ele>121.40000152588</ele>
        <time>2020-02-07T10:02:41Z</time>
      </trkpt>
      <trkpt lat="48.37379" lon="2.6553">
        <ele>121.19999694824</ele>
        <time>2020-02-07T10:02:46Z</time>
      </trkpt>
      <trkpt lat="48.37385" lon="2.65533">
        <ele>120.80000305176</ele>
        <time>2020-02-07T10:02:51Z</time>
      </trkpt>
      <trkpt lat="48.37395" lon="2.65531">
        <ele>120.40000152588</ele>
        <time>2020-02-07T10:02:56Z</time>
      </trkpt>
      <trkpt lat="48.37403" lon="2.65531">
        <ele>120</ele>
        <time>2020-02-07T10:03:01Z</time>
      </trkpt>
      <trkpt lat="48.37412" lon="2.65532">
        <ele>119.59999847412</ele>
        <time>2020-02-07T10:03:06Z</time>
      </trkpt>
      <trkpt lat="48.37421" lon="2.65532">
        <ele>119.59999847412</ele>
        <time>2020-02-07T10:03:11Z</time>
      </trkpt>
      <trkpt lat="48.37428" lon="2.65533">
        <ele>119.19999694824</ele>
        <time>2020-02-07T10:03:16Z</time>
      </trkpt>
      <trkpt lat="48.37437" lon="2.65533">
        <ele>118.80000305176</ele>
        <time>2020-02-07T10:03:21Z</time>
      </trkpt>
      <trkpt lat="48.37444" lon="2.65534">
        <ele>118.59999847412</ele>
        <time>2020-02-07T10:03:26Z</time>
      </trkpt>
      <trkpt lat="48.37453" lon="2.65535">
        <ele>118.19999694824</ele>
        <time>2020-02-07T10:03:31Z</time>
      </trkpt>
      <trkpt lat="48.37459" lon="2.65538">
        <ele>117.59999847412</ele>
        <time>2020-02-07T10:03:36Z</time>
      </trkpt>
      <trkpt lat="48.37467" lon="2.65539">
        <ele>116.80000305176</ele>
        <time>2020-02-07T10:03:41Z</time>
      </trkpt>
      <trkpt lat="48.37475" lon="2.65541">
        <ele>116.19999694824</ele>
        <time>2020-02-07T10:03:46Z</time>
      </trkpt>
      <trkpt lat="48.37484" lon="2.65543">
        <ele>115.40000152588</ele>
        <time>2020-02-07T10:03:51Z</time>
      </trkpt>
      <trkpt lat="48.37491" lon="2.65545">
        <ele>114.80000305176</ele>
        <time>2020-02-07T10:03:56Z</time>
      </trkpt>
      <trkpt lat="48.375" lon="2.65547">
        <ele>114.40000152588</ele>
        <time>2020-02-07T10:04:01Z</time>
      </trkpt>
      <trkpt lat="48.37507" lon="2.65547">
        <ele>113.80000305176</ele>
        <time>2020-02-07T10:04:06Z</time>
      </trkpt>
      <trkpt lat="48.37515" lon="2.6555">
        <ele>113</ele>
        <time>2020-02-07T10:04:11Z</time>
      </trkpt>
      <trkpt lat="48.37522" lon="2.65552">
        <ele>112.40000152588</ele>
        <time>2020-02-07T10:04:16Z</time>
      </trkpt>
      <trkpt lat="48.37532" lon="2.65553">
        <ele>111.80000305176</ele>
        <time>2020-02-07T10:04:21Z</time>
      </trkpt>
      <trkpt lat="48.37539" lon="2.65555">
        <ele>111.19999694824</ele>
        <time>2020-02-07T10:04:26Z</time>
      </trkpt>
      <trkpt lat="48.37548" lon="2.65557">
        <ele>110.59999847412</ele>
        <time>2020-02-07T10:04:31Z</time>
      </trkpt>
      <trkpt lat="48.37557" lon="2.65559">
        <ele>110</ele>
        <time>2020-02-07T10:04:36Z</time>
      </trkpt>
      <trkpt lat="48.37566" lon="2.65562">
        <ele>109.80000305176</ele>
        <time>2020-02-07T10:04:41Z</time>
      </trkpt>
      <trkpt lat="48.37575" lon="2.65564">
        <ele>109.19999694824</ele>
        <time>2020-02-07T10:04:46Z</time>
      </trkpt>
      <trkpt lat="48.37583" lon="2.65568">
        <ele>109</ele>
        <time>2020-02-07T10:04:51Z</time>
      </trkpt>
      <trkpt lat="48.37591" lon="2.65569">
        <ele>108.59999847412</ele>
        <time>2020-02-07T10:04:56Z</time>
      </trkpt>
      <trkpt lat="48.37598" lon="2.65571">
        <ele>108.40000152588</ele>
        <time>2020-02-07T10:05:01Z</time>
      </trkpt>
      <trkpt lat="48.37607" lon="2.65573">
        <ele>108</ele>
        <time>2020-02-07T10:05:06Z</time>
      </trkpt>
      <trkpt lat="48.37614" lon="2.65574">
        <ele>107.80000305176</ele>
        <time>2020-02-07T10:05:11Z</time>
      </trkpt>
      <trkpt lat="48.37624" lon="2.65576">
        <ele>107.59999847412</ele>
        <time>2020-02-07T10:05:16Z</time>
      </trkpt>
      <trkpt lat="48.37631" lon="2.65578">
        <ele>107.40000152588</ele>
        <time>2020-02-07T10:05:21Z</time>
      </trkpt>
      <trkpt lat="48.3764" lon="2.6558">
        <ele>107.19999694824</ele>
        <time>2020-02-07T10:05:26Z</time>
      </trkpt>
      <trkpt lat="48.37649" lon="2.65581">
        <ele>107</ele>
        <time>2020-02-07T10:05:31Z</time>
      </trkpt>
      <trkpt lat="48.37656" lon="2.65582">
        <ele>106.80000305176</ele>
        <time>2020-02-07T10:05:36Z</time>
      </trkpt>
      <trkpt lat="48.37664" lon="2.65584">
        <ele>106.40000152588</ele>
        <time>2020-02-07T10:05:41Z</time>
      </trkpt>
      <trkpt lat="48.37671" lon="2.65587">
        <ele>106.40000152588</ele>
        <time>2020-02-07T10:05:46Z</time>
      </trkpt>
      <trkpt lat="48.3768" lon="2.65589">
        <ele>106.19999694824</ele>
        <time>2020-02-07T10:05:51Z</time>
      </trkpt>
      <trkpt lat="48.37689" lon="2.65591">
        <ele>106.40000152588</ele>
        <time>2020-02-07T10:05:56Z</time>
      </trkpt>
      <trkpt lat="48.37697" lon="2.65593">
        <ele>106.40000152588</ele>
        <time>2020-02-07T10:06:01Z</time>
      </trkpt>
      <trkpt lat="48.37706" lon="2.65595">
        <ele>106.19999694824</ele>
        <time>2020-02-07T10:06:06Z</time>
      </trkpt>
      <trkpt lat="48.37715" lon="2.65596">
        <ele>106.19999694824</ele>
        <time>2020-02-07T10:06:11Z</time>
      </trkpt>
      <trkpt lat="48.37725" lon="2.65598">
        <ele>106</ele>
        <time>2020-02-07T10:06:16Z</time>
      </trkpt>
      <trkpt lat="48.37733" lon="2.65599">
        <ele>105.40000152588</ele>
        <time>2020-02-07T10:06:21Z</time>
      </trkpt>
      <trkpt lat="48.37742" lon="2.65599">
        <ele>105.19999694824</ele>
        <time>2020-02-07T10:06:26Z</time>
      </trkpt>
      <trkpt lat="48.37749" lon="2.656">
        <ele>104.80000305176</ele>
        <time>2020-02-07T10:06:31Z</time>
      </trkpt>
      <trkpt lat="48.37757" lon="2.65601">
        <ele>104.59999847412</ele>
        <time>2020-02-07T10:06:36Z</time>
      </trkpt>
      <trkpt lat="48.37763" lon="2.65604">
        <ele>104.40000152588</ele>
        <time>2020-02-07T10:06:41Z</time>
      </trkpt>
      <trkpt lat="48.37772" lon="2.65608">
        <ele>104.40000152588</ele>
        <time>2020-02-07T10:06:46Z</time>
      </trkpt>
      <trkpt lat="48.3778" lon="2.6561">
        <ele>104.40000152588</ele>
        <time>2020-02-07T10:06:51Z</time>
      </trkpt>
      <trkpt lat="48.37788" lon="2.65614">
        <ele>104.19999694824</ele>
        <time>2020-02-07T10:06:56Z</time>
      </trkpt>
      <trkpt lat="48.37796" lon="2.65616">
        <ele>104</ele>
        <time>2020-02-07T10:07:01Z</time>
      </trkpt>
      <trkpt lat="48.37806" lon="2.65617">
        <ele>103.80000305176</ele>
        <time>2020-02-07T10:07:06Z</time>
      </trkpt>
      <trkpt lat="48.37813" lon="2.65619">
        <ele>103.59999847412</ele>
        <time>2020-02-07T10:07:11Z</time>
      </trkpt>
      <trkpt lat="48.37821" lon="2.6562">
        <ele>103.40000152588</ele>
        <time>2020-02-07T10:07:16Z</time>
      </trkpt>
      <trkpt lat="48.37828" lon="2.65621">
        <ele>103</ele>
        <time>2020-02-07T10:07:21Z</time>
      </trkpt>
      <trkpt lat="48.37836" lon="2.65624">
        <ele>102.80000305176</ele>
        <time>2020-02-07T10:07:26Z</time>
      </trkpt>
      <trkpt lat="48.37846" lon="2.65625">
        <ele>102.59999847412</ele>
        <time>2020-02-07T10:07:31Z</time>
      </trkpt>
      <trkpt lat="48.37853" lon="2.65628">
        <ele>102.40000152588</ele>
        <time>2020-02-07T10:07:36Z</time>
      </trkpt>
      <trkpt lat="48.37861" lon="2.65631">
        <ele>102</ele>
        <time>2020-02-07T10:07:41Z</time>
      </trkpt>
      <trkpt lat="48.37869" lon="2.65633">
        <ele>101.80000305176</ele>
        <time>2020-02-07T10:07:46Z</time>
      </trkpt>
      <trkpt lat="48.37879" lon="2.65635">
        <ele>101.80000305176</ele>
        <time>2020-02-07T10:07:51Z</time>
      </trkpt>
      <trkpt lat="48.37887" lon="2.65638">
        <ele>101.59999847412</ele>
        <time>2020-02-07T10:07:56Z</time>
      </trkpt>
      <trkpt lat="48.37893" lon="2.6564">
        <ele>101.59999847412</ele>
        <time>2020-02-07T10:08:01Z</time>
      </trkpt>
      <trkpt lat="48.37901" lon="2.65645">
        <ele>101.40000152588</ele>
        <time>2020-02-07T10:08:06Z</time>
      </trkpt>
      <trkpt lat="48.37905" lon="2.65655">
        <ele>101.40000152588</ele>
        <time>2020-02-07T10:08:11Z</time>
      </trkpt>
      <trkpt lat="48.37908" lon="2.65664">
        <ele>101.19999694824</ele>
        <time>2020-02-07T10:08:16Z</time>
      </trkpt>
      <trkpt lat="48.3791" lon="2.65675">
        <ele>101</ele>
        <time>2020-02-07T10:08:21Z</time>
      </trkpt>
      <trkpt lat="48.37913" lon="2.65686">
        <ele>100.80000305176</ele>
        <time>2020-02-07T10:08:26Z</time>
      </trkpt>
      <trkpt lat="48.37915" lon="2.65698">
        <ele>100.80000305176</ele>
        <time>2020-02-07T10:08:31Z</time>
      </trkpt>
      <trkpt lat="48.37917" lon="2.6571">
        <ele>100.59999847412</ele>
        <time>2020-02-07T10:08:36Z</time>
      </trkpt>
      <trkpt lat="48.3792" lon="2.6572">
        <ele>100.59999847412</ele>
        <time>2020-02-07T10:08:41Z</time>
      </trkpt>
      <trkpt lat="48.37924" lon="2.6573">
        <ele>100.59999847412</ele>
        <time>2020-02-07T10:08:46Z</time>
      </trkpt>
      <trkpt lat="48.37927" lon="2.65742">
        <ele>100.40000152588</ele>
        <time>2020-02-07T10:08:51Z</time>
      </trkpt>
      <trkpt lat="48.37932" lon="2.65752">
        <ele>100.19999694824</ele>
        <time>2020-02-07T10:08:56Z</time>
      </trkpt>
      <trkpt lat="48.37937" lon="2.65761">
        <ele>100</ele>
        <time>2020-02-07T10:09:01Z</time>
      </trkpt>
      <trkpt lat="48.37942" lon="2.65771">
        <ele>100</ele>
        <time>2020-02-07T10:09:06Z</time>
      </trkpt>
      <trkpt lat="48.3795" lon="2.6578">
        <ele>100</ele>
        <time>2020-02-07T10:09:11Z</time>
      </trkpt>
      <trkpt lat="48.37955" lon="2.65788">
        <ele>99.800003051758</ele>
        <time>2020-02-07T10:09:16Z</time>
      </trkpt>
      <trkpt lat="48.37962" lon="2.65795">
        <ele>99.800003051758</ele>
        <time>2020-02-07T10:09:21Z</time>
      </trkpt>
      <trkpt lat="48.37969" lon="2.65801">
        <ele>99.800003051758</ele>
        <time>2020-02-07T10:09:26Z</time>
      </trkpt>
      <trkpt lat="48.37977" lon="2.65807">
        <ele>99.800003051758</ele>
        <time>2020-02-07T10:09:31Z</time>
      </trkpt>
      <trkpt lat="48.37984" lon="2.65814">
        <ele>99.800003051758</ele>
        <time>2020-02-07T10:09:36Z</time>
      </trkpt>
      <trkpt lat="48.37991" lon="2.6582">
        <ele>99.599998474121</ele>
        <time>2020-02-07T10:09:41Z</time>
      </trkpt>
      <trkpt lat="48.37997" lon="2.65826">
        <ele>99.599998474121</ele>
        <time>2020-02-07T10:09:46Z</time>
      </trkpt>
      <trkpt lat="48.38005" lon="2.65832">
        <ele>99.400001525879</ele>
        <time>2020-02-07T10:09:51Z</time>
      </trkpt>
      <trkpt lat="48.38011" lon="2.65838">
        <ele>99.199996948242</ele>
        <time>2020-02-07T10:09:56Z</time>
      </trkpt>
      <trkpt lat="48.38018" lon="2.65843">
        <ele>98.800003051758</ele>
        <time>2020-02-07T10:10:01Z</time>
      </trkpt>
      <trkpt lat="48.38023" lon="2.65851">
        <ele>98</ele>
        <time>2020-02-07T10:10:06Z</time>
      </trkpt>
      <trkpt lat="48.38031" lon="2.65858">
        <ele>97</ele>
        <time>2020-02-07T10:10:11Z</time>
      </trkpt>
      <trkpt lat="48.3804" lon="2.65861">
        <ele>96.199996948242</ele>
        <time>2020-02-07T10:10:16Z</time>
      </trkpt>
      <trkpt lat="48.38048" lon="2.65859">
        <ele>95.800003051758</ele>
        <time>2020-02-07T10:10:21Z</time>
      </trkpt>
      <trkpt lat="48.38055" lon="2.6586">
        <ele>95</ele>
        <time>2020-02-07T10:10:26Z</time>
      </trkpt>
      <trkpt lat="48.38064" lon="2.65862">
        <ele>94</ele>
        <time>2020-02-07T10:10:31Z</time>
      </trkpt>
      <trkpt lat="48.38073" lon="2.65865">
        <ele>93.400001525879</ele>
        <time>2020-02-07T10:10:36Z</time>
      </trkpt>
      <trkpt lat="48.3808" lon="2.65868">
        <ele>93</ele>
        <time>2020-02-07T10:10:41Z</time>
      </trkpt>
      <trkpt lat="48.38088" lon="2.65872">
        <ele>92.599998474121</ele>
        <time>2020-02-07T10:10:46Z</time>
      </trkpt>
      <trkpt lat="48.38097" lon="2.65876">
        <ele>92.400001525879</ele>
        <time>2020-02-07T10:10:51Z</time>
      </trkpt>
      <trkpt lat="48.38104" lon="2.65879">
        <ele>92.199996948242</ele>
        <time>2020-02-07T10:10:56Z</time>
      </trkpt>
      <trkpt lat="48.38113" lon="2.65881">
        <ele>92</ele>
        <time>2020-02-07T10:11:01Z</time>
      </trkpt>
      <trkpt lat="48.38121" lon="2.65884">
        <ele>91.800003051758</ele>
        <time>2020-02-07T10:11:06Z</time>
      </trkpt>
      <trkpt lat="48.38128" lon="2.65887">
        <ele>91.599998474121</ele>
        <time>2020-02-07T10:11:11Z</time>
      </trkpt>
      <trkpt lat="48.38135" lon="2.65891">
        <ele>91.599998474121</ele>
        <time>2020-02-07T10:11:16Z</time>
      </trkpt>
      <trkpt lat="48.38142" lon="2.65894">
        <ele>91.599998474121</ele>
        <time>2020-02-07T10:11:21Z</time>
      </trkpt>
      <trkpt lat="48.38151" lon="2.65896">
        <ele>91.400001525879</ele>
        <time>2020-02-07T10:11:26Z</time>
      </trkpt>
      <trkpt lat="48.38158" lon="2.65903">
        <ele>91.199996948242</ele>
        <time>2020-02-07T10:11:31Z</time>
      </trkpt>
      <trkpt lat="48.38159" lon="2.65914">
        <ele>91.199996948242</ele>
        <time>2020-02-07T10:11:36Z</time>
      </trkpt>
      <trkpt lat="48.38159" lon="2.65926">
        <ele>91.199996948242</ele>
        <time>2020-02-07T10:11:41Z</time>
      </trkpt>
      <trkpt lat="48.38159" lon="2.65938">
        <ele>91.199996948242</ele>
        <time>2020-02-07T10:11:46Z</time>
      </trkpt>
      <trkpt lat="48.38159" lon="2.6595">
        <ele>91.199996948242</ele>
        <time>2020-02-07T10:11:51Z</time>
      </trkpt>
      <trkpt lat="48.38159" lon="2.6596">
        <ele>91.199996948242</ele>
        <time>2020-02-07T10:11:56Z</time>
      </trkpt>
      <trkpt lat="48.38159" lon="2.65972">
        <ele>91.199996948242</ele>
        <time>2020-02-07T10:12:01Z</time>
      </trkpt>
      <trkpt lat="48.38159" lon="2.65984">
        <ele>91.400001525879</ele>
        <time>2020-02-07T10:12:06Z</time>
      </trkpt>
      <trkpt lat="48.38159" lon="2.65997">
        <ele>91.400001525879</ele>
        <time>2020-02-07T10:12:11Z</time>
      </trkpt>
      <trkpt lat="48.38159" lon="2.66009">
        <ele>91.400001525879</ele>
        <time>2020-02-07T10:12:16Z</time>
      </trkpt>
      <trkpt lat="48.38158" lon="2.6602">
        <ele>91.599998474121</ele>
        <time>2020-02-07T10:12:21Z</time>
      </trkpt>
      <trkpt lat="48.38158" lon="2.66032">
        <ele>91.800003051758</ele>
        <time>2020-02-07T10:12:26Z</time>
      </trkpt>
      <trkpt lat="48.38158" lon="2.66046">
        <ele>91.800003051758</ele>
        <time>2020-02-07T10:12:31Z</time>
      </trkpt>
      <trkpt lat="48.38157" lon="2.66056">
        <ele>92</ele>
        <time>2020-02-07T10:12:36Z</time>
      </trkpt>
      <trkpt lat="48.38155" lon="2.66069">
        <ele>92</ele>
        <time>2020-02-07T10:12:41Z</time>
      </trkpt>
      <trkpt lat="48.38153" lon="2.6608">
        <ele>92</ele>
        <time>2020-02-07T10:12:46Z</time>
      </trkpt>
      <trkpt lat="48.38151" lon="2.66091">
        <ele>92</ele>
        <time>2020-02-07T10:12:51Z</time>
      </trkpt>
      <trkpt lat="48.38149" lon="2.66105">
        <ele>92</ele>
        <time>2020-02-07T10:12:56Z</time>
      </trkpt>
      <trkpt lat="48.38148" lon="2.66116">
        <ele>92.400001525879</ele>
        <time>2020-02-07T10:13:01Z</time>
      </trkpt>
      <trkpt lat="48.38147" lon="2.66128">
        <ele>92.599998474121</ele>
        <time>2020-02-07T10:13:06Z</time>
      </trkpt>
      <trkpt lat="48.38146" lon="2.66141">
        <ele>92.599998474121</ele>
        <time>2020-02-07T10:13:11Z</time>
      </trkpt>
      <trkpt lat="48.38147" lon="2.66155">
        <ele>92.800003051758</ele>
        <time>2020-02-07T10:13:16Z</time>
      </trkpt>
      <trkpt lat="48.38147" lon="2.66165">
        <ele>93</ele>
        <time>2020-02-07T10:13:21Z</time>
      </trkpt>
      <trkpt lat="48.38146" lon="2.66178">
        <ele>93.199996948242</ele>
        <time>2020-02-07T10:13:26Z</time>
      </trkpt>
      <trkpt lat="48.38145" lon="2.66189">
        <ele>93.400001525879</ele>
        <time>2020-02-07T10:13:31Z</time>
      </trkpt>
      <trkpt lat="48.38143" lon="2.66202">
        <ele>93.800003051758</ele>
        <time>2020-02-07T10:13:36Z</time>
      </trkpt>
      <trkpt lat="48.38142" lon="2.66214">
        <ele>94.199996948242</ele>
        <time>2020-02-07T10:13:41Z</time>
      </trkpt>
      <trkpt lat="48.3814" lon="2.66225">
        <ele>94.400001525879</ele>
        <time>2020-02-07T10:13:46Z</time>
      </trkpt>
      <trkpt lat="48.38137" lon="2.66237">
        <ele>94.400001525879</ele>
        <time>2020-02-07T10:13:51Z</time>
      </trkpt>
      <trkpt lat="48.38136" lon="2.66249">
        <ele>94.400001525879</ele>
        <time>2020-02-07T10:13:56Z</time>
      </trkpt>
      <trkpt lat="48.38134" lon="2.66262">
        <ele>94.199996948242</ele>
        <time>2020-02-07T10:14:01Z</time>
      </trkpt>
      <trkpt lat="48.38133" lon="2.66274">
        <ele>93.800003051758</ele>
        <time>2020-02-07T10:14:06Z</time>
      </trkpt>
      <trkpt lat="48.38132" lon="2.66289">
        <ele>93.400001525879</ele>
        <time>2020-02-07T10:14:11Z</time>
      </trkpt>
      <trkpt lat="48.38129" lon="2.663">
        <ele>93</ele>
        <time>2020-02-07T10:14:16Z</time>
      </trkpt>
      <trkpt lat="48.38128" lon="2.66313">
        <ele>92.800003051758</ele>
        <time>2020-02-07T10:14:21Z</time>
      </trkpt>
      <trkpt lat="48.38125" lon="2.66324">
        <ele>92.800003051758</ele>
        <time>2020-02-07T10:14:26Z</time>
      </trkpt>
      <trkpt lat="48.38123" lon="2.66337">
        <ele>92.800003051758</ele>
        <time>2020-02-07T10:14:31Z</time>
      </trkpt>
      <trkpt lat="48.38122" lon="2.6635">
        <ele>92.800003051758</ele>
        <time>2020-02-07T10:14:36Z</time>
      </trkpt>
      <trkpt lat="48.38122" lon="2.66363">
        <ele>92.800003051758</ele>
        <time>2020-02-07T10:14:41Z</time>
      </trkpt>
      <trkpt lat="48.38122" lon="2.66378">
        <ele>92.800003051758</ele>
        <time>2020-02-07T10:14:46Z</time>
      </trkpt>
      <trkpt lat="48.38122" lon="2.66391">
        <ele>92.599998474121</ele>
        <time>2020-02-07T10:14:51Z</time>
      </trkpt>
      <trkpt lat="48.3812" lon="2.66402">
        <ele>92.599998474121</ele>
        <time>2020-02-07T10:14:56Z</time>
      </trkpt>
      <trkpt lat="48.38118" lon="2.66416">
        <ele>92.599998474121</ele>
        <time>2020-02-07T10:15:01Z</time>
      </trkpt>
      <trkpt lat="48.38116" lon="2.66428">
        <ele>92.199996948242</ele>
        <time>2020-02-07T10:15:06Z</time>
      </trkpt>
      <trkpt lat="48.38114" lon="2.66442">
        <ele>92</ele>
        <time>2020-02-07T10:15:11Z</time>
      </trkpt>
      <trkpt lat="48.38114" lon="2.66453">
        <ele>91.800003051758</ele>
        <time>2020-02-07T10:15:16Z</time>
      </trkpt>
      <trkpt lat="48.38115" lon="2.66465">
        <ele>92</ele>
        <time>2020-02-07T10:15:21Z</time>
      </trkpt>
      <trkpt lat="48.38113" lon="2.66476">
        <ele>92</ele>
        <time>2020-02-07T10:15:26Z</time>
      </trkpt>
      <trkpt lat="48.38112" lon="2.66487">
        <ele>92.199996948242</ele>
        <time>2020-02-07T10:15:31Z</time>
      </trkpt>
      <trkpt lat="48.38111" lon="2.665">
        <ele>92.199996948242</ele>
        <time>2020-02-07T10:15:36Z</time>
      </trkpt>
      <trkpt lat="48.3811" lon="2.66512">
        <ele>92.400001525879</ele>
        <time>2020-02-07T10:15:41Z</time>
      </trkpt>
      <trkpt lat="48.38108" lon="2.66524">
        <ele>92.400001525879</ele>
        <time>2020-02-07T10:15:46Z</time>
      </trkpt>
      <trkpt lat="48.38109" lon="2.66535">
        <ele>92.199996948242</ele>
        <time>2020-02-07T10:15:51Z</time>
      </trkpt>
      <trkpt lat="48.38106" lon="2.66546">
        <ele>92.199996948242</ele>
        <time>2020-02-07T10:15:56Z</time>
      </trkpt>
      <trkpt lat="48.38105" lon="2.66559">
        <ele>92.199996948242</ele>
        <time>2020-02-07T10:16:01Z</time>
      </trkpt>
      <trkpt lat="48.38103" lon="2.66569">
        <ele>92.199996948242</ele>
        <time>2020-02-07T10:16:06Z</time>
      </trkpt>
      <trkpt lat="48.38102" lon="2.66582">
        <ele>92.199996948242</ele>
        <time>2020-02-07T10:16:11Z</time>
      </trkpt>
      <trkpt lat="48.38102" lon="2.66594">
        <ele>92.400001525879</ele>
        <time>2020-02-07T10:16:16Z</time>
      </trkpt>
      <trkpt lat="48.381" lon="2.66606">
        <ele>92.400001525879</ele>
        <time>2020-02-07T10:16:21Z</time>
      </trkpt>
      <trkpt lat="48.381" lon="2.66618">
        <ele>92.400001525879</ele>
        <time>2020-02-07T10:16:26Z</time>
      </trkpt>
      <trkpt lat="48.381" lon="2.6663">
        <ele>92.400001525879</ele>
        <time>2020-02-07T10:16:31Z</time>
      </trkpt>
      <trkpt lat="48.38099" lon="2.66642">
        <ele>92.599998474121</ele>
        <time>2020-02-07T10:16:36Z</time>
      </trkpt>
      <trkpt lat="48.38099" lon="2.66654">
        <ele>92.400001525879</ele>
        <time>2020-02-07T10:16:41Z</time>
      </trkpt>
      <trkpt lat="48.38097" lon="2.66669">
        <ele>92.400001525879</ele>
        <time>2020-02-07T10:16:46Z</time>
      </trkpt>
      <trkpt lat="48.38096" lon="2.66681">
        <ele>92.400001525879</ele>
        <time>2020-02-07T10:16:51Z</time>
      </trkpt>
      <trkpt lat="48.38095" lon="2.66693">
        <ele>92.400001525879</ele>
        <time>2020-02-07T10:16:56Z</time>
      </trkpt>
      <trkpt lat="48.38093" lon="2.66705">
        <ele>92.400001525879</ele>
        <time>2020-02-07T10:17:01Z</time>
      </trkpt>
      <trkpt lat="48.38092" lon="2.66717">
        <ele>92.599998474121</ele>
        <time>2020-02-07T10:17:06Z</time>
      </trkpt>
      <trkpt lat="48.38091" lon="2.66729">
        <ele>92.599998474121</ele>
        <time>2020-02-07T10:17:11Z</time>
      </trkpt>
      <trkpt lat="48.38091" lon="2.66741">
        <ele>92.599998474121</ele>
        <time>2020-02-07T10:17:16Z</time>
      </trkpt>
      <trkpt lat="48.3809" lon="2.66752">
        <ele>92.599998474121</ele>
        <time>2020-02-07T10:17:21Z</time>
      </trkpt>
      <trkpt lat="48.38089" lon="2.66765">
        <ele>92.800003051758</ele>
        <time>2020-02-07T10:17:26Z</time>
      </trkpt>
      <trkpt lat="48.38088" lon="2.66778">
        <ele>92.800003051758</ele>
        <time>2020-02-07T10:17:31Z</time>
      </trkpt>
      <trkpt lat="48.38088" lon="2.6679">
        <ele>92.599998474121</ele>
        <time>2020-02-07T10:17:36Z</time>
      </trkpt>
      <trkpt lat="48.38088" lon="2.66799">
        <ele>92.599998474121</ele>
        <time>2020-02-07T10:17:41Z</time>
      </trkpt>
      <trkpt lat="48.38088" lon="2.668">
        <ele>92.800003051758</ele>
        <time>2020-02-07T10:17:46Z</time>
      </trkpt>
      <trkpt lat="48.38088" lon="2.66799">
        <ele>93</ele>
        <time>2020-02-07T10:17:51Z</time>
      </trkpt>
      <trkpt lat="48.38088" lon="2.66799">
        <ele>93</ele>
        <time>2020-02-07T10:17:56Z</time>
      </trkpt>
      <trkpt lat="48.38087" lon="2.66798">
        <ele>92.800003051758</ele>
        <time>2020-02-07T10:18:01Z</time>
      </trkpt>
      <trkpt lat="48.38087" lon="2.66798">
        <ele>93</ele>
        <time>2020-02-07T10:18:06Z</time>
      </trkpt>
      <trkpt lat="48.38086" lon="2.66797">
        <ele>93</ele>
        <time>2020-02-07T10:18:11Z</time>
      </trkpt>
      <trkpt lat="48.38085" lon="2.66798">
        <ele>92.800003051758</ele>
        <time>2020-02-07T10:18:16Z</time>
      </trkpt>
      <trkpt lat="48.38085" lon="2.66797">
        <ele>92.800003051758</ele>
        <time>2020-02-07T10:18:21Z</time>
      </trkpt>
      <trkpt lat="48.38083" lon="2.66795">
        <ele>92.599998474121</ele>
        <time>2020-02-07T10:18:26Z</time>
      </trkpt>
      <trkpt lat="48.38081" lon="2.66793">
        <ele>92.599998474121</ele>
        <time>2020-02-07T10:18:31Z</time>
      </trkpt>
      <trkpt lat="48.3808" lon="2.66791">
        <ele>92.599998474121</ele>
        <time>2020-02-07T10:18:36Z</time>
      </trkpt>
      <trkpt lat="48.38079" lon="2.6679">
        <ele>92.599998474121</ele>
        <time>2020-02-07T10:18:41Z</time>
      </trkpt>
      <trkpt lat="48.38079" lon="2.66791">
        <ele>93</ele>
        <time>2020-02-07T10:18:46Z</time>
      </trkpt>
      <trkpt lat="48.3808" lon="2.66792">
        <ele>93</ele>
        <time>2020-02-07T10:18:51Z</time>
      </trkpt>
      <trkpt lat="48.38081" lon="2.66792">
        <ele>93</ele>
        <time>2020-02-07T10:18:56Z</time>
      </trkpt>
      <trkpt lat="48.38081" lon="2.66792">
        <ele>93</ele>
        <time>2020-02-07T10:19:01Z</time>
      </trkpt>
      <trkpt lat="48.38082" lon="2.66792">
        <ele>93</ele>
        <time>2020-02-07T10:19:06Z</time>
      </trkpt>
      <trkpt lat="48.38083" lon="2.66793">
        <ele>93</ele>
        <time>2020-02-07T10:19:11Z</time>
      </trkpt>
      <trkpt lat="48.38083" lon="2.66793">
        <ele>93</ele>
        <time>2020-02-07T10:19:16Z</time>
      </trkpt>
      <trkpt lat="48.38083" lon="2.66794">
        <ele>93</ele>
        <time>2020-02-07T10:19:21Z</time>
      </trkpt>
      <trkpt lat="48.38084" lon="2.66795">
        <ele>93</ele>
        <time>2020-02-07T10:19:26Z</time>
      </trkpt>
      <trkpt lat="48.38085" lon="2.66796">
        <ele>93</ele>
        <time>2020-02-07T10:19:31Z</time>
      </trkpt>
      <trkpt lat="48.38086" lon="2.66797">
        <ele>93</ele>
        <time>2020-02-07T10:19:36Z</time>
      </trkpt>
      <trkpt lat="48.38086" lon="2.66797">
        <ele>93</ele>
        <time>2020-02-07T10:19:41Z</time>
      </trkpt>
      <trkpt lat="48.38085" lon="2.66796">
        <ele>93</ele>
        <time>2020-02-07T10:19:46Z</time>
      </trkpt>
      <trkpt lat="48.38085" lon="2.66796">
        <ele>93</ele>
        <time>2020-02-07T10:19:51Z</time>
      </trkpt>
      <trkpt lat="48.38085" lon="2.66795">
        <ele>93</ele>
        <time>2020-02-07T10:19:56Z</time>
      </trkpt>
      <trkpt lat="48.38085" lon="2.66795">
        <ele>93</ele>
        <time>2020-02-07T10:20:01Z</time>
      </trkpt>
      <trkpt lat="48.38085" lon="2.66795">
        <ele>93</ele>
        <time>2020-02-07T10:20:06Z</time>
      </trkpt>
      <trkpt lat="48.38085" lon="2.66794">
        <ele>93</ele>
        <time>2020-02-07T10:20:11Z</time>
      </trkpt>
      <trkpt lat="48.38086" lon="2.66795">
        <ele>93</ele>
        <time>2020-02-07T10:20:16Z</time>
      </trkpt>
      <trkpt lat="48.38086" lon="2.66795">
        <ele>93</ele>
        <time>2020-02-07T10:20:21Z</time>
      </trkpt>
      <trkpt lat="48.38086" lon="2.66796">
        <ele>93</ele>
        <time>2020-02-07T10:20:26Z</time>
      </trkpt>
      <trkpt lat="48.38086" lon="2.66797">
        <ele>93</ele>
        <time>2020-02-07T10:20:31Z</time>
      </trkpt>
      <trkpt lat="48.38086" lon="2.66797">
        <ele>93</ele>
        <time>2020-02-07T10:20:36Z</time>
      </trkpt>
      <trkpt lat="48.38086" lon="2.66798">
        <ele>93</ele>
        <time>2020-02-07T10:20:41Z</time>
      </trkpt>
      <trkpt lat="48.38087" lon="2.66799">
        <ele>93</ele>
        <time>2020-02-07T10:20:46Z</time>
      </trkpt>
      <trkpt lat="48.38087" lon="2.668">
        <ele>93</ele>
        <time>2020-02-07T10:20:51Z</time>
      </trkpt>
      <trkpt lat="48.38087" lon="2.668">
        <ele>93</ele>
        <time>2020-02-07T10:20:56Z</time>
      </trkpt>
      <trkpt lat="48.38086" lon="2.66802">
        <ele>93</ele>
        <time>2020-02-07T10:21:01Z</time>
      </trkpt>
      <trkpt lat="48.38086" lon="2.66803">
        <ele>93</ele>
        <time>2020-02-07T10:21:06Z</time>
      </trkpt>
      <trkpt lat="48.38086" lon="2.66804">
        <ele>93</ele>
        <time>2020-02-07T10:21:11Z</time>
      </trkpt>
      <trkpt lat="48.38086" lon="2.66804">
        <ele>93</ele>
        <time>2020-02-07T10:21:15Z</time>
      </trkpt>
      <trkpt lat="48.38086" lon="2.66804">
        <ele>93</ele>
        <time>2020-02-07T10:21:21Z</time>
      </trkpt>
      <trkpt lat="48.38087" lon="2.66804">
        <ele>93</ele>
        <time>2020-02-07T10:21:26Z</time>
      </trkpt>
      <trkpt lat="48.38087" lon="2.66805">
        <ele>93</ele>
        <time>2020-02-07T10:21:31Z</time>
      </trkpt>
      <trkpt lat="48.38087" lon="2.66806">
        <ele>93</ele>
        <time>2020-02-07T10:21:36Z</time>
      </trkpt>
      <trkpt lat="48.38087" lon="2.66806">
        <ele>93</ele>
        <time>2020-02-07T10:21:41Z</time>
      </trkpt>
      <trkpt lat="48.38088" lon="2.66807">
        <ele>93</ele>
        <time>2020-02-07T10:21:46Z</time>
      </trkpt>
      <trkpt lat="48.38089" lon="2.66807">
        <ele>93</ele>
        <time>2020-02-07T10:21:51Z</time>
      </trkpt>
      <trkpt lat="48.38089" lon="2.66807">
        <ele>93</ele>
        <time>2020-02-07T10:21:56Z</time>
      </trkpt>
      <trkpt lat="48.3809" lon="2.66806">
        <ele>93</ele>
        <time>2020-02-07T10:22:01Z</time>
      </trkpt>
      <trkpt lat="48.3809" lon="2.66806">
        <ele>93</ele>
        <time>2020-02-07T10:22:06Z</time>
      </trkpt>
      <trkpt lat="48.3809" lon="2.66806">
        <ele>93</ele>
        <time>2020-02-07T10:22:11Z</time>
      </trkpt>
      <trkpt lat="48.3809" lon="2.66805">
        <ele>93</ele>
        <time>2020-02-07T10:22:16Z</time>
      </trkpt>
      <trkpt lat="48.3809" lon="2.66805">
        <ele>93</ele>
        <time>2020-02-07T10:22:21Z</time>
      </trkpt>
      <trkpt lat="48.3809" lon="2.66804">
        <ele>93</ele>
        <time>2020-02-07T10:22:27Z</time>
      </trkpt>
      <trkpt lat="48.3809" lon="2.66803">
        <ele>93</ele>
        <time>2020-02-07T10:22:32Z</time>
      </trkpt>
      <trkpt lat="48.3809" lon="2.66803">
        <ele>93</ele>
        <time>2020-02-07T10:22:37Z</time>
      </trkpt>
      <trkpt lat="48.38089" lon="2.66803">
        <ele>93</ele>
        <time>2020-02-07T10:22:43Z</time>
      </trkpt>
      <trkpt lat="48.38089" lon="2.66803">
        <ele>93</ele>
        <time>2020-02-07T10:22:48Z</time>
      </trkpt>
      <trkpt lat="48.38089" lon="2.66803">
        <ele>93</ele>
        <time>2020-02-07T10:22:54Z</time>
      </trkpt>
      <trkpt lat="48.38089" lon="2.66803">
        <ele>93</ele>
        <time>2020-02-07T10:22:59Z</time>
      </trkpt>
      <trkpt lat="48.38089" lon="2.66803">
        <ele>93</ele>
        <time>2020-02-07T10:23:04Z</time>
      </trkpt>
      <trkpt lat="48.38089" lon="2.66803">
        <ele>93</ele>
        <time>2020-02-07T10:23:09Z</time>
      </trkpt>
      <trkpt lat="48.3809" lon="2.66803">
        <ele>93</ele>
        <time>2020-02-07T10:23:14Z</time>
      </trkpt>
      <trkpt lat="48.38089" lon="2.66803">
        <ele>93</ele>
        <time>2020-02-07T10:23:19Z</time>
      </trkpt>
      <trkpt lat="48.38089" lon="2.66804">
        <ele>93</ele>
        <time>2020-02-07T10:23:24Z</time>
      </trkpt>
      <trkpt lat="48.3809" lon="2.66805">
        <ele>93</ele>
        <time>2020-02-07T10:23:29Z</time>
      </trkpt>
      <trkpt lat="48.38091" lon="2.66806">
        <ele>93</ele>
        <time>2020-02-07T10:23:34Z</time>
      </trkpt>
      <trkpt lat="48.38091" lon="2.66806">
        <ele>93</ele>
        <time>2020-02-07T10:23:39Z</time>
      </trkpt>
      <trkpt lat="48.38091" lon="2.66807">
        <ele>93</ele>
        <time>2020-02-07T10:23:44Z</time>
      </trkpt>
      <trkpt lat="48.38093" lon="2.66807">
        <ele>93</ele>
        <time>2020-02-07T10:23:49Z</time>
      </trkpt>
      <trkpt lat="48.38093" lon="2.66808">
        <ele>93</ele>
        <time>2020-02-07T10:23:54Z</time>
      </trkpt>
      <trkpt lat="48.38093" lon="2.66808">
        <ele>93</ele>
        <time>2020-02-07T10:23:59Z</time>
      </trkpt>
      <trkpt lat="48.38091" lon="2.66807">
        <ele>93</ele>
        <time>2020-02-07T10:24:04Z</time>
      </trkpt>
      <trkpt lat="48.38091" lon="2.66806">
        <ele>93</ele>
        <time>2020-02-07T10:24:10Z</time>
      </trkpt>
      <trkpt lat="48.3809" lon="2.66806">
        <ele>93.199996948242</ele>
        <time>2020-02-07T10:24:15Z</time>
      </trkpt>
      <trkpt lat="48.3809" lon="2.66803">
        <ele>93.199996948242</ele>
        <time>2020-02-07T10:24:21Z</time>
      </trkpt>
      <trkpt lat="48.3809" lon="2.66802">
        <ele>93.199996948242</ele>
        <time>2020-02-07T10:24:26Z</time>
      </trkpt>
      <trkpt lat="48.3809" lon="2.668">
        <ele>93.199996948242</ele>
        <time>2020-02-07T10:24:32Z</time>
      </trkpt>
      <trkpt lat="48.38089" lon="2.668">
        <ele>93.199996948242</ele>
        <time>2020-02-07T10:24:38Z</time>
      </trkpt>
      <trkpt lat="48.38087" lon="2.66801">
        <ele>93.199996948242</ele>
        <time>2020-02-07T10:24:43Z</time>
      </trkpt>
      <trkpt lat="48.38087" lon="2.66801">
        <ele>93.199996948242</ele>
        <time>2020-02-07T10:24:48Z</time>
      </trkpt>
      <trkpt lat="48.38087" lon="2.66801">
        <ele>93</ele>
        <time>2020-02-07T10:24:53Z</time>
      </trkpt>
      <trkpt lat="48.38086" lon="2.66802">
        <ele>93</ele>
        <time>2020-02-07T10:24:58Z</time>
      </trkpt>
      <trkpt lat="48.38085" lon="2.66803">
        <ele>93</ele>
        <time>2020-02-07T10:25:03Z</time>
      </trkpt>
      <trkpt lat="48.38085" lon="2.66803">
        <ele>93</ele>
        <time>2020-02-07T10:25:08Z</time>
      </trkpt>
      <trkpt lat="48.38086" lon="2.66803">
        <ele>92.800003051758</ele>
        <time>2020-02-07T10:25:13Z</time>
      </trkpt>
      <trkpt lat="48.38086" lon="2.66803">
        <ele>92.800003051758</ele>
        <time>2020-02-07T10:25:18Z</time>
      </trkpt>
      <trkpt lat="48.38087" lon="2.66805">
        <ele>93</ele>
        <time>2020-02-07T10:25:23Z</time>
      </trkpt>
      <trkpt lat="48.38089" lon="2.66806">
        <ele>93</ele>
        <time>2020-02-07T10:25:28Z</time>
      </trkpt>
      <trkpt lat="48.38089" lon="2.66805">
        <ele>93</ele>
        <time>2020-02-07T10:25:33Z</time>
      </trkpt>
      <trkpt lat="48.38089" lon="2.66804">
        <ele>93</ele>
        <time>2020-02-07T10:25:38Z</time>
      </trkpt>
      <trkpt lat="48.38088" lon="2.66803">
        <ele>93</ele>
        <time>2020-02-07T10:25:43Z</time>
      </trkpt>
      <trkpt lat="48.38088" lon="2.66802">
        <ele>92.800003051758</ele>
        <time>2020-02-07T10:25:48Z</time>
      </trkpt>
      <trkpt lat="48.38087" lon="2.66804">
        <ele>92.800003051758</ele>
        <time>2020-02-07T10:25:53Z</time>
      </trkpt>
      <trkpt lat="48.38086" lon="2.66806">
        <ele>93</ele>
        <time>2020-02-07T10:25:58Z</time>
      </trkpt>
      <trkpt lat="48.38086" lon="2.66806">
        <ele>93</ele>
        <time>2020-02-07T10:26:02Z</time>
      </trkpt>
      <trkpt lat="48.38086" lon="2.66806">
        <ele>93.199996948242</ele>
        <time>2020-02-07T10:26:08Z</time>
      </trkpt>
      <trkpt lat="48.38086" lon="2.66807">
        <ele>93.199996948242</ele>
        <time>2020-02-07T10:26:13Z</time>
      </trkpt>
      <trkpt lat="48.38087" lon="2.66807">
        <ele>93.199996948242</ele>
        <time>2020-02-07T10:26:18Z</time>
      </trkpt>
      <trkpt lat="48.38087" lon="2.66808">
        <ele>93.199996948242</ele>
        <time>2020-02-07T10:26:23Z</time>
      </trkpt>
      <trkpt lat="48.38087" lon="2.66808">
        <ele>93.199996948242</ele>
        <time>2020-02-07T10:26:28Z</time>
      </trkpt>
      <trkpt lat="48.38088" lon="2.66805">
        <ele>93.199996948242</ele>
        <time>2020-02-07T10:26:33Z</time>
      </trkpt>
      <trkpt lat="48.38088" lon="2.66804">
        <ele>93.199996948242</ele>
        <time>2020-02-07T10:26:38Z</time>
      </trkpt>
      <trkpt lat="48.38087" lon="2.66803">
        <ele>93.199996948242</ele>
        <time>2020-02-07T10:26:43Z</time>
      </trkpt>
      <trkpt lat="48.38086" lon="2.66802">
        <ele>93.199996948242</ele>
        <time>2020-02-07T10:26:48Z</time>
      </trkpt>
      <trkpt lat="48.38086" lon="2.66802">
        <ele>93.199996948242</ele>
        <time>2020-02-07T10:26:53Z</time>
      </trkpt>
      <trkpt lat="48.38085" lon="2.66803">
        <ele>93.199996948242</ele>
        <time>2020-02-07T10:26:58Z</time>
      </trkpt>
      <trkpt lat="48.38085" lon="2.66806">
        <ele>93.199996948242</ele>
        <time>2020-02-07T10:27:03Z</time>
      </trkpt>
      <trkpt lat="48.38085" lon="2.66816">
        <ele>93</ele>
        <time>2020-02-07T10:27:08Z</time>
      </trkpt>
      <trkpt lat="48.38085" lon="2.66825">
        <ele>93</ele>
        <time>2020-02-07T10:27:13Z</time>
      </trkpt>
      <trkpt lat="48.38087" lon="2.66837">
        <ele>93</ele>
        <time>2020-02-07T10:27:18Z</time>
      </trkpt>
      <trkpt lat="48.38086" lon="2.6685">
        <ele>93</ele>
        <time>2020-02-07T10:27:23Z</time>
      </trkpt>
      <trkpt lat="48.38084" lon="2.66863">
        <ele>93</ele>
        <time>2020-02-07T10:27:28Z</time>
      </trkpt>
      <trkpt lat="48.38085" lon="2.66875">
        <ele>93.199996948242</ele>
        <time>2020-02-07T10:27:33Z</time>
      </trkpt>
      <trkpt lat="48.38084" lon="2.66888">
        <ele>93.599998474121</ele>
        <time>2020-02-07T10:27:38Z</time>
      </trkpt>
      <trkpt lat="48.38084" lon="2.66898">
        <ele>94</ele>
        <time>2020-02-07T10:27:43Z</time>
      </trkpt>
      <trkpt lat="48.38083" lon="2.66909">
        <ele>94.199996948242</ele>
        <time>2020-02-07T10:27:48Z</time>
      </trkpt>
      <trkpt lat="48.38081" lon="2.66921">
        <ele>95.199996948242</ele>
        <time>2020-02-07T10:27:53Z</time>
      </trkpt>
      <trkpt lat="48.38079" lon="2.66932">
        <ele>95.599998474121</ele>
        <time>2020-02-07T10:27:58Z</time>
      </trkpt>
      <trkpt lat="48.38078" lon="2.66946">
        <ele>95.800003051758</ele>
        <time>2020-02-07T10:28:03Z</time>
      </trkpt>
      <trkpt lat="48.38078" lon="2.66959">
        <ele>96</ele>
        <time>2020-02-07T10:28:08Z</time>
      </trkpt>
      <trkpt lat="48.38077" lon="2.6697">
        <ele>96.199996948242</ele>
        <time>2020-02-07T10:28:13Z</time>
      </trkpt>
      <trkpt lat="48.38074" lon="2.66982">
        <ele>96.400001525879</ele>
        <time>2020-02-07T10:28:18Z</time>
      </trkpt>
      <trkpt lat="48.38071" lon="2.66994">
        <ele>96.599998474121</ele>
        <time>2020-02-07T10:28:23Z</time>
      </trkpt>
      <trkpt lat="48.38072" lon="2.67007">
        <ele>96.599998474121</ele>
        <time>2020-02-07T10:28:28Z</time>
      </trkpt>
      <trkpt lat="48.38072" lon="2.67019">
        <ele>96.599998474121</ele>
        <time>2020-02-07T10:28:33Z</time>
      </trkpt>
      <trkpt lat="48.38072" lon="2.67032">
        <ele>96.599998474121</ele>
        <time>2020-02-07T10:28:38Z</time>
      </trkpt>
      <trkpt lat="48.3807" lon="2.67046">
        <ele>96.599998474121</ele>
        <time>2020-02-07T10:28:43Z</time>
      </trkpt>
      <trkpt lat="48.3807" lon="2.67057">
        <ele>96.800003051758</ele>
        <time>2020-02-07T10:28:48Z</time>
      </trkpt>
      <trkpt lat="48.38071" lon="2.6707">
        <ele>97</ele>
        <time>2020-02-07T10:28:53Z</time>
      </trkpt>
      <trkpt lat="48.38071" lon="2.67081">
        <ele>97.199996948242</ele>
        <time>2020-02-07T10:28:58Z</time>
      </trkpt>
      <trkpt lat="48.38072" lon="2.67092">
        <ele>97.400001525879</ele>
        <time>2020-02-07T10:29:03Z</time>
      </trkpt>
      <trkpt lat="48.3807" lon="2.67104">
        <ele>97.800003051758</ele>
        <time>2020-02-07T10:29:08Z</time>
      </trkpt>
      <trkpt lat="48.38068" lon="2.67115">
        <ele>98.199996948242</ele>
        <time>2020-02-07T10:29:13Z</time>
      </trkpt>
      <trkpt lat="48.3807" lon="2.67126">
        <ele>98.599998474121</ele>
        <time>2020-02-07T10:29:18Z</time>
      </trkpt>
      <trkpt lat="48.38072" lon="2.67136">
        <ele>99</ele>
        <time>2020-02-07T10:29:23Z</time>
      </trkpt>
      <trkpt lat="48.38074" lon="2.67145">
        <ele>99.199996948242</ele>
        <time>2020-02-07T10:29:28Z</time>
      </trkpt>
      <trkpt lat="48.38077" lon="2.67152">
        <ele>100</ele>
        <time>2020-02-07T10:29:33Z</time>
      </trkpt>
      <trkpt lat="48.38081" lon="2.67162">
        <ele>100.59999847412</ele>
        <time>2020-02-07T10:29:38Z</time>
      </trkpt>
      <trkpt lat="48.38086" lon="2.67171">
        <ele>101.40000152588</ele>
        <time>2020-02-07T10:29:43Z</time>
      </trkpt>
      <trkpt lat="48.3809" lon="2.6718">
        <ele>102.40000152588</ele>
        <time>2020-02-07T10:29:48Z</time>
      </trkpt>
      <trkpt lat="48.38094" lon="2.67187">
        <ele>103.19999694824</ele>
        <time>2020-02-07T10:29:53Z</time>
      </trkpt>
      <trkpt lat="48.38097" lon="2.67194">
        <ele>104.19999694824</ele>
        <time>2020-02-07T10:29:58Z</time>
      </trkpt>
      <trkpt lat="48.38101" lon="2.67203">
        <ele>105.19999694824</ele>
        <time>2020-02-07T10:30:03Z</time>
      </trkpt>
      <trkpt lat="48.38105" lon="2.67211">
        <ele>106.40000152588</ele>
        <time>2020-02-07T10:30:08Z</time>
      </trkpt>
      <trkpt lat="48.38109" lon="2.67219">
        <ele>107.59999847412</ele>
        <time>2020-02-07T10:30:13Z</time>
      </trkpt>
      <trkpt lat="48.38113" lon="2.67225">
        <ele>108.59999847412</ele>
        <time>2020-02-07T10:30:18Z</time>
      </trkpt>
      <trkpt lat="48.38117" lon="2.67229">
        <ele>109.59999847412</ele>
        <time>2020-02-07T10:30:23Z</time>
      </trkpt>
      <trkpt lat="48.3812" lon="2.67234">
        <ele>110.40000152588</ele>
        <time>2020-02-07T10:30:28Z</time>
      </trkpt>
      <trkpt lat="48.38124" lon="2.67241">
        <ele>111.59999847412</ele>
        <time>2020-02-07T10:30:33Z</time>
      </trkpt>
      <trkpt lat="48.38126" lon="2.67249">
        <ele>112.40000152588</ele>
        <time>2020-02-07T10:30:38Z</time>
      </trkpt>
      <trkpt lat="48.38129" lon="2.67257">
        <ele>113.59999847412</ele>
        <time>2020-02-07T10:30:43Z</time>
      </trkpt>
      <trkpt lat="48.38133" lon="2.67264">
        <ele>115</ele>
        <time>2020-02-07T10:30:48Z</time>
      </trkpt>
      <trkpt lat="48.38136" lon="2.67271">
        <ele>116</ele>
        <time>2020-02-07T10:30:53Z</time>
      </trkpt>
      <trkpt lat="48.38139" lon="2.67278">
        <ele>117.40000152588</ele>
        <time>2020-02-07T10:30:58Z</time>
      </trkpt>
      <trkpt lat="48.38143" lon="2.67286">
        <ele>118.59999847412</ele>
        <time>2020-02-07T10:31:03Z</time>
      </trkpt>
      <trkpt lat="48.38147" lon="2.67293">
        <ele>119.80000305176</ele>
        <time>2020-02-07T10:31:08Z</time>
      </trkpt>
      <trkpt lat="48.38148" lon="2.673">
        <ele>121.19999694824</ele>
        <time>2020-02-07T10:31:13Z</time>
      </trkpt>
      <trkpt lat="48.38151" lon="2.67306">
        <ele>122.59999847412</ele>
        <time>2020-02-07T10:31:18Z</time>
      </trkpt>
      <trkpt lat="48.38155" lon="2.67314">
        <ele>124</ele>
        <time>2020-02-07T10:31:23Z</time>
      </trkpt>
      <trkpt lat="48.3816" lon="2.67324">
        <ele>125.59999847412</ele>
        <time>2020-02-07T10:31:28Z</time>
      </trkpt>
      <trkpt lat="48.38164" lon="2.67332">
        <ele>126.80000305176</ele>
        <time>2020-02-07T10:31:33Z</time>
      </trkpt>
      <trkpt lat="48.38168" lon="2.67341">
        <ele>127.80000305176</ele>
        <time>2020-02-07T10:31:38Z</time>
      </trkpt>
      <trkpt lat="48.3817" lon="2.67348">
        <ele>129.19999694824</ele>
        <time>2020-02-07T10:31:43Z</time>
      </trkpt>
      <trkpt lat="48.38173" lon="2.67355">
        <ele>130</ele>
        <time>2020-02-07T10:31:48Z</time>
      </trkpt>
      <trkpt lat="48.38176" lon="2.67359">
        <ele>131</ele>
        <time>2020-02-07T10:31:53Z</time>
      </trkpt>
      <trkpt lat="48.38179" lon="2.67355">
        <ele>131.19999694824</ele>
        <time>2020-02-07T10:31:58Z</time>
      </trkpt>
      <trkpt lat="48.38185" lon="2.6735">
        <ele>131</ele>
        <time>2020-02-07T10:32:03Z</time>
      </trkpt>
      <trkpt lat="48.3819" lon="2.67344">
        <ele>130.80000305176</ele>
        <time>2020-02-07T10:32:08Z</time>
      </trkpt>
      <trkpt lat="48.38195" lon="2.67338">
        <ele>130.60000610352</ele>
        <time>2020-02-07T10:32:13Z</time>
      </trkpt>
      <trkpt lat="48.382" lon="2.67332">
        <ele>130.60000610352</ele>
        <time>2020-02-07T10:32:18Z</time>
      </trkpt>
      <trkpt lat="48.38204" lon="2.67324">
        <ele>130.60000610352</ele>
        <time>2020-02-07T10:32:23Z</time>
      </trkpt>
      <trkpt lat="48.38209" lon="2.67317">
        <ele>130.39999389648</ele>
        <time>2020-02-07T10:32:28Z</time>
      </trkpt>
      <trkpt lat="48.38214" lon="2.6731">
        <ele>130.39999389648</ele>
        <time>2020-02-07T10:32:33Z</time>
      </trkpt>
      <trkpt lat="48.38218" lon="2.67301">
        <ele>130.19999694824</ele>
        <time>2020-02-07T10:32:38Z</time>
      </trkpt>
      <trkpt lat="48.38223" lon="2.67291">
        <ele>130.39999389648</ele>
        <time>2020-02-07T10:32:43Z</time>
      </trkpt>
      <trkpt lat="48.38228" lon="2.67282">
        <ele>130.19999694824</ele>
        <time>2020-02-07T10:32:48Z</time>
      </trkpt>
      <trkpt lat="48.38231" lon="2.67273">
        <ele>130.19999694824</ele>
        <time>2020-02-07T10:32:53Z</time>
      </trkpt>
      <trkpt lat="48.38235" lon="2.67264">
        <ele>130.19999694824</ele>
        <time>2020-02-07T10:32:58Z</time>
      </trkpt>
      <trkpt lat="48.38239" lon="2.67254">
        <ele>130</ele>
        <time>2020-02-07T10:33:03Z</time>
      </trkpt>
      <trkpt lat="48.38243" lon="2.67243">
        <ele>130</ele>
        <time>2020-02-07T10:33:08Z</time>
      </trkpt>
      <trkpt lat="48.38247" lon="2.67235">
        <ele>130</ele>
        <time>2020-02-07T10:33:13Z</time>
      </trkpt>
      <trkpt lat="48.38253" lon="2.67226">
        <ele>130.19999694824</ele>
        <time>2020-02-07T10:33:18Z</time>
      </trkpt>
      <trkpt lat="48.38258" lon="2.67218">
        <ele>130.19999694824</ele>
        <time>2020-02-07T10:33:23Z</time>
      </trkpt>
      <trkpt lat="48.38265" lon="2.67211">
        <ele>130.39999389648</ele>
        <time>2020-02-07T10:33:28Z</time>
      </trkpt>
      <trkpt lat="48.38271" lon="2.67205">
        <ele>130.19999694824</ele>
        <time>2020-02-07T10:33:33Z</time>
      </trkpt>
      <trkpt lat="48.38278" lon="2.67201">
        <ele>130</ele>
        <time>2020-02-07T10:33:38Z</time>
      </trkpt>
      <trkpt lat="48.38286" lon="2.67198">
        <ele>129.80000305176</ele>
        <time>2020-02-07T10:33:43Z</time>
      </trkpt>
      <trkpt lat="48.38294" lon="2.67198">
        <ele>129.39999389648</ele>
        <time>2020-02-07T10:33:48Z</time>
      </trkpt>
      <trkpt lat="48.38301" lon="2.67196">
        <ele>128.80000305176</ele>
        <time>2020-02-07T10:33:53Z</time>
      </trkpt>
      <trkpt lat="48.38309" lon="2.67192">
        <ele>128.60000610352</ele>
        <time>2020-02-07T10:33:58Z</time>
      </trkpt>
      <trkpt lat="48.38317" lon="2.67189">
        <ele>128</ele>
        <time>2020-02-07T10:34:03Z</time>
      </trkpt>
      <trkpt lat="48.38325" lon="2.67188">
        <ele>127.80000305176</ele>
        <time>2020-02-07T10:34:08Z</time>
      </trkpt>
      <trkpt lat="48.38332" lon="2.67186">
        <ele>127.59999847412</ele>
        <time>2020-02-07T10:34:13Z</time>
      </trkpt>
      <trkpt lat="48.38338" lon="2.67185">
        <ele>127.59999847412</ele>
        <time>2020-02-07T10:34:18Z</time>
      </trkpt>
      <trkpt lat="48.38341" lon="2.6718">
        <ele>127.40000152588</ele>
        <time>2020-02-07T10:34:23Z</time>
      </trkpt>
      <trkpt lat="48.38346" lon="2.67183">
        <ele>127</ele>
        <time>2020-02-07T10:34:28Z</time>
      </trkpt>
      <trkpt lat="48.38352" lon="2.67186">
        <ele>127.19999694824</ele>
        <time>2020-02-07T10:34:33Z</time>
      </trkpt>
      <trkpt lat="48.38358" lon="2.67184">
        <ele>127.19999694824</ele>
        <time>2020-02-07T10:34:38Z</time>
      </trkpt>
      <trkpt lat="48.38365" lon="2.67185">
        <ele>127.19999694824</ele>
        <time>2020-02-07T10:34:43Z</time>
      </trkpt>
      <trkpt lat="48.38372" lon="2.6719">
        <ele>127</ele>
        <time>2020-02-07T10:34:48Z</time>
      </trkpt>
      <trkpt lat="48.3838" lon="2.67196">
        <ele>127</ele>
        <time>2020-02-07T10:34:53Z</time>
      </trkpt>
      <trkpt lat="48.38387" lon="2.67202">
        <ele>127</ele>
        <time>2020-02-07T10:34:58Z</time>
      </trkpt>
      <trkpt lat="48.38394" lon="2.67208">
        <ele>126.80000305176</ele>
        <time>2020-02-07T10:35:03Z</time>
      </trkpt>
      <trkpt lat="48.38401" lon="2.67214">
        <ele>126.40000152588</ele>
        <time>2020-02-07T10:35:08Z</time>
      </trkpt>
      <trkpt lat="48.38409" lon="2.67222">
        <ele>126.19999694824</ele>
        <time>2020-02-07T10:35:13Z</time>
      </trkpt>
      <trkpt lat="48.38415" lon="2.6723">
        <ele>126</ele>
        <time>2020-02-07T10:35:18Z</time>
      </trkpt>
      <trkpt lat="48.38419" lon="2.67238">
        <ele>125.59999847412</ele>
        <time>2020-02-07T10:35:23Z</time>
      </trkpt>
      <trkpt lat="48.38424" lon="2.67246">
        <ele>125.59999847412</ele>
        <time>2020-02-07T10:35:28Z</time>
      </trkpt>
      <trkpt lat="48.38428" lon="2.67254">
        <ele>124.80000305176</ele>
        <time>2020-02-07T10:35:33Z</time>
      </trkpt>
      <trkpt lat="48.38431" lon="2.67265">
        <ele>124.19999694824</ele>
        <time>2020-02-07T10:35:38Z</time>
      </trkpt>
      <trkpt lat="48.38433" lon="2.67278">
        <ele>123.80000305176</ele>
        <time>2020-02-07T10:35:43Z</time>
      </trkpt>
      <trkpt lat="48.38435" lon="2.6729">
        <ele>123.59999847412</ele>
        <time>2020-02-07T10:35:48Z</time>
      </trkpt>
      <trkpt lat="48.38437" lon="2.673">
        <ele>123.59999847412</ele>
        <time>2020-02-07T10:35:53Z</time>
      </trkpt>
      <trkpt lat="48.38439" lon="2.67312">
        <ele>123.59999847412</ele>
        <time>2020-02-07T10:35:58Z</time>
      </trkpt>
      <trkpt lat="48.38439" lon="2.67326">
        <ele>123.59999847412</ele>
        <time>2020-02-07T10:36:03Z</time>
      </trkpt>
      <trkpt lat="48.38438" lon="2.67339">
        <ele>123.59999847412</ele>
        <time>2020-02-07T10:36:08Z</time>
      </trkpt>
      <trkpt lat="48.38438" lon="2.6735">
        <ele>123.59999847412</ele>
        <time>2020-02-07T10:36:13Z</time>
      </trkpt>
      <trkpt lat="48.38437" lon="2.67362">
        <ele>123.40000152588</ele>
        <time>2020-02-07T10:36:18Z</time>
      </trkpt>
      <trkpt lat="48.38436" lon="2.67372">
        <ele>123</ele>
        <time>2020-02-07T10:36:23Z</time>
      </trkpt>
      <trkpt lat="48.38435" lon="2.67382">
        <ele>122.40000152588</ele>
        <time>2020-02-07T10:36:28Z</time>
      </trkpt>
      <trkpt lat="48.38437" lon="2.67394">
        <ele>121.59999847412</ele>
        <time>2020-02-07T10:36:33Z</time>
      </trkpt>
      <trkpt lat="48.38437" lon="2.67405">
        <ele>120.80000305176</ele>
        <time>2020-02-07T10:36:38Z</time>
      </trkpt>
      <trkpt lat="48.38437" lon="2.67416">
        <ele>120.19999694824</ele>
        <time>2020-02-07T10:36:43Z</time>
      </trkpt>
      <trkpt lat="48.3844" lon="2.67428">
        <ele>119.59999847412</ele>
        <time>2020-02-07T10:36:48Z</time>
      </trkpt>
      <trkpt lat="48.38443" lon="2.67439">
        <ele>119.19999694824</ele>
        <time>2020-02-07T10:36:53Z</time>
      </trkpt>
      <trkpt lat="48.38448" lon="2.67445">
        <ele>118.59999847412</ele>
        <time>2020-02-07T10:36:58Z</time>
      </trkpt>
      <trkpt lat="48.38454" lon="2.67446">
        <ele>117.40000152588</ele>
        <time>2020-02-07T10:37:03Z</time>
      </trkpt>
      <trkpt lat="48.3846" lon="2.67446">
        <ele>115.80000305176</ele>
        <time>2020-02-07T10:37:08Z</time>
      </trkpt>
      <trkpt lat="48.38468" lon="2.67447">
        <ele>114.59999847412</ele>
        <time>2020-02-07T10:37:13Z</time>
      </trkpt>
      <trkpt lat="48.38475" lon="2.67448">
        <ele>113.40000152588</ele>
        <time>2020-02-07T10:37:18Z</time>
      </trkpt>
      <trkpt lat="48.38481" lon="2.67449">
        <ele>112.19999694824</ele>
        <time>2020-02-07T10:37:23Z</time>
      </trkpt>
      <trkpt lat="48.3849" lon="2.67449">
        <ele>111.19999694824</ele>
        <time>2020-02-07T10:37:28Z</time>
      </trkpt>
      <trkpt lat="48.38499" lon="2.67448">
        <ele>110.40000152588</ele>
        <time>2020-02-07T10:37:33Z</time>
      </trkpt>
      <trkpt lat="48.38507" lon="2.67449">
        <ele>109.59999847412</ele>
        <time>2020-02-07T10:37:38Z</time>
      </trkpt>
      <trkpt lat="48.38515" lon="2.67449">
        <ele>108.59999847412</ele>
        <time>2020-02-07T10:37:43Z</time>
      </trkpt>
      <trkpt lat="48.38523" lon="2.67449">
        <ele>107.59999847412</ele>
        <time>2020-02-07T10:37:48Z</time>
      </trkpt>
      <trkpt lat="48.3853" lon="2.67447">
        <ele>106.80000305176</ele>
        <time>2020-02-07T10:37:53Z</time>
      </trkpt>
      <trkpt lat="48.38538" lon="2.67445">
        <ele>106</ele>
        <time>2020-02-07T10:37:58Z</time>
      </trkpt>
      <trkpt lat="48.38546" lon="2.67447">
        <ele>105.40000152588</ele>
        <time>2020-02-07T10:38:03Z</time>
      </trkpt>
      <trkpt lat="48.38553" lon="2.67451">
        <ele>104.80000305176</ele>
        <time>2020-02-07T10:38:08Z</time>
      </trkpt>
      <trkpt lat="48.38575" lon="2.6746">
        <ele>104</ele>
        <time>2020-02-07T10:42:03Z</time>
      </trkpt>
      <trkpt lat="48.38581" lon="2.67464">
        <ele>104.40000152588</ele>
        <time>2020-02-07T10:42:08Z</time>
      </trkpt>
      <trkpt lat="48.38586" lon="2.67471">
        <ele>104.59999847412</ele>
        <time>2020-02-07T10:42:13Z</time>
      </trkpt>
      <trkpt lat="48.38591" lon="2.67478">
        <ele>104.59999847412</ele>
        <time>2020-02-07T10:42:18Z</time>
      </trkpt>
      <trkpt lat="48.38592" lon="2.67486">
        <ele>105.40000152588</ele>
        <time>2020-02-07T10:42:23Z</time>
      </trkpt>
      <trkpt lat="48.38597" lon="2.67494">
        <ele>106</ele>
        <time>2020-02-07T10:42:28Z</time>
      </trkpt>
      <trkpt lat="48.38601" lon="2.67501">
        <ele>106.80000305176</ele>
        <time>2020-02-07T10:42:33Z</time>
      </trkpt>
      <trkpt lat="48.38607" lon="2.67507">
        <ele>108</ele>
        <time>2020-02-07T10:42:38Z</time>
      </trkpt>
      <trkpt lat="48.3861" lon="2.67514">
        <ele>109</ele>
        <time>2020-02-07T10:42:43Z</time>
      </trkpt>
      <trkpt lat="48.38613" lon="2.67522">
        <ele>109.80000305176</ele>
        <time>2020-02-07T10:42:48Z</time>
      </trkpt>
      <trkpt lat="48.38617" lon="2.6753">
        <ele>110.40000152588</ele>
        <time>2020-02-07T10:42:53Z</time>
      </trkpt>
      <trkpt lat="48.38621" lon="2.67539">
        <ele>111.19999694824</ele>
        <time>2020-02-07T10:42:58Z</time>
      </trkpt>
      <trkpt lat="48.38622" lon="2.67548">
        <ele>112.59999847412</ele>
        <time>2020-02-07T10:43:03Z</time>
      </trkpt>
      <trkpt lat="48.38623" lon="2.67556">
        <ele>113.40000152588</ele>
        <time>2020-02-07T10:43:08Z</time>
      </trkpt>
      <trkpt lat="48.38625" lon="2.67565">
        <ele>114.19999694824</ele>
        <time>2020-02-07T10:43:13Z</time>
      </trkpt>
      <trkpt lat="48.38626" lon="2.67576">
        <ele>115</ele>
        <time>2020-02-07T10:43:18Z</time>
      </trkpt>
      <trkpt lat="48.38626" lon="2.67583">
        <ele>115.80000305176</ele>
        <time>2020-02-07T10:43:23Z</time>
      </trkpt>
      <trkpt lat="48.38627" lon="2.67591">
        <ele>117.40000152588</ele>
        <time>2020-02-07T10:43:28Z</time>
      </trkpt>
      <trkpt lat="48.38628" lon="2.67599">
        <ele>118.19999694824</ele>
        <time>2020-02-07T10:43:33Z</time>
      </trkpt>
      <trkpt lat="48.3863" lon="2.67607">
        <ele>118.80000305176</ele>
        <time>2020-02-07T10:43:38Z</time>
      </trkpt>
      <trkpt lat="48.38632" lon="2.67615">
        <ele>119.80000305176</ele>
        <time>2020-02-07T10:43:43Z</time>
      </trkpt>
      <trkpt lat="48.38635" lon="2.67624">
        <ele>120.59999847412</ele>
        <time>2020-02-07T10:43:48Z</time>
      </trkpt>
      <trkpt lat="48.38639" lon="2.67633">
        <ele>121.40000152588</ele>
        <time>2020-02-07T10:43:53Z</time>
      </trkpt>
      <trkpt lat="48.38643" lon="2.67639">
        <ele>122</ele>
        <time>2020-02-07T10:43:58Z</time>
      </trkpt>
      <trkpt lat="48.38645" lon="2.67646">
        <ele>122.80000305176</ele>
        <time>2020-02-07T10:44:03Z</time>
      </trkpt>
      <trkpt lat="48.38649" lon="2.67657">
        <ele>123</ele>
        <time>2020-02-07T10:44:08Z</time>
      </trkpt>
      <trkpt lat="48.38654" lon="2.67662">
        <ele>123.19999694824</ele>
        <time>2020-02-07T10:44:13Z</time>
      </trkpt>
      <trkpt lat="48.38653" lon="2.67672">
        <ele>123.59999847412</ele>
        <time>2020-02-07T10:44:18Z</time>
      </trkpt>
      <trkpt lat="48.38654" lon="2.6768">
        <ele>124.19999694824</ele>
        <time>2020-02-07T10:44:23Z</time>
      </trkpt>
      <trkpt lat="48.38654" lon="2.6769">
        <ele>124.59999847412</ele>
        <time>2020-02-07T10:44:28Z</time>
      </trkpt>
      <trkpt lat="48.38652" lon="2.67699">
        <ele>125.40000152588</ele>
        <time>2020-02-07T10:44:33Z</time>
      </trkpt>
      <trkpt lat="48.38648" lon="2.67704">
        <ele>126.80000305176</ele>
        <time>2020-02-07T10:44:38Z</time>
      </trkpt>
      <trkpt lat="48.38646" lon="2.67708">
        <ele>128.19999694824</ele>
        <time>2020-02-07T10:44:43Z</time>
      </trkpt>
      <trkpt lat="48.38642" lon="2.6771">
        <ele>129.39999389648</ele>
        <time>2020-02-07T10:44:48Z</time>
      </trkpt>
      <trkpt lat="48.38638" lon="2.67712">
        <ele>130.39999389648</ele>
        <time>2020-02-07T10:44:53Z</time>
      </trkpt>
      <trkpt lat="48.38639" lon="2.67718">
        <ele>131.39999389648</ele>
        <time>2020-02-07T10:44:58Z</time>
      </trkpt>
      <trkpt lat="48.38641" lon="2.6772">
        <ele>133</ele>
        <time>2020-02-07T10:45:03Z</time>
      </trkpt>
      <trkpt lat="48.38643" lon="2.67728">
        <ele>133.60000610352</ele>
        <time>2020-02-07T10:45:08Z</time>
      </trkpt>
      <trkpt lat="48.38643" lon="2.67735">
        <ele>134</ele>
        <time>2020-02-07T10:45:13Z</time>
      </trkpt>
      <trkpt lat="48.3864" lon="2.67741">
        <ele>134.39999389648</ele>
        <time>2020-02-07T10:45:18Z</time>
      </trkpt>
      <trkpt lat="48.3864" lon="2.67749">
        <ele>135</ele>
        <time>2020-02-07T10:45:23Z</time>
      </trkpt>
      <trkpt lat="48.38639" lon="2.67756">
        <ele>135.39999389648</ele>
        <time>2020-02-07T10:45:28Z</time>
      </trkpt>
      <trkpt lat="48.38637" lon="2.6776">
        <ele>135.19999694824</ele>
        <time>2020-02-07T10:45:33Z</time>
      </trkpt>
      <trkpt lat="48.38638" lon="2.6777">
        <ele>134.60000610352</ele>
        <time>2020-02-07T10:45:38Z</time>
      </trkpt>
      <trkpt lat="48.38642" lon="2.67777">
        <ele>135</ele>
        <time>2020-02-07T10:45:43Z</time>
      </trkpt>
      <trkpt lat="48.38646" lon="2.6778">
        <ele>135.80000305176</ele>
        <time>2020-02-07T10:45:48Z</time>
      </trkpt>
      <trkpt lat="48.38649" lon="2.67788">
        <ele>136.60000610352</ele>
        <time>2020-02-07T10:45:53Z</time>
      </trkpt>
      <trkpt lat="48.3865" lon="2.67788">
        <ele>136.19999694824</ele>
        <time>2020-02-07T10:45:58Z</time>
      </trkpt>
      <trkpt lat="48.38652" lon="2.67787">
        <ele>135.39999389648</ele>
        <time>2020-02-07T10:46:03Z</time>
      </trkpt>
      <trkpt lat="48.38652" lon="2.67788">
        <ele>134.60000610352</ele>
        <time>2020-02-07T10:46:08Z</time>
      </trkpt>
      <trkpt lat="48.38654" lon="2.6779">
        <ele>134</ele>
        <time>2020-02-07T10:46:13Z</time>
      </trkpt>
      <trkpt lat="48.38655" lon="2.67797">
        <ele>133.39999389648</ele>
        <time>2020-02-07T10:46:18Z</time>
      </trkpt>
      <trkpt lat="48.38652" lon="2.67803">
        <ele>133.60000610352</ele>
        <time>2020-02-07T10:46:23Z</time>
      </trkpt>
      <trkpt lat="48.3865" lon="2.6781">
        <ele>134.39999389648</ele>
        <time>2020-02-07T10:46:28Z</time>
      </trkpt>
      <trkpt lat="48.3865" lon="2.67815">
        <ele>134.39999389648</ele>
        <time>2020-02-07T10:46:33Z</time>
      </trkpt>
      <trkpt lat="48.38652" lon="2.67821">
        <ele>133.80000305176</ele>
        <time>2020-02-07T10:46:38Z</time>
      </trkpt>
      <trkpt lat="48.38653" lon="2.67827">
        <ele>131.80000305176</ele>
        <time>2020-02-07T10:46:43Z</time>
      </trkpt>
      <trkpt lat="48.38655" lon="2.67833">
        <ele>130.19999694824</ele>
        <time>2020-02-07T10:46:48Z</time>
      </trkpt>
      <trkpt lat="48.38654" lon="2.67836">
        <ele>129.39999389648</ele>
        <time>2020-02-07T10:46:53Z</time>
      </trkpt>
      <trkpt lat="48.38654" lon="2.67842">
        <ele>128.19999694824</ele>
        <time>2020-02-07T10:46:58Z</time>
      </trkpt>
      <trkpt lat="48.38652" lon="2.67849">
        <ele>126.80000305176</ele>
        <time>2020-02-07T10:47:03Z</time>
      </trkpt>
      <trkpt lat="48.38649" lon="2.67853">
        <ele>125.40000152588</ele>
        <time>2020-02-07T10:47:08Z</time>
      </trkpt>
      <trkpt lat="48.38643" lon="2.6786">
        <ele>124.19999694824</ele>
        <time>2020-02-07T10:47:13Z</time>
      </trkpt>
      <trkpt lat="48.38638" lon="2.67868">
        <ele>123.40000152588</ele>
        <time>2020-02-07T10:47:18Z</time>
      </trkpt>
      <trkpt lat="48.38634" lon="2.67876">
        <ele>122.19999694824</ele>
        <time>2020-02-07T10:47:23Z</time>
      </trkpt>
      <trkpt lat="48.38629" lon="2.67881">
        <ele>121.59999847412</ele>
        <time>2020-02-07T10:47:28Z</time>
      </trkpt>
      <trkpt lat="48.38627" lon="2.67885">
        <ele>120.40000152588</ele>
        <time>2020-02-07T10:47:33Z</time>
      </trkpt>
      <trkpt lat="48.38621" lon="2.67891">
        <ele>119.59999847412</ele>
        <time>2020-02-07T10:47:38Z</time>
      </trkpt>
      <trkpt lat="48.38615" lon="2.679">
        <ele>119</ele>
        <time>2020-02-07T10:47:43Z</time>
      </trkpt>
      <trkpt lat="48.38614" lon="2.6791">
        <ele>118.59999847412</ele>
        <time>2020-02-07T10:47:48Z</time>
      </trkpt>
      <trkpt lat="48.38611" lon="2.67918">
        <ele>118.40000152588</ele>
        <time>2020-02-07T10:47:53Z</time>
      </trkpt>
      <trkpt lat="48.38608" lon="2.67927">
        <ele>118.59999847412</ele>
        <time>2020-02-07T10:47:58Z</time>
      </trkpt>
      <trkpt lat="48.38608" lon="2.6794">
        <ele>118.19999694824</ele>
        <time>2020-02-07T10:48:03Z</time>
      </trkpt>
      <trkpt lat="48.38607" lon="2.6795">
        <ele>118.19999694824</ele>
        <time>2020-02-07T10:48:08Z</time>
      </trkpt>
      <trkpt lat="48.38608" lon="2.67956">
        <ele>118.59999847412</ele>
        <time>2020-02-07T10:48:13Z</time>
      </trkpt>
      <trkpt lat="48.38611" lon="2.67962">
        <ele>120</ele>
        <time>2020-02-07T10:48:18Z</time>
      </trkpt>
      <trkpt lat="48.38612" lon="2.6797">
        <ele>120.59999847412</ele>
        <time>2020-02-07T10:48:23Z</time>
      </trkpt>
      <trkpt lat="48.38613" lon="2.67982">
        <ele>120.40000152588</ele>
        <time>2020-02-07T10:48:28Z</time>
      </trkpt>
      <trkpt lat="48.38614" lon="2.67993">
        <ele>120.40000152588</ele>
        <time>2020-02-07T10:48:33Z</time>
      </trkpt>
      <trkpt lat="48.38616" lon="2.68004">
        <ele>120.59999847412</ele>
        <time>2020-02-07T10:48:38Z</time>
      </trkpt>
      <trkpt lat="48.38618" lon="2.68015">
        <ele>120.80000305176</ele>
        <time>2020-02-07T10:48:43Z</time>
      </trkpt>
      <trkpt lat="48.3862" lon="2.68025">
        <ele>120.80000305176</ele>
        <time>2020-02-07T10:48:48Z</time>
      </trkpt>
      <trkpt lat="48.38618" lon="2.68036">
        <ele>120.80000305176</ele>
        <time>2020-02-07T10:48:53Z</time>
      </trkpt>
      <trkpt lat="48.38617" lon="2.68046">
        <ele>120.80000305176</ele>
        <time>2020-02-07T10:48:58Z</time>
      </trkpt>
      <trkpt lat="48.38617" lon="2.68059">
        <ele>120.40000152588</ele>
        <time>2020-02-07T10:49:03Z</time>
      </trkpt>
      <trkpt lat="48.38613" lon="2.68067">
        <ele>119.40000152588</ele>
        <time>2020-02-07T10:49:08Z</time>
      </trkpt>
      <trkpt lat="48.38606" lon="2.68074">
        <ele>119</ele>
        <time>2020-02-07T10:49:13Z</time>
      </trkpt>
      <trkpt lat="48.38601" lon="2.68084">
        <ele>118.19999694824</ele>
        <time>2020-02-07T10:49:18Z</time>
      </trkpt>
      <trkpt lat="48.386" lon="2.68094">
        <ele>117</ele>
        <time>2020-02-07T10:49:23Z</time>
      </trkpt>
      <trkpt lat="48.38598" lon="2.68104">
        <ele>115.59999847412</ele>
        <time>2020-02-07T10:49:28Z</time>
      </trkpt>
      <trkpt lat="48.38596" lon="2.68113">
        <ele>113.59999847412</ele>
        <time>2020-02-07T10:49:33Z</time>
      </trkpt>
      <trkpt lat="48.38597" lon="2.68124">
        <ele>112.80000305176</ele>
        <time>2020-02-07T10:49:38Z</time>
      </trkpt>
      <trkpt lat="48.38598" lon="2.68135">
        <ele>112.19999694824</ele>
        <time>2020-02-07T10:49:43Z</time>
      </trkpt>
      <trkpt lat="48.38603" lon="2.68138">
        <ele>111.59999847412</ele>
        <time>2020-02-07T10:49:48Z</time>
      </trkpt>
      <trkpt lat="48.38608" lon="2.68142">
        <ele>110.19999694824</ele>
        <time>2020-02-07T10:49:53Z</time>
      </trkpt>
      <trkpt lat="48.38614" lon="2.68144">
        <ele>108</ele>
        <time>2020-02-07T10:49:58Z</time>
      </trkpt>
      <trkpt lat="48.38619" lon="2.68148">
        <ele>106.59999847412</ele>
        <time>2020-02-07T10:50:03Z</time>
      </trkpt>
      <trkpt lat="48.38625" lon="2.68155">
        <ele>105.80000305176</ele>
        <time>2020-02-07T10:50:08Z</time>
      </trkpt>
      <trkpt lat="48.38631" lon="2.68161">
        <ele>104.80000305176</ele>
        <time>2020-02-07T10:50:13Z</time>
      </trkpt>
      <trkpt lat="48.38639" lon="2.68164">
        <ele>104.40000152588</ele>
        <time>2020-02-07T10:50:18Z</time>
      </trkpt>
      <trkpt lat="48.38646" lon="2.68168">
        <ele>103.80000305176</ele>
        <time>2020-02-07T10:50:23Z</time>
      </trkpt>
      <trkpt lat="48.38653" lon="2.68174">
        <ele>103</ele>
        <time>2020-02-07T10:50:28Z</time>
      </trkpt>
      <trkpt lat="48.38656" lon="2.68173">
        <ele>102.19999694824</ele>
        <time>2020-02-07T10:50:33Z</time>
      </trkpt>
      <trkpt lat="48.3866" lon="2.68178">
        <ele>101.40000152588</ele>
        <time>2020-02-07T10:50:38Z</time>
      </trkpt>
      <trkpt lat="48.38666" lon="2.68179">
        <ele>99.800003051758</ele>
        <time>2020-02-07T10:50:43Z</time>
      </trkpt>
      <trkpt lat="48.38673" lon="2.68183">
        <ele>98.400001525879</ele>
        <time>2020-02-07T10:50:48Z</time>
      </trkpt>
      <trkpt lat="48.38678" lon="2.68184">
        <ele>97.400001525879</ele>
        <time>2020-02-07T10:50:53Z</time>
      </trkpt>
      <trkpt lat="48.38684" lon="2.68181">
        <ele>96.400001525879</ele>
        <time>2020-02-07T10:50:58Z</time>
      </trkpt>
      <trkpt lat="48.38691" lon="2.68179">
        <ele>95.599998474121</ele>
        <time>2020-02-07T10:51:03Z</time>
      </trkpt>
      <trkpt lat="48.38699" lon="2.6818">
        <ele>94.199996948242</ele>
        <time>2020-02-07T10:51:08Z</time>
      </trkpt>
      <trkpt lat="48.38704" lon="2.68179">
        <ele>93.199996948242</ele>
        <time>2020-02-07T10:51:13Z</time>
      </trkpt>
      <trkpt lat="48.38713" lon="2.68178">
        <ele>92.400001525879</ele>
        <time>2020-02-07T10:51:18Z</time>
      </trkpt>
      <trkpt lat="48.38721" lon="2.68177">
        <ele>91.599998474121</ele>
        <time>2020-02-07T10:51:23Z</time>
      </trkpt>
      <trkpt lat="48.38729" lon="2.68178">
        <ele>91</ele>
        <time>2020-02-07T10:51:28Z</time>
      </trkpt>
      <trkpt lat="48.38736" lon="2.68178">
        <ele>90.400001525879</ele>
        <time>2020-02-07T10:51:33Z</time>
      </trkpt>
      <trkpt lat="48.38745" lon="2.68178">
        <ele>89.800003051758</ele>
        <time>2020-02-07T10:51:38Z</time>
      </trkpt>
      <trkpt lat="48.38752" lon="2.68179">
        <ele>89.599998474121</ele>
        <time>2020-02-07T10:51:43Z</time>
      </trkpt>
      <trkpt lat="48.38761" lon="2.68179">
        <ele>89.199996948242</ele>
        <time>2020-02-07T10:51:48Z</time>
      </trkpt>
      <trkpt lat="48.38769" lon="2.68181">
        <ele>89</ele>
        <time>2020-02-07T10:51:53Z</time>
      </trkpt>
      <trkpt lat="48.38772" lon="2.68183">
        <ele>88.800003051758</ele>
        <time>2020-02-07T10:51:58Z</time>
      </trkpt>
      <trkpt lat="48.38774" lon="2.68181">
        <ele>89</ele>
        <time>2020-02-07T10:52:03Z</time>
      </trkpt>
      <trkpt lat="48.38774" lon="2.68181">
        <ele>89</ele>
        <time>2020-02-07T10:52:08Z</time>
      </trkpt>
      <trkpt lat="48.38774" lon="2.68181">
        <ele>89</ele>
        <time>2020-02-07T10:52:13Z</time>
      </trkpt>
      <trkpt lat="48.38774" lon="2.68181">
        <ele>89</ele>
        <time>2020-02-07T10:52:18Z</time>
      </trkpt>
      <trkpt lat="48.38775" lon="2.68179">
        <ele>89</ele>
        <time>2020-02-07T10:52:23Z</time>
      </trkpt>
      <trkpt lat="48.38775" lon="2.68179">
        <ele>89</ele>
        <time>2020-02-07T10:52:28Z</time>
      </trkpt>
      <trkpt lat="48.38774" lon="2.68179">
        <ele>89</ele>
        <time>2020-02-07T10:52:33Z</time>
      </trkpt>
      <trkpt lat="48.38774" lon="2.68179">
        <ele>89.199996948242</ele>
        <time>2020-02-07T10:52:38Z</time>
      </trkpt>
      <trkpt lat="48.38775" lon="2.68179">
        <ele>89.199996948242</ele>
        <time>2020-02-07T10:52:43Z</time>
      </trkpt>
      <trkpt lat="48.38775" lon="2.6818">
        <ele>89.199996948242</ele>
        <time>2020-02-07T10:52:48Z</time>
      </trkpt>
      <trkpt lat="48.38775" lon="2.68181">
        <ele>89.199996948242</ele>
        <time>2020-02-07T10:52:53Z</time>
      </trkpt>
      <trkpt lat="48.38774" lon="2.68181">
        <ele>89.199996948242</ele>
        <time>2020-02-07T10:52:58Z</time>
      </trkpt>
      <trkpt lat="48.38774" lon="2.68182">
        <ele>89.199996948242</ele>
        <time>2020-02-07T10:53:03Z</time>
      </trkpt>
      <trkpt lat="48.38774" lon="2.68182">
        <ele>89.199996948242</ele>
        <time>2020-02-07T10:53:08Z</time>
      </trkpt>
      <trkpt lat="48.38774" lon="2.68182">
        <ele>89.199996948242</ele>
        <time>2020-02-07T10:53:13Z</time>
      </trkpt>
      <trkpt lat="48.38775" lon="2.68182">
        <ele>89.199996948242</ele>
        <time>2020-02-07T10:53:18Z</time>
      </trkpt>
      <trkpt lat="48.38774" lon="2.68181">
        <ele>89.199996948242</ele>
        <time>2020-02-07T10:53:23Z</time>
      </trkpt>
      <trkpt lat="48.38774" lon="2.68181">
        <ele>89.199996948242</ele>
        <time>2020-02-07T10:53:28Z</time>
      </trkpt>
      <trkpt lat="48.38774" lon="2.6818">
        <ele>89.199996948242</ele>
        <time>2020-02-07T10:53:33Z</time>
      </trkpt>
      <trkpt lat="48.38774" lon="2.6818">
        <ele>89.199996948242</ele>
        <time>2020-02-07T10:53:38Z</time>
      </trkpt>
      <trkpt lat="48.38774" lon="2.6818">
        <ele>89.199996948242</ele>
        <time>2020-02-07T10:53:43Z</time>
      </trkpt>
      <trkpt lat="48.38774" lon="2.6818">
        <ele>89.199996948242</ele>
        <time>2020-02-07T10:53:48Z</time>
      </trkpt>
      <trkpt lat="48.38774" lon="2.6818">
        <ele>89.199996948242</ele>
        <time>2020-02-07T10:53:53Z</time>
      </trkpt>
      <trkpt lat="48.38774" lon="2.68181">
        <ele>89.199996948242</ele>
        <time>2020-02-07T10:53:58Z</time>
      </trkpt>
      <trkpt lat="48.38774" lon="2.68181">
        <ele>89.199996948242</ele>
        <time>2020-02-07T10:54:03Z</time>
      </trkpt>
      <trkpt lat="48.38774" lon="2.68181">
        <ele>89.199996948242</ele>
        <time>2020-02-07T10:54:08Z</time>
      </trkpt>
      <trkpt lat="48.38774" lon="2.68182">
        <ele>89.199996948242</ele>
        <time>2020-02-07T10:54:13Z</time>
      </trkpt>
      <trkpt lat="48.38774" lon="2.68183">
        <ele>89.199996948242</ele>
        <time>2020-02-07T10:54:18Z</time>
      </trkpt>
      <trkpt lat="48.38774" lon="2.68185">
        <ele>89.199996948242</ele>
        <time>2020-02-07T10:54:23Z</time>
      </trkpt>
      <trkpt lat="48.38772" lon="2.68185">
        <ele>89.199996948242</ele>
        <time>2020-02-07T10:54:28Z</time>
      </trkpt>
      <trkpt lat="48.38769" lon="2.68191">
        <ele>89.199996948242</ele>
        <time>2020-02-07T10:54:33Z</time>
      </trkpt>
      <trkpt lat="48.38768" lon="2.68202">
        <ele>89.199996948242</ele>
        <time>2020-02-07T10:54:38Z</time>
      </trkpt>
      <trkpt lat="48.38767" lon="2.68213">
        <ele>89.400001525879</ele>
        <time>2020-02-07T10:54:43Z</time>
      </trkpt>
      <trkpt lat="48.38764" lon="2.68224">
        <ele>89.400001525879</ele>
        <time>2020-02-07T10:54:48Z</time>
      </trkpt>
      <trkpt lat="48.38763" lon="2.68235">
        <ele>89.400001525879</ele>
        <time>2020-02-07T10:54:53Z</time>
      </trkpt>
      <trkpt lat="48.38761" lon="2.68247">
        <ele>89.400001525879</ele>
        <time>2020-02-07T10:54:58Z</time>
      </trkpt>
      <trkpt lat="48.3876" lon="2.6826">
        <ele>89.400001525879</ele>
        <time>2020-02-07T10:55:03Z</time>
      </trkpt>
      <trkpt lat="48.38759" lon="2.68272">
        <ele>89.599998474121</ele>
        <time>2020-02-07T10:55:08Z</time>
      </trkpt>
      <trkpt lat="48.38757" lon="2.68282">
        <ele>89.599998474121</ele>
        <time>2020-02-07T10:55:13Z</time>
      </trkpt>
      <trkpt lat="48.38755" lon="2.68294">
        <ele>89.599998474121</ele>
        <time>2020-02-07T10:55:18Z</time>
      </trkpt>
      <trkpt lat="48.38754" lon="2.68305">
        <ele>89.599998474121</ele>
        <time>2020-02-07T10:55:23Z</time>
      </trkpt>
      <trkpt lat="48.38753" lon="2.68317">
        <ele>89.599998474121</ele>
        <time>2020-02-07T10:55:28Z</time>
      </trkpt>
      <trkpt lat="48.38751" lon="2.68331">
        <ele>89.599998474121</ele>
        <time>2020-02-07T10:55:33Z</time>
      </trkpt>
      <trkpt lat="48.3875" lon="2.68343">
        <ele>89.599998474121</ele>
        <time>2020-02-07T10:55:38Z</time>
      </trkpt>
      <trkpt lat="48.38748" lon="2.68356">
        <ele>89.800003051758</ele>
        <time>2020-02-07T10:55:43Z</time>
      </trkpt>
      <trkpt lat="48.38746" lon="2.68367">
        <ele>89.800003051758</ele>
        <time>2020-02-07T10:55:48Z</time>
      </trkpt>
      <trkpt lat="48.38746" lon="2.68379">
        <ele>90</ele>
        <time>2020-02-07T10:55:53Z</time>
      </trkpt>
      <trkpt lat="48.38742" lon="2.68389">
        <ele>90</ele>
        <time>2020-02-07T10:55:58Z</time>
      </trkpt>
      <trkpt lat="48.3874" lon="2.68401">
        <ele>90.400001525879</ele>
        <time>2020-02-07T10:56:03Z</time>
      </trkpt>
      <trkpt lat="48.38739" lon="2.68412">
        <ele>90.400001525879</ele>
        <time>2020-02-07T10:56:08Z</time>
      </trkpt>
      <trkpt lat="48.38737" lon="2.68426">
        <ele>90.199996948242</ele>
        <time>2020-02-07T10:56:13Z</time>
      </trkpt>
      <trkpt lat="48.38736" lon="2.68438">
        <ele>90</ele>
        <time>2020-02-07T10:56:18Z</time>
      </trkpt>
      <trkpt lat="48.38734" lon="2.68448">
        <ele>89.599998474121</ele>
        <time>2020-02-07T10:56:23Z</time>
      </trkpt>
      <trkpt lat="48.38732" lon="2.6846">
        <ele>89.599998474121</ele>
        <time>2020-02-07T10:56:28Z</time>
      </trkpt>
      <trkpt lat="48.38731" lon="2.68472">
        <ele>89.599998474121</ele>
        <time>2020-02-07T10:56:33Z</time>
      </trkpt>
      <trkpt lat="48.3873" lon="2.68483">
        <ele>89.800003051758</ele>
        <time>2020-02-07T10:56:38Z</time>
      </trkpt>
      <trkpt lat="48.38727" lon="2.68491">
        <ele>90</ele>
        <time>2020-02-07T10:56:43Z</time>
      </trkpt>
      <trkpt lat="48.38719" lon="2.68489">
        <ele>90</ele>
        <time>2020-02-07T10:56:48Z</time>
      </trkpt>
      <trkpt lat="48.38711" lon="2.68489">
        <ele>90</ele>
        <time>2020-02-07T10:56:53Z</time>
      </trkpt>
      <trkpt lat="48.38705" lon="2.68489">
        <ele>90.400001525879</ele>
        <time>2020-02-07T10:56:58Z</time>
      </trkpt>
      <trkpt lat="48.38698" lon="2.68488">
        <ele>90.599998474121</ele>
        <time>2020-02-07T10:57:03Z</time>
      </trkpt>
      <trkpt lat="48.38691" lon="2.68488">
        <ele>90.800003051758</ele>
        <time>2020-02-07T10:57:08Z</time>
      </trkpt>
      <trkpt lat="48.38681" lon="2.68489">
        <ele>91.199996948242</ele>
        <time>2020-02-07T10:57:13Z</time>
      </trkpt>
      <trkpt lat="48.38672" lon="2.6849">
        <ele>91.800003051758</ele>
        <time>2020-02-07T10:57:18Z</time>
      </trkpt>
      <trkpt lat="48.38665" lon="2.68491">
        <ele>91.800003051758</ele>
        <time>2020-02-07T10:57:23Z</time>
      </trkpt>
      <trkpt lat="48.38658" lon="2.68491">
        <ele>92.199996948242</ele>
        <time>2020-02-07T10:57:28Z</time>
      </trkpt>
      <trkpt lat="48.3865" lon="2.6849">
        <ele>92.599998474121</ele>
        <time>2020-02-07T10:57:33Z</time>
      </trkpt>
      <trkpt lat="48.38642" lon="2.6849">
        <ele>92.800003051758</ele>
        <time>2020-02-07T10:57:38Z</time>
      </trkpt>
      <trkpt lat="48.38635" lon="2.68493">
        <ele>93</ele>
        <time>2020-02-07T10:57:43Z</time>
      </trkpt>
      <trkpt lat="48.38628" lon="2.68494">
        <ele>93.199996948242</ele>
        <time>2020-02-07T10:57:48Z</time>
      </trkpt>
      <trkpt lat="48.38621" lon="2.68495">
        <ele>93.400001525879</ele>
        <time>2020-02-07T10:57:53Z</time>
      </trkpt>
      <trkpt lat="48.38613" lon="2.68494">
        <ele>93.599998474121</ele>
        <time>2020-02-07T10:57:58Z</time>
      </trkpt>
      <trkpt lat="48.38607" lon="2.68495">
        <ele>93.599998474121</ele>
        <time>2020-02-07T10:58:03Z</time>
      </trkpt>
      <trkpt lat="48.38598" lon="2.68497">
        <ele>93.800003051758</ele>
        <time>2020-02-07T10:58:08Z</time>
      </trkpt>
      <trkpt lat="48.38591" lon="2.68497">
        <ele>93.599998474121</ele>
        <time>2020-02-07T10:58:13Z</time>
      </trkpt>
      <trkpt lat="48.38582" lon="2.68499">
        <ele>93.199996948242</ele>
        <time>2020-02-07T10:58:18Z</time>
      </trkpt>
      <trkpt lat="48.38575" lon="2.68501">
        <ele>92.800003051758</ele>
        <time>2020-02-07T10:58:23Z</time>
      </trkpt>
      <trkpt lat="48.38566" lon="2.68505">
        <ele>92.400001525879</ele>
        <time>2020-02-07T10:58:28Z</time>
      </trkpt>
      <trkpt lat="48.38559" lon="2.68506">
        <ele>92.199996948242</ele>
        <time>2020-02-07T10:58:33Z</time>
      </trkpt>
      <trkpt lat="48.3855" lon="2.68507">
        <ele>92</ele>
        <time>2020-02-07T10:58:38Z</time>
      </trkpt>
      <trkpt lat="48.38543" lon="2.68507">
        <ele>92</ele>
        <time>2020-02-07T10:58:43Z</time>
      </trkpt>
      <trkpt lat="48.38533" lon="2.68507">
        <ele>91.800003051758</ele>
        <time>2020-02-07T10:58:48Z</time>
      </trkpt>
      <trkpt lat="48.38527" lon="2.68509">
        <ele>91.800003051758</ele>
        <time>2020-02-07T10:58:53Z</time>
      </trkpt>
      <trkpt lat="48.38517" lon="2.68509">
        <ele>91.599998474121</ele>
        <time>2020-02-07T10:58:58Z</time>
      </trkpt>
      <trkpt lat="48.3851" lon="2.6851">
        <ele>91.599998474121</ele>
        <time>2020-02-07T10:59:03Z</time>
      </trkpt>
      <trkpt lat="48.385" lon="2.6851">
        <ele>91.599998474121</ele>
        <time>2020-02-07T10:59:08Z</time>
      </trkpt>
      <trkpt lat="48.38493" lon="2.6851">
        <ele>91.599998474121</ele>
        <time>2020-02-07T10:59:13Z</time>
      </trkpt>
      <trkpt lat="48.38485" lon="2.68511">
        <ele>91.599998474121</ele>
        <time>2020-02-07T10:59:18Z</time>
      </trkpt>
      <trkpt lat="48.38478" lon="2.68512">
        <ele>91.599998474121</ele>
        <time>2020-02-07T10:59:23Z</time>
      </trkpt>
      <trkpt lat="48.38469" lon="2.68514">
        <ele>91.800003051758</ele>
        <time>2020-02-07T10:59:28Z</time>
      </trkpt>
      <trkpt lat="48.38462" lon="2.68514">
        <ele>91.599998474121</ele>
        <time>2020-02-07T10:59:33Z</time>
      </trkpt>
      <trkpt lat="48.38455" lon="2.68513">
        <ele>91.800003051758</ele>
        <time>2020-02-07T10:59:38Z</time>
      </trkpt>
      <trkpt lat="48.38446" lon="2.68514">
        <ele>91.800003051758</ele>
        <time>2020-02-07T10:59:43Z</time>
      </trkpt>
      <trkpt lat="48.38438" lon="2.68515">
        <ele>91.599998474121</ele>
        <time>2020-02-07T10:59:48Z</time>
      </trkpt>
      <trkpt lat="48.38429" lon="2.68517">
        <ele>91.599998474121</ele>
        <time>2020-02-07T10:59:53Z</time>
      </trkpt>
      <trkpt lat="48.38421" lon="2.68517">
        <ele>91.800003051758</ele>
        <time>2020-02-07T10:59:58Z</time>
      </trkpt>
      <trkpt lat="48.38412" lon="2.68517">
        <ele>91.800003051758</ele>
        <time>2020-02-07T11:00:03Z</time>
      </trkpt>
      <trkpt lat="48.38405" lon="2.68519">
        <ele>91.800003051758</ele>
        <time>2020-02-07T11:00:08Z</time>
      </trkpt>
      <trkpt lat="48.38396" lon="2.6852">
        <ele>91.800003051758</ele>
        <time>2020-02-07T11:00:13Z</time>
      </trkpt>
      <trkpt lat="48.38389" lon="2.68519">
        <ele>91.599998474121</ele>
        <time>2020-02-07T11:00:18Z</time>
      </trkpt>
      <trkpt lat="48.38381" lon="2.68522">
        <ele>91.800003051758</ele>
        <time>2020-02-07T11:00:23Z</time>
      </trkpt>
      <trkpt lat="48.38371" lon="2.68523">
        <ele>91.800003051758</ele>
        <time>2020-02-07T11:00:28Z</time>
      </trkpt>
      <trkpt lat="48.38364" lon="2.68523">
        <ele>91.800003051758</ele>
        <time>2020-02-07T11:00:33Z</time>
      </trkpt>
      <trkpt lat="48.38355" lon="2.68523">
        <ele>91.599998474121</ele>
        <time>2020-02-07T11:00:38Z</time>
      </trkpt>
      <trkpt lat="48.38348" lon="2.68525">
        <ele>91.599998474121</ele>
        <time>2020-02-07T11:00:43Z</time>
      </trkpt>
      <trkpt lat="48.38338" lon="2.68526">
        <ele>91.800003051758</ele>
        <time>2020-02-07T11:00:48Z</time>
      </trkpt>
      <trkpt lat="48.38331" lon="2.68527">
        <ele>91.800003051758</ele>
        <time>2020-02-07T11:00:53Z</time>
      </trkpt>
      <trkpt lat="48.38322" lon="2.68528">
        <ele>92</ele>
        <time>2020-02-07T11:00:58Z</time>
      </trkpt>
      <trkpt lat="48.38315" lon="2.6853">
        <ele>92</ele>
        <time>2020-02-07T11:01:03Z</time>
      </trkpt>
      <trkpt lat="48.38309" lon="2.6853">
        <ele>92</ele>
        <time>2020-02-07T11:01:08Z</time>
      </trkpt>
      <trkpt lat="48.38302" lon="2.68529">
        <ele>92.199996948242</ele>
        <time>2020-02-07T11:01:13Z</time>
      </trkpt>
      <trkpt lat="48.38293" lon="2.68527">
        <ele>92.199996948242</ele>
        <time>2020-02-07T11:01:18Z</time>
      </trkpt>
      <trkpt lat="48.38285" lon="2.68525">
        <ele>92.199996948242</ele>
        <time>2020-02-07T11:01:23Z</time>
      </trkpt>
      <trkpt lat="48.38278" lon="2.68523">
        <ele>92.199996948242</ele>
        <time>2020-02-07T11:01:28Z</time>
      </trkpt>
      <trkpt lat="48.38271" lon="2.68518">
        <ele>92.400001525879</ele>
        <time>2020-02-07T11:01:33Z</time>
      </trkpt>
      <trkpt lat="48.38264" lon="2.68514">
        <ele>92.400001525879</ele>
        <time>2020-02-07T11:01:38Z</time>
      </trkpt>
      <trkpt lat="48.38258" lon="2.6851">
        <ele>92.599998474121</ele>
        <time>2020-02-07T11:01:43Z</time>
      </trkpt>
      <trkpt lat="48.38252" lon="2.68505">
        <ele>92.599998474121</ele>
        <time>2020-02-07T11:01:48Z</time>
      </trkpt>
      <trkpt lat="48.38245" lon="2.68501">
        <ele>92.800003051758</ele>
        <time>2020-02-07T11:01:53Z</time>
      </trkpt>
      <trkpt lat="48.38239" lon="2.68493">
        <ele>92.800003051758</ele>
        <time>2020-02-07T11:01:58Z</time>
      </trkpt>
      <trkpt lat="48.38232" lon="2.68488">
        <ele>92.800003051758</ele>
        <time>2020-02-07T11:02:03Z</time>
      </trkpt>
      <trkpt lat="48.38224" lon="2.68482">
        <ele>92.599998474121</ele>
        <time>2020-02-07T11:02:08Z</time>
      </trkpt>
      <trkpt lat="48.38218" lon="2.68477">
        <ele>92.800003051758</ele>
        <time>2020-02-07T11:02:13Z</time>
      </trkpt>
      <trkpt lat="48.38212" lon="2.68472">
        <ele>92.800003051758</ele>
        <time>2020-02-07T11:02:18Z</time>
      </trkpt>
      <trkpt lat="48.38206" lon="2.68468">
        <ele>92.800003051758</ele>
        <time>2020-02-07T11:02:23Z</time>
      </trkpt>
      <trkpt lat="48.382" lon="2.68463">
        <ele>93</ele>
        <time>2020-02-07T11:02:28Z</time>
      </trkpt>
      <trkpt lat="48.38193" lon="2.68454">
        <ele>92.800003051758</ele>
        <time>2020-02-07T11:02:33Z</time>
      </trkpt>
      <trkpt lat="48.38186" lon="2.68447">
        <ele>93</ele>
        <time>2020-02-07T11:02:38Z</time>
      </trkpt>
      <trkpt lat="48.3818" lon="2.68445">
        <ele>93</ele>
        <time>2020-02-07T11:02:43Z</time>
      </trkpt>
      <trkpt lat="48.38173" lon="2.6844">
        <ele>93.199996948242</ele>
        <time>2020-02-07T11:02:48Z</time>
      </trkpt>
      <trkpt lat="48.38167" lon="2.68435">
        <ele>93.199996948242</ele>
        <time>2020-02-07T11:02:53Z</time>
      </trkpt>
      <trkpt lat="48.38161" lon="2.68429">
        <ele>93.199996948242</ele>
        <time>2020-02-07T11:02:58Z</time>
      </trkpt>
      <trkpt lat="48.38154" lon="2.68422">
        <ele>93.400001525879</ele>
        <time>2020-02-07T11:03:03Z</time>
      </trkpt>
      <trkpt lat="48.38145" lon="2.68416">
        <ele>93.400001525879</ele>
        <time>2020-02-07T11:03:08Z</time>
      </trkpt>
      <trkpt lat="48.38138" lon="2.68413">
        <ele>93.599998474121</ele>
        <time>2020-02-07T11:03:13Z</time>
      </trkpt>
      <trkpt lat="48.38132" lon="2.68408">
        <ele>93.800003051758</ele>
        <time>2020-02-07T11:03:18Z</time>
      </trkpt>
      <trkpt lat="48.38127" lon="2.68403">
        <ele>93.800003051758</ele>
        <time>2020-02-07T11:03:23Z</time>
      </trkpt>
      <trkpt lat="48.3812" lon="2.68398">
        <ele>94</ele>
        <time>2020-02-07T11:03:28Z</time>
      </trkpt>
      <trkpt lat="48.38113" lon="2.68391">
        <ele>94</ele>
        <time>2020-02-07T11:03:33Z</time>
      </trkpt>
      <trkpt lat="48.38105" lon="2.68386">
        <ele>94</ele>
        <time>2020-02-07T11:03:38Z</time>
      </trkpt>
      <trkpt lat="48.38098" lon="2.6838">
        <ele>94.199996948242</ele>
        <time>2020-02-07T11:03:43Z</time>
      </trkpt>
      <trkpt lat="48.38092" lon="2.68376">
        <ele>94.199996948242</ele>
        <time>2020-02-07T11:03:48Z</time>
      </trkpt>
      <trkpt lat="48.38086" lon="2.68371">
        <ele>94.400001525879</ele>
        <time>2020-02-07T11:03:53Z</time>
      </trkpt>
      <trkpt lat="48.38079" lon="2.68365">
        <ele>94.599998474121</ele>
        <time>2020-02-07T11:03:58Z</time>
      </trkpt>
      <trkpt lat="48.38071" lon="2.68358">
        <ele>94.599998474121</ele>
        <time>2020-02-07T11:04:03Z</time>
      </trkpt>
      <trkpt lat="48.38064" lon="2.68354">
        <ele>94.800003051758</ele>
        <time>2020-02-07T11:04:08Z</time>
      </trkpt>
      <trkpt lat="48.38057" lon="2.6835">
        <ele>94.800003051758</ele>
        <time>2020-02-07T11:04:13Z</time>
      </trkpt>
      <trkpt lat="48.38051" lon="2.68345">
        <ele>95</ele>
        <time>2020-02-07T11:04:18Z</time>
      </trkpt>
      <trkpt lat="48.38044" lon="2.68337">
        <ele>95</ele>
        <time>2020-02-07T11:04:23Z</time>
      </trkpt>
      <trkpt lat="48.3804" lon="2.68333">
        <ele>95</ele>
        <time>2020-02-07T11:04:28Z</time>
      </trkpt>
      <trkpt lat="48.38034" lon="2.6833">
        <ele>95</ele>
        <time>2020-02-07T11:04:33Z</time>
      </trkpt>
      <trkpt lat="48.38027" lon="2.68326">
        <ele>95.199996948242</ele>
        <time>2020-02-07T11:04:38Z</time>
      </trkpt>
      <trkpt lat="48.38021" lon="2.68322">
        <ele>95.199996948242</ele>
        <time>2020-02-07T11:04:43Z</time>
      </trkpt>
      <trkpt lat="48.38014" lon="2.68316">
        <ele>95.400001525879</ele>
        <time>2020-02-07T11:04:48Z</time>
      </trkpt>
      <trkpt lat="48.38005" lon="2.6831">
        <ele>95.400001525879</ele>
        <time>2020-02-07T11:04:53Z</time>
      </trkpt>
      <trkpt lat="48.37998" lon="2.68306">
        <ele>95.599998474121</ele>
        <time>2020-02-07T11:04:58Z</time>
      </trkpt>
      <trkpt lat="48.37993" lon="2.68301">
        <ele>95.800003051758</ele>
        <time>2020-02-07T11:05:03Z</time>
      </trkpt>
      <trkpt lat="48.37987" lon="2.68295">
        <ele>95.800003051758</ele>
        <time>2020-02-07T11:05:08Z</time>
      </trkpt>
      <trkpt lat="48.37981" lon="2.68288">
        <ele>95.800003051758</ele>
        <time>2020-02-07T11:05:13Z</time>
      </trkpt>
      <trkpt lat="48.37973" lon="2.68283">
        <ele>96</ele>
        <time>2020-02-07T11:05:18Z</time>
      </trkpt>
      <trkpt lat="48.37965" lon="2.68278">
        <ele>96.199996948242</ele>
        <time>2020-02-07T11:05:23Z</time>
      </trkpt>
      <trkpt lat="48.37959" lon="2.68273">
        <ele>96.199996948242</ele>
        <time>2020-02-07T11:05:28Z</time>
      </trkpt>
      <trkpt lat="48.37951" lon="2.68267">
        <ele>96.400001525879</ele>
        <time>2020-02-07T11:05:33Z</time>
      </trkpt>
      <trkpt lat="48.37944" lon="2.68258">
        <ele>96.400001525879</ele>
        <time>2020-02-07T11:05:38Z</time>
      </trkpt>
      <trkpt lat="48.37937" lon="2.68255">
        <ele>96.599998474121</ele>
        <time>2020-02-07T11:05:43Z</time>
      </trkpt>
      <trkpt lat="48.37931" lon="2.68249">
        <ele>96.599998474121</ele>
        <time>2020-02-07T11:05:48Z</time>
      </trkpt>
      <trkpt lat="48.37926" lon="2.68243">
        <ele>96.599998474121</ele>
        <time>2020-02-07T11:05:53Z</time>
      </trkpt>
      <trkpt lat="48.3792" lon="2.68238">
        <ele>96.800003051758</ele>
        <time>2020-02-07T11:05:58Z</time>
      </trkpt>
      <trkpt lat="48.37914" lon="2.6823">
        <ele>96.800003051758</ele>
        <time>2020-02-07T11:06:03Z</time>
      </trkpt>
      <trkpt lat="48.37907" lon="2.68223">
        <ele>97</ele>
        <time>2020-02-07T11:06:08Z</time>
      </trkpt>
      <trkpt lat="48.37899" lon="2.6822">
        <ele>97.199996948242</ele>
        <time>2020-02-07T11:06:13Z</time>
      </trkpt>
      <trkpt lat="48.37894" lon="2.68215">
        <ele>97.400001525879</ele>
        <time>2020-02-07T11:06:18Z</time>
      </trkpt>
      <trkpt lat="48.37888" lon="2.68207">
        <ele>97.400001525879</ele>
        <time>2020-02-07T11:06:23Z</time>
      </trkpt>
      <trkpt lat="48.37883" lon="2.68198">
        <ele>97.599998474121</ele>
        <time>2020-02-07T11:06:28Z</time>
      </trkpt>
      <trkpt lat="48.37881" lon="2.6819">
        <ele>98</ele>
        <time>2020-02-07T11:06:33Z</time>
      </trkpt>
      <trkpt lat="48.37878" lon="2.68182">
        <ele>98.199996948242</ele>
        <time>2020-02-07T11:06:38Z</time>
      </trkpt>
      <trkpt lat="48.37877" lon="2.68174">
        <ele>98</ele>
        <time>2020-02-07T11:06:43Z</time>
      </trkpt>
      <trkpt lat="48.37875" lon="2.68164">
        <ele>98</ele>
        <time>2020-02-07T11:06:48Z</time>
      </trkpt>
      <trkpt lat="48.37872" lon="2.68157">
        <ele>98.599998474121</ele>
        <time>2020-02-07T11:06:53Z</time>
      </trkpt>
      <trkpt lat="48.37869" lon="2.68147">
        <ele>99</ele>
        <time>2020-02-07T11:06:58Z</time>
      </trkpt>
      <trkpt lat="48.37867" lon="2.68137">
        <ele>99</ele>
        <time>2020-02-07T11:07:03Z</time>
      </trkpt>
      <trkpt lat="48.37863" lon="2.68128">
        <ele>99.199996948242</ele>
        <time>2020-02-07T11:07:08Z</time>
      </trkpt>
      <trkpt lat="48.37861" lon="2.68116">
        <ele>99.400001525879</ele>
        <time>2020-02-07T11:07:13Z</time>
      </trkpt>
      <trkpt lat="48.3786" lon="2.68106">
        <ele>99.800003051758</ele>
        <time>2020-02-07T11:07:18Z</time>
      </trkpt>
      <trkpt lat="48.37864" lon="2.68098">
        <ele>100.19999694824</ele>
        <time>2020-02-07T11:07:23Z</time>
      </trkpt>
      <trkpt lat="48.37863" lon="2.6809">
        <ele>100.59999847412</ele>
        <time>2020-02-07T11:07:28Z</time>
      </trkpt>
      <trkpt lat="48.37859" lon="2.68079">
        <ele>101.19999694824</ele>
        <time>2020-02-07T11:07:33Z</time>
      </trkpt>
      <trkpt lat="48.37859" lon="2.68072">
        <ele>101.80000305176</ele>
        <time>2020-02-07T11:07:38Z</time>
      </trkpt>
      <trkpt lat="48.37858" lon="2.6806">
        <ele>102.59999847412</ele>
        <time>2020-02-07T11:07:43Z</time>
      </trkpt>
      <trkpt lat="48.37855" lon="2.68052">
        <ele>103.19999694824</ele>
        <time>2020-02-07T11:07:48Z</time>
      </trkpt>
      <trkpt lat="48.37854" lon="2.68043">
        <ele>103.80000305176</ele>
        <time>2020-02-07T11:07:53Z</time>
      </trkpt>
      <trkpt lat="48.37851" lon="2.68035">
        <ele>104.80000305176</ele>
        <time>2020-02-07T11:07:58Z</time>
      </trkpt>
      <trkpt lat="48.37848" lon="2.68026">
        <ele>105.40000152588</ele>
        <time>2020-02-07T11:08:03Z</time>
      </trkpt>
      <trkpt lat="48.37843" lon="2.6802">
        <ele>106.40000152588</ele>
        <time>2020-02-07T11:08:08Z</time>
      </trkpt>
      <trkpt lat="48.37841" lon="2.68014">
        <ele>107.59999847412</ele>
        <time>2020-02-07T11:08:13Z</time>
      </trkpt>
      <trkpt lat="48.37838" lon="2.68006">
        <ele>108.80000305176</ele>
        <time>2020-02-07T11:08:18Z</time>
      </trkpt>
      <trkpt lat="48.37834" lon="2.67996">
        <ele>110</ele>
        <time>2020-02-07T11:08:23Z</time>
      </trkpt>
      <trkpt lat="48.37831" lon="2.6799">
        <ele>111.19999694824</ele>
        <time>2020-02-07T11:08:28Z</time>
      </trkpt>
      <trkpt lat="48.37827" lon="2.67989">
        <ele>112.40000152588</ele>
        <time>2020-02-07T11:08:33Z</time>
      </trkpt>
      <trkpt lat="48.37821" lon="2.67989">
        <ele>113.40000152588</ele>
        <time>2020-02-07T11:08:38Z</time>
      </trkpt>
      <trkpt lat="48.37815" lon="2.67989">
        <ele>114</ele>
        <time>2020-02-07T11:08:43Z</time>
      </trkpt>
      <trkpt lat="48.37811" lon="2.67985">
        <ele>114.80000305176</ele>
        <time>2020-02-07T11:08:48Z</time>
      </trkpt>
      <trkpt lat="48.37807" lon="2.67985">
        <ele>116.19999694824</ele>
        <time>2020-02-07T11:08:53Z</time>
      </trkpt>
      <trkpt lat="48.37802" lon="2.67988">
        <ele>117.40000152588</ele>
        <time>2020-02-07T11:08:58Z</time>
      </trkpt>
      <trkpt lat="48.37798" lon="2.67989">
        <ele>118.40000152588</ele>
        <time>2020-02-07T11:09:03Z</time>
      </trkpt>
      <trkpt lat="48.37797" lon="2.67989">
        <ele>119.59999847412</ele>
        <time>2020-02-07T11:09:08Z</time>
      </trkpt>
      <trkpt lat="48.37797" lon="2.67988">
        <ele>119.80000305176</ele>
        <time>2020-02-07T11:09:13Z</time>
      </trkpt>
      <trkpt lat="48.37796" lon="2.67988">
        <ele>120</ele>
        <time>2020-02-07T11:09:18Z</time>
      </trkpt>
      <trkpt lat="48.37798" lon="2.67982">
        <ele>120.19999694824</ele>
        <time>2020-02-07T11:09:23Z</time>
      </trkpt>
      <trkpt lat="48.37798" lon="2.67976">
        <ele>120.80000305176</ele>
        <time>2020-02-07T11:09:28Z</time>
      </trkpt>
      <trkpt lat="48.37799" lon="2.67969">
        <ele>121.19999694824</ele>
        <time>2020-02-07T11:09:33Z</time>
      </trkpt>
      <trkpt lat="48.378" lon="2.67963">
        <ele>122.19999694824</ele>
        <time>2020-02-07T11:09:38Z</time>
      </trkpt>
      <trkpt lat="48.37801" lon="2.6796">
        <ele>123.19999694824</ele>
        <time>2020-02-07T11:09:43Z</time>
      </trkpt>
      <trkpt lat="48.37806" lon="2.67958">
        <ele>123.40000152588</ele>
        <time>2020-02-07T11:09:48Z</time>
      </trkpt>
      <trkpt lat="48.3781" lon="2.67952">
        <ele>123.59999847412</ele>
        <time>2020-02-07T11:09:53Z</time>
      </trkpt>
      <trkpt lat="48.37813" lon="2.67948">
        <ele>124.59999847412</ele>
        <time>2020-02-07T11:09:58Z</time>
      </trkpt>
      <trkpt lat="48.37814" lon="2.67941">
        <ele>126.40000152588</ele>
        <time>2020-02-07T11:11:38Z</time>
      </trkpt>
      <trkpt lat="48.37811" lon="2.67939">
        <ele>127</ele>
        <time>2020-02-07T11:11:43Z</time>
      </trkpt>
      <trkpt lat="48.37809" lon="2.67938">
        <ele>128.19999694824</ele>
        <time>2020-02-07T11:11:48Z</time>
      </trkpt>
      <trkpt lat="48.37811" lon="2.67937">
        <ele>128.80000305176</ele>
        <time>2020-02-07T11:11:53Z</time>
      </trkpt>
      <trkpt lat="48.37812" lon="2.67933">
        <ele>128.80000305176</ele>
        <time>2020-02-07T11:11:58Z</time>
      </trkpt>
      <trkpt lat="48.37813" lon="2.67926">
        <ele>128.80000305176</ele>
        <time>2020-02-07T11:12:03Z</time>
      </trkpt>
      <trkpt lat="48.37816" lon="2.67923">
        <ele>128.80000305176</ele>
        <time>2020-02-07T11:12:08Z</time>
      </trkpt>
      <trkpt lat="48.37817" lon="2.67918">
        <ele>128.80000305176</ele>
        <time>2020-02-07T11:12:13Z</time>
      </trkpt>
      <trkpt lat="48.37821" lon="2.67913">
        <ele>128.80000305176</ele>
        <time>2020-02-07T11:12:18Z</time>
      </trkpt>
      <trkpt lat="48.37821" lon="2.67909">
        <ele>128.80000305176</ele>
        <time>2020-02-07T11:12:23Z</time>
      </trkpt>
      <trkpt lat="48.37823" lon="2.67905">
        <ele>128.80000305176</ele>
        <time>2020-02-07T11:12:28Z</time>
      </trkpt>
      <trkpt lat="48.37823" lon="2.67904">
        <ele>128.80000305176</ele>
        <time>2020-02-07T11:12:33Z</time>
      </trkpt>
      <trkpt lat="48.37823" lon="2.67905">
        <ele>128.80000305176</ele>
        <time>2020-02-07T11:12:38Z</time>
      </trkpt>
      <trkpt lat="48.37823" lon="2.67906">
        <ele>128.80000305176</ele>
        <time>2020-02-07T11:12:43Z</time>
      </trkpt>
      <trkpt lat="48.37824" lon="2.67905">
        <ele>128.80000305176</ele>
        <time>2020-02-07T11:12:48Z</time>
      </trkpt>
      <trkpt lat="48.37828" lon="2.67902">
        <ele>134.39999389648</ele>
        <time>2020-02-07T11:12:53Z</time>
      </trkpt>
      <trkpt lat="48.37828" lon="2.67896">
        <ele>134.60000610352</ele>
        <time>2020-02-07T11:12:58Z</time>
      </trkpt>
      <trkpt lat="48.37827" lon="2.67894">
        <ele>134.80000305176</ele>
        <time>2020-02-07T11:13:03Z</time>
      </trkpt>
      <trkpt lat="48.37829" lon="2.67892">
        <ele>135.39999389648</ele>
        <time>2020-02-07T11:13:08Z</time>
      </trkpt>
      <trkpt lat="48.37831" lon="2.67883">
        <ele>135.60000610352</ele>
        <time>2020-02-07T11:13:13Z</time>
      </trkpt>
      <trkpt lat="48.37834" lon="2.6788">
        <ele>136.19999694824</ele>
        <time>2020-02-07T11:13:18Z</time>
      </trkpt>
      <trkpt lat="48.37837" lon="2.67882">
        <ele>136</ele>
        <time>2020-02-07T11:13:23Z</time>
      </trkpt>
      <trkpt lat="48.37844" lon="2.67883">
        <ele>135.60000610352</ele>
        <time>2020-02-07T11:13:28Z</time>
      </trkpt>
      <trkpt lat="48.37848" lon="2.67882">
        <ele>135.60000610352</ele>
        <time>2020-02-07T11:13:33Z</time>
      </trkpt>
      <trkpt lat="48.37853" lon="2.67881">
        <ele>135.39999389648</ele>
        <time>2020-02-07T11:13:38Z</time>
      </trkpt>
      <trkpt lat="48.37855" lon="2.67875">
        <ele>135.19999694824</ele>
        <time>2020-02-07T11:13:43Z</time>
      </trkpt>
      <trkpt lat="48.37858" lon="2.67868">
        <ele>135.39999389648</ele>
        <time>2020-02-07T11:13:48Z</time>
      </trkpt>
      <trkpt lat="48.3786" lon="2.67862">
        <ele>135.80000305176</ele>
        <time>2020-02-07T11:13:53Z</time>
      </trkpt>
      <trkpt lat="48.37861" lon="2.67859">
        <ele>136</ele>
        <time>2020-02-07T11:13:58Z</time>
      </trkpt>
      <trkpt lat="48.37861" lon="2.67861">
        <ele>136</ele>
        <time>2020-02-07T11:14:03Z</time>
      </trkpt>
      <trkpt lat="48.37861" lon="2.67861">
        <ele>136</ele>
        <time>2020-02-07T11:14:08Z</time>
      </trkpt>
      <trkpt lat="48.37861" lon="2.67862">
        <ele>136</ele>
        <time>2020-02-07T11:14:13Z</time>
      </trkpt>
      <trkpt lat="48.37859" lon="2.67858">
        <ele>136</ele>
        <time>2020-02-07T11:14:18Z</time>
      </trkpt>
      <trkpt lat="48.37859" lon="2.67849">
        <ele>136.19999694824</ele>
        <time>2020-02-07T11:14:23Z</time>
      </trkpt>
      <trkpt lat="48.37857" lon="2.6784">
        <ele>136.19999694824</ele>
        <time>2020-02-07T11:14:28Z</time>
      </trkpt>
      <trkpt lat="48.37857" lon="2.67831">
        <ele>136.60000610352</ele>
        <time>2020-02-07T11:14:33Z</time>
      </trkpt>
      <trkpt lat="48.3786" lon="2.67824">
        <ele>136.60000610352</ele>
        <time>2020-02-07T11:14:38Z</time>
      </trkpt>
      <trkpt lat="48.37865" lon="2.6782">
        <ele>136.19999694824</ele>
        <time>2020-02-07T11:14:43Z</time>
      </trkpt>
      <trkpt lat="48.37866" lon="2.67811">
        <ele>136</ele>
        <time>2020-02-07T11:14:48Z</time>
      </trkpt>
      <trkpt lat="48.37867" lon="2.67803">
        <ele>136.19999694824</ele>
        <time>2020-02-07T11:14:53Z</time>
      </trkpt>
      <trkpt lat="48.37867" lon="2.678">
        <ele>136</ele>
        <time>2020-02-07T11:14:58Z</time>
      </trkpt>
      <trkpt lat="48.37865" lon="2.67796">
        <ele>135.80000305176</ele>
        <time>2020-02-07T11:15:03Z</time>
      </trkpt>
      <trkpt lat="48.37862" lon="2.67791">
        <ele>135.80000305176</ele>
        <time>2020-02-07T11:15:08Z</time>
      </trkpt>
      <trkpt lat="48.37861" lon="2.67784">
        <ele>135.39999389648</ele>
        <time>2020-02-07T11:15:13Z</time>
      </trkpt>
      <trkpt lat="48.37861" lon="2.67772">
        <ele>135</ele>
        <time>2020-02-07T11:15:18Z</time>
      </trkpt>
      <trkpt lat="48.3786" lon="2.67762">
        <ele>134.39999389648</ele>
        <time>2020-02-07T11:15:23Z</time>
      </trkpt>
      <trkpt lat="48.37861" lon="2.67757">
        <ele>133.39999389648</ele>
        <time>2020-02-07T11:15:28Z</time>
      </trkpt>
      <trkpt lat="48.3786" lon="2.67748">
        <ele>132.39999389648</ele>
        <time>2020-02-07T11:15:33Z</time>
      </trkpt>
      <trkpt lat="48.37859" lon="2.67741">
        <ele>132.19999694824</ele>
        <time>2020-02-07T11:15:38Z</time>
      </trkpt>
      <trkpt lat="48.37858" lon="2.67734">
        <ele>132.80000305176</ele>
        <time>2020-02-07T11:15:43Z</time>
      </trkpt>
      <trkpt lat="48.37852" lon="2.6773">
        <ele>134</ele>
        <time>2020-02-07T11:15:48Z</time>
      </trkpt>
      <trkpt lat="48.37848" lon="2.67726">
        <ele>135.19999694824</ele>
        <time>2020-02-07T11:15:53Z</time>
      </trkpt>
      <trkpt lat="48.37845" lon="2.67728">
        <ele>136</ele>
        <time>2020-02-07T11:15:58Z</time>
      </trkpt>
      <trkpt lat="48.37842" lon="2.6772">
        <ele>136.19999694824</ele>
        <time>2020-02-07T11:17:33Z</time>
      </trkpt>
      <trkpt lat="48.37841" lon="2.67711">
        <ele>136.60000610352</ele>
        <time>2020-02-07T11:17:38Z</time>
      </trkpt>
      <trkpt lat="48.37839" lon="2.67705">
        <ele>136.39999389648</ele>
        <time>2020-02-07T11:17:43Z</time>
      </trkpt>
      <trkpt lat="48.37836" lon="2.67703">
        <ele>136</ele>
        <time>2020-02-07T11:17:48Z</time>
      </trkpt>
      <trkpt lat="48.37831" lon="2.67702">
        <ele>134.80000305176</ele>
        <time>2020-02-07T11:17:53Z</time>
      </trkpt>
      <trkpt lat="48.37824" lon="2.67705">
        <ele>133.60000610352</ele>
        <time>2020-02-07T11:17:58Z</time>
      </trkpt>
      <trkpt lat="48.37816" lon="2.67711">
        <ele>132.60000610352</ele>
        <time>2020-02-07T11:18:03Z</time>
      </trkpt>
      <trkpt lat="48.3781" lon="2.67718">
        <ele>131.60000610352</ele>
        <time>2020-02-07T11:18:08Z</time>
      </trkpt>
      <trkpt lat="48.37804" lon="2.67723">
        <ele>130.19999694824</ele>
        <time>2020-02-07T11:18:13Z</time>
      </trkpt>
      <trkpt lat="48.37799" lon="2.67722">
        <ele>129.19999694824</ele>
        <time>2020-02-07T11:18:18Z</time>
      </trkpt>
      <trkpt lat="48.37795" lon="2.67725">
        <ele>127.80000305176</ele>
        <time>2020-02-07T11:18:23Z</time>
      </trkpt>
      <trkpt lat="48.3779" lon="2.67729">
        <ele>126.59999847412</ele>
        <time>2020-02-07T11:18:28Z</time>
      </trkpt>
      <trkpt lat="48.37785" lon="2.67728">
        <ele>125.19999694824</ele>
        <time>2020-02-07T11:18:33Z</time>
      </trkpt>
      <trkpt lat="48.37779" lon="2.67732">
        <ele>123.80000305176</ele>
        <time>2020-02-07T11:18:38Z</time>
      </trkpt>
      <trkpt lat="48.37774" lon="2.67739">
        <ele>123</ele>
        <time>2020-02-07T11:18:43Z</time>
      </trkpt>
      <trkpt lat="48.3777" lon="2.67745">
        <ele>122.19999694824</ele>
        <time>2020-02-07T11:18:48Z</time>
      </trkpt>
      <trkpt lat="48.37764" lon="2.67752">
        <ele>121</ele>
        <time>2020-02-07T11:18:53Z</time>
      </trkpt>
      <trkpt lat="48.37756" lon="2.67762">
        <ele>119.59999847412</ele>
        <time>2020-02-07T11:18:58Z</time>
      </trkpt>
      <trkpt lat="48.37751" lon="2.67768">
        <ele>118.40000152588</ele>
        <time>2020-02-07T11:19:03Z</time>
      </trkpt>
      <trkpt lat="48.37743" lon="2.67773">
        <ele>117.59999847412</ele>
        <time>2020-02-07T11:19:08Z</time>
      </trkpt>
      <trkpt lat="48.37738" lon="2.67782">
        <ele>117</ele>
        <time>2020-02-07T11:19:13Z</time>
      </trkpt>
      <trkpt lat="48.37733" lon="2.67789">
        <ele>116.19999694824</ele>
        <time>2020-02-07T11:19:18Z</time>
      </trkpt>
      <trkpt lat="48.37726" lon="2.67796">
        <ele>115.40000152588</ele>
        <time>2020-02-07T11:19:23Z</time>
      </trkpt>
      <trkpt lat="48.3772" lon="2.67803">
        <ele>114.59999847412</ele>
        <time>2020-02-07T11:19:28Z</time>
      </trkpt>
      <trkpt lat="48.37714" lon="2.67808">
        <ele>114.19999694824</ele>
        <time>2020-02-07T11:19:33Z</time>
      </trkpt>
      <trkpt lat="48.37709" lon="2.67814">
        <ele>113.80000305176</ele>
        <time>2020-02-07T11:19:38Z</time>
      </trkpt>
      <trkpt lat="48.3771" lon="2.67826">
        <ele>113.19999694824</ele>
        <time>2020-02-07T11:19:43Z</time>
      </trkpt>
      <trkpt lat="48.37711" lon="2.67838">
        <ele>113</ele>
        <time>2020-02-07T11:19:48Z</time>
      </trkpt>
      <trkpt lat="48.37712" lon="2.67848">
        <ele>112.80000305176</ele>
        <time>2020-02-07T11:19:53Z</time>
      </trkpt>
      <trkpt lat="48.37712" lon="2.6786">
        <ele>112.19999694824</ele>
        <time>2020-02-07T11:19:58Z</time>
      </trkpt>
      <trkpt lat="48.37715" lon="2.67873">
        <ele>111.80000305176</ele>
        <time>2020-02-07T11:20:03Z</time>
      </trkpt>
      <trkpt lat="48.37716" lon="2.67882">
        <ele>111.59999847412</ele>
        <time>2020-02-07T11:20:08Z</time>
      </trkpt>
      <trkpt lat="48.37716" lon="2.67895">
        <ele>111.19999694824</ele>
        <time>2020-02-07T11:20:13Z</time>
      </trkpt>
      <trkpt lat="48.37717" lon="2.67907">
        <ele>110.59999847412</ele>
        <time>2020-02-07T11:20:18Z</time>
      </trkpt>
      <trkpt lat="48.37719" lon="2.67919">
        <ele>110.40000152588</ele>
        <time>2020-02-07T11:20:23Z</time>
      </trkpt>
      <trkpt lat="48.3772" lon="2.67933">
        <ele>110.19999694824</ele>
        <time>2020-02-07T11:20:28Z</time>
      </trkpt>
      <trkpt lat="48.37722" lon="2.67943">
        <ele>110</ele>
        <time>2020-02-07T11:20:33Z</time>
      </trkpt>
      <trkpt lat="48.37725" lon="2.67953">
        <ele>109.59999847412</ele>
        <time>2020-02-07T11:20:38Z</time>
      </trkpt>
      <trkpt lat="48.37728" lon="2.67961">
        <ele>109.40000152588</ele>
        <time>2020-02-07T11:20:43Z</time>
      </trkpt>
      <trkpt lat="48.3773" lon="2.67964">
        <ele>109.40000152588</ele>
        <time>2020-02-07T11:20:48Z</time>
      </trkpt>
      <trkpt lat="48.37731" lon="2.67965">
        <ele>109.59999847412</ele>
        <time>2020-02-07T11:20:53Z</time>
      </trkpt>
      <trkpt lat="48.37731" lon="2.67965">
        <ele>109.59999847412</ele>
        <time>2020-02-07T11:20:58Z</time>
      </trkpt>
      <trkpt lat="48.37732" lon="2.67965">
        <ele>109.59999847412</ele>
        <time>2020-02-07T11:21:03Z</time>
      </trkpt>
      <trkpt lat="48.37732" lon="2.67965">
        <ele>109.59999847412</ele>
        <time>2020-02-07T11:21:08Z</time>
      </trkpt>
      <trkpt lat="48.37733" lon="2.67965">
        <ele>109.40000152588</ele>
        <time>2020-02-07T11:21:13Z</time>
      </trkpt>
      <trkpt lat="48.37732" lon="2.67964">
        <ele>109.40000152588</ele>
        <time>2020-02-07T11:21:18Z</time>
      </trkpt>
      <trkpt lat="48.37731" lon="2.67965">
        <ele>109.40000152588</ele>
        <time>2020-02-07T11:21:23Z</time>
      </trkpt>
      <trkpt lat="48.37731" lon="2.67964">
        <ele>109.40000152588</ele>
        <time>2020-02-07T11:21:25Z</time>
      </trkpt>
    </trkseg>
  </trk>
</gpx>